<?xml version="1.0" encoding="UTF-8" standalone="no" ?>
<gpx xmlns="http://www.topografix.com/GPX/1/1" xmlns:xsi="http://www.w3.org/2001/XMLSchema-instance" xsi:schemaLocation="http://www.topografix.com/GPX/1/1 http://www.topografix.com/GPX/1/1/gpx.xsd" version="1.1" creator="VisuGPX - https://www.visugpx.com">
  <metadata>
    <name>Sumit-Sea 003</name>
    <desc><![CDATA[Descente du sommet de Montchique jusqu'a la plage d'Alvor. Un panorama exeptionel  par beau temps. Le seul inconvenient c'est la navette obligatoire.]]></desc>
  </metadata>
  <trk>
    <name><![CDATA[Sumit-Sea 003]]></name>
    <trkseg>
      <trkpt lat="37.31576" lon="-8.59274">
        <ele>870.61108398438</ele>
        <time>2019-04-28T09:42:49Z</time>
      </trkpt>
      <trkpt lat="37.31576" lon="-8.59274">
        <ele>868.6884765625</ele>
        <time>2019-04-28T09:42:53Z</time>
      </trkpt>
      <trkpt lat="37.31576" lon="-8.59274">
        <ele>872.53369140625</ele>
        <time>2019-04-28T09:42:57Z</time>
      </trkpt>
      <trkpt lat="37.31576" lon="-8.59274">
        <ele>873.01440429688</ele>
        <time>2019-04-28T09:42:58Z</time>
      </trkpt>
      <trkpt lat="37.31576" lon="-8.59274">
        <ele>874.45629882812</ele>
        <time>2019-04-28T09:43:01Z</time>
      </trkpt>
      <trkpt lat="37.31576" lon="-8.59274">
        <ele>877.34057617188</ele>
        <time>2019-04-28T09:43:05Z</time>
      </trkpt>
      <trkpt lat="37.31576" lon="-8.59274">
        <ele>877.82104492188</ele>
        <time>2019-04-28T09:43:06Z</time>
      </trkpt>
      <trkpt lat="37.31576" lon="-8.59274">
        <ele>879.26293945312</ele>
        <time>2019-04-28T09:43:10Z</time>
      </trkpt>
      <trkpt lat="37.31575" lon="-8.59275">
        <ele>882.62768554688</ele>
        <time>2019-04-28T09:43:20Z</time>
      </trkpt>
      <trkpt lat="37.31575" lon="-8.59275">
        <ele>885.51147460938</ele>
        <time>2019-04-28T09:43:34Z</time>
      </trkpt>
      <trkpt lat="37.31575" lon="-8.59275">
        <ele>888.87622070312</ele>
        <time>2019-04-28T09:44:03Z</time>
      </trkpt>
      <trkpt lat="37.31574" lon="-8.59275">
        <ele>889.83740234375</ele>
        <time>2019-04-28T09:44:43Z</time>
      </trkpt>
      <trkpt lat="37.31572" lon="-8.59283">
        <ele>890.31811523438</ele>
        <time>2019-04-28T09:44:49Z</time>
      </trkpt>
      <trkpt lat="37.31596" lon="-8.59308">
        <ele>891.76000976562</ele>
        <time>2019-04-28T09:45:03Z</time>
      </trkpt>
      <trkpt lat="37.31629" lon="-8.59334">
        <ele>893.2021484375</ele>
        <time>2019-04-28T09:45:18Z</time>
      </trkpt>
      <trkpt lat="37.31632" lon="-8.59339">
        <ele>893.2021484375</ele>
        <time>2019-04-28T09:45:20Z</time>
      </trkpt>
      <trkpt lat="37.31628" lon="-8.59389">
        <ele>894.16357421875</ele>
        <time>2019-04-28T09:45:36Z</time>
      </trkpt>
      <trkpt lat="37.31638" lon="-8.5943">
        <ele>897.04736328125</ele>
        <time>2019-04-28T09:45:52Z</time>
      </trkpt>
      <trkpt lat="37.31646" lon="-8.59435">
        <ele>895.60546875</ele>
        <time>2019-04-28T09:45:55Z</time>
      </trkpt>
      <trkpt lat="37.31664" lon="-8.59441">
        <ele>893.68286132812</ele>
        <time>2019-04-28T09:45:59Z</time>
      </trkpt>
      <trkpt lat="37.31669" lon="-8.59442">
        <ele>892.7216796875</ele>
        <time>2019-04-28T09:46:00Z</time>
      </trkpt>
      <trkpt lat="37.31687" lon="-8.59446">
        <ele>891.279296875</ele>
        <time>2019-04-28T09:46:04Z</time>
      </trkpt>
      <trkpt lat="37.31687" lon="-8.59446">
        <ele>890.79858398438</ele>
        <time>2019-04-28T09:46:05Z</time>
      </trkpt>
      <trkpt lat="37.31715" lon="-8.59474">
        <ele>890.31811523438</ele>
        <time>2019-04-28T09:46:09Z</time>
      </trkpt>
      <trkpt lat="37.3172" lon="-8.59492">
        <ele>889.83740234375</ele>
        <time>2019-04-28T09:46:11Z</time>
      </trkpt>
      <trkpt lat="37.3172" lon="-8.59531">
        <ele>888.3955078125</ele>
        <time>2019-04-28T09:46:15Z</time>
      </trkpt>
      <trkpt lat="37.3171" lon="-8.59572">
        <ele>886.95336914062</ele>
        <time>2019-04-28T09:46:19Z</time>
      </trkpt>
      <trkpt lat="37.31705" lon="-8.59593">
        <ele>885.51147460938</ele>
        <time>2019-04-28T09:46:21Z</time>
      </trkpt>
      <trkpt lat="37.31697" lon="-8.59626">
        <ele>883.10815429688</ele>
        <time>2019-04-28T09:46:24Z</time>
      </trkpt>
      <trkpt lat="37.31692" lon="-8.59649">
        <ele>881.66625976562</ele>
        <time>2019-04-28T09:46:26Z</time>
      </trkpt>
      <trkpt lat="37.31689" lon="-8.5966">
        <ele>881.66625976562</ele>
        <time>2019-04-28T09:46:27Z</time>
      </trkpt>
      <trkpt lat="37.31672" lon="-8.59702">
        <ele>877.82104492188</ele>
        <time>2019-04-28T09:46:31Z</time>
      </trkpt>
      <trkpt lat="37.3166" lon="-8.59722">
        <ele>876.85986328125</ele>
        <time>2019-04-28T09:46:33Z</time>
      </trkpt>
      <trkpt lat="37.31647" lon="-8.59748">
        <ele>875.41748046875</ele>
        <time>2019-04-28T09:46:36Z</time>
      </trkpt>
      <trkpt lat="37.31633" lon="-8.59782">
        <ele>872.05297851562</ele>
        <time>2019-04-28T09:46:42Z</time>
      </trkpt>
      <trkpt lat="37.31644" lon="-8.59787">
        <ele>872.05297851562</ele>
        <time>2019-04-28T09:46:46Z</time>
      </trkpt>
      <trkpt lat="37.31646" lon="-8.59784">
        <ele>871.572265625</ele>
        <time>2019-04-28T09:47:05Z</time>
      </trkpt>
      <trkpt lat="37.31652" lon="-8.59763">
        <ele>869.64990234375</ele>
        <time>2019-04-28T09:47:30Z</time>
      </trkpt>
      <trkpt lat="37.31665" lon="-8.59745">
        <ele>867.72705078125</ele>
        <time>2019-04-28T09:47:33Z</time>
      </trkpt>
      <trkpt lat="37.31696" lon="-8.59721">
        <ele>865.32397460938</ele>
        <time>2019-04-28T09:47:38Z</time>
      </trkpt>
      <trkpt lat="37.31723" lon="-8.59685">
        <ele>861.95947265625</ele>
        <time>2019-04-28T09:47:43Z</time>
      </trkpt>
      <trkpt lat="37.31767" lon="-8.59629">
        <ele>858.11401367188</ele>
        <time>2019-04-28T09:47:50Z</time>
      </trkpt>
      <trkpt lat="37.31795" lon="-8.59602">
        <ele>852.82666015625</ele>
        <time>2019-04-28T09:47:54Z</time>
      </trkpt>
      <trkpt lat="37.31829" lon="-8.59595">
        <ele>851.86547851562</ele>
        <time>2019-04-28T09:47:58Z</time>
      </trkpt>
      <trkpt lat="37.31903" lon="-8.59574">
        <ele>846.57836914062</ele>
        <time>2019-04-28T09:48:06Z</time>
      </trkpt>
      <trkpt lat="37.31912" lon="-8.59569">
        <ele>846.57836914062</ele>
        <time>2019-04-28T09:48:07Z</time>
      </trkpt>
      <trkpt lat="37.31945" lon="-8.59551">
        <ele>844.17504882812</ele>
        <time>2019-04-28T09:48:11Z</time>
      </trkpt>
      <trkpt lat="37.31967" lon="-8.59504">
        <ele>842.25219726562</ele>
        <time>2019-04-28T09:48:17Z</time>
      </trkpt>
      <trkpt lat="37.31973" lon="-8.59489">
        <ele>839.84887695312</ele>
        <time>2019-04-28T09:48:19Z</time>
      </trkpt>
      <trkpt lat="37.31978" lon="-8.59482">
        <ele>839.3681640625</ele>
        <time>2019-04-28T09:48:21Z</time>
      </trkpt>
      <trkpt lat="37.3198" lon="-8.59479">
        <ele>837.44555664062</ele>
        <time>2019-04-28T09:48:25Z</time>
      </trkpt>
      <trkpt lat="37.3198" lon="-8.59479">
        <ele>838.40698242188</ele>
        <time>2019-04-28T09:48:30Z</time>
      </trkpt>
      <trkpt lat="37.31985" lon="-8.59478">
        <ele>838.40698242188</ele>
        <time>2019-04-28T09:48:34Z</time>
      </trkpt>
      <trkpt lat="37.31987" lon="-8.59525">
        <ele>836.484375</ele>
        <time>2019-04-28T09:48:44Z</time>
      </trkpt>
      <trkpt lat="37.31984" lon="-8.59556">
        <ele>835.52294921875</ele>
        <time>2019-04-28T09:48:48Z</time>
      </trkpt>
      <trkpt lat="37.31981" lon="-8.59583">
        <ele>833.60034179688</ele>
        <time>2019-04-28T09:48:51Z</time>
      </trkpt>
      <trkpt lat="37.31965" lon="-8.59618">
        <ele>831.677734375</ele>
        <time>2019-04-28T09:48:56Z</time>
      </trkpt>
      <trkpt lat="37.31924" lon="-8.59664">
        <ele>829.2744140625</ele>
        <time>2019-04-28T09:49:04Z</time>
      </trkpt>
      <trkpt lat="37.31914" lon="-8.59676">
        <ele>827.83227539062</ele>
        <time>2019-04-28T09:49:07Z</time>
      </trkpt>
      <trkpt lat="37.31929" lon="-8.59692">
        <ele>823.98706054688</ele>
        <time>2019-04-28T09:49:11Z</time>
      </trkpt>
      <trkpt lat="37.31935" lon="-8.59691">
        <ele>824.4677734375</ele>
        <time>2019-04-28T09:49:12Z</time>
      </trkpt>
      <trkpt lat="37.31942" lon="-8.59689">
        <ele>824.94848632812</ele>
        <time>2019-04-28T09:49:13Z</time>
      </trkpt>
      <trkpt lat="37.31962" lon="-8.59683">
        <ele>823.50659179688</ele>
        <time>2019-04-28T09:49:16Z</time>
      </trkpt>
      <trkpt lat="37.32007" lon="-8.59665">
        <ele>822.54516601562</ele>
        <time>2019-04-28T09:49:22Z</time>
      </trkpt>
      <trkpt lat="37.32056" lon="-8.59635">
        <ele>820.62255859375</ele>
        <time>2019-04-28T09:49:28Z</time>
      </trkpt>
      <trkpt lat="37.32072" lon="-8.59623">
        <ele>816.77734375</ele>
        <time>2019-04-28T09:49:30Z</time>
      </trkpt>
      <trkpt lat="37.321" lon="-8.59609">
        <ele>814.85473632812</ele>
        <time>2019-04-28T09:49:33Z</time>
      </trkpt>
      <trkpt lat="37.32129" lon="-8.59595">
        <ele>811.970703125</ele>
        <time>2019-04-28T09:49:36Z</time>
      </trkpt>
      <trkpt lat="37.32188" lon="-8.59529">
        <ele>809.08666992188</ele>
        <time>2019-04-28T09:49:44Z</time>
      </trkpt>
      <trkpt lat="37.32218" lon="-8.59495">
        <ele>806.20263671875</ele>
        <time>2019-04-28T09:49:48Z</time>
      </trkpt>
      <trkpt lat="37.32241" lon="-8.59469">
        <ele>803.31884765625</ele>
        <time>2019-04-28T09:49:51Z</time>
      </trkpt>
      <trkpt lat="37.32272" lon="-8.59433">
        <ele>799.95434570312</ele>
        <time>2019-04-28T09:49:55Z</time>
      </trkpt>
      <trkpt lat="37.32287" lon="-8.59416">
        <ele>798.99291992188</ele>
        <time>2019-04-28T09:49:57Z</time>
      </trkpt>
      <trkpt lat="37.32305" lon="-8.59395">
        <ele>798.99291992188</ele>
        <time>2019-04-28T09:50:00Z</time>
      </trkpt>
      <trkpt lat="37.32313" lon="-8.59382">
        <ele>797.55102539062</ele>
        <time>2019-04-28T09:50:03Z</time>
      </trkpt>
      <trkpt lat="37.32324" lon="-8.59389">
        <ele>798.03173828125</ele>
        <time>2019-04-28T09:50:07Z</time>
      </trkpt>
      <trkpt lat="37.32324" lon="-8.59389">
        <ele>797.0703125</ele>
        <time>2019-04-28T09:50:25Z</time>
      </trkpt>
      <trkpt lat="37.32326" lon="-8.59413">
        <ele>796.10913085938</ele>
        <time>2019-04-28T09:50:52Z</time>
      </trkpt>
      <trkpt lat="37.32328" lon="-8.5943">
        <ele>795.62817382812</ele>
        <time>2019-04-28T09:50:55Z</time>
      </trkpt>
      <trkpt lat="37.32336" lon="-8.5947">
        <ele>794.18627929688</ele>
        <time>2019-04-28T09:51:01Z</time>
      </trkpt>
      <trkpt lat="37.32335" lon="-8.59498">
        <ele>792.263671875</ele>
        <time>2019-04-28T09:51:05Z</time>
      </trkpt>
      <trkpt lat="37.32332" lon="-8.59521">
        <ele>790.82153320312</ele>
        <time>2019-04-28T09:51:08Z</time>
      </trkpt>
      <trkpt lat="37.32333" lon="-8.59587">
        <ele>787.93774414062</ele>
        <time>2019-04-28T09:51:16Z</time>
      </trkpt>
      <trkpt lat="37.32335" lon="-8.59613">
        <ele>786.49584960938</ele>
        <time>2019-04-28T09:51:20Z</time>
      </trkpt>
      <trkpt lat="37.32336" lon="-8.59628">
        <ele>785.53442382812</ele>
        <time>2019-04-28T09:51:22Z</time>
      </trkpt>
      <trkpt lat="37.32332" lon="-8.59702">
        <ele>782.65063476562</ele>
        <time>2019-04-28T09:51:31Z</time>
      </trkpt>
      <trkpt lat="37.32332" lon="-8.59716">
        <ele>781.68920898438</ele>
        <time>2019-04-28T09:51:33Z</time>
      </trkpt>
      <trkpt lat="37.32331" lon="-8.59744">
        <ele>779.28564453125</ele>
        <time>2019-04-28T09:51:37Z</time>
      </trkpt>
      <trkpt lat="37.32331" lon="-8.59771">
        <ele>776.40185546875</ele>
        <time>2019-04-28T09:51:41Z</time>
      </trkpt>
      <trkpt lat="37.3233" lon="-8.5979">
        <ele>773.03735351562</ele>
        <time>2019-04-28T09:51:44Z</time>
      </trkpt>
      <trkpt lat="37.3233" lon="-8.59796">
        <ele>773.51806640625</ele>
        <time>2019-04-28T09:51:45Z</time>
      </trkpt>
      <trkpt lat="37.32341" lon="-8.59824">
        <ele>769.6728515625</ele>
        <time>2019-04-28T09:51:49Z</time>
      </trkpt>
      <trkpt lat="37.32348" lon="-8.59838">
        <ele>768.71142578125</ele>
        <time>2019-04-28T09:51:51Z</time>
      </trkpt>
      <trkpt lat="37.32356" lon="-8.59886">
        <ele>769.6728515625</ele>
        <time>2019-04-28T09:51:58Z</time>
      </trkpt>
      <trkpt lat="37.32357" lon="-8.59905">
        <ele>769.6728515625</ele>
        <time>2019-04-28T09:52:01Z</time>
      </trkpt>
      <trkpt lat="37.32348" lon="-8.5993">
        <ele>769.19213867188</ele>
        <time>2019-04-28T09:52:05Z</time>
      </trkpt>
      <trkpt lat="37.32316" lon="-8.59976">
        <ele>768.23071289062</ele>
        <time>2019-04-28T09:52:13Z</time>
      </trkpt>
      <trkpt lat="37.32307" lon="-8.60003">
        <ele>768.23071289062</ele>
        <time>2019-04-28T09:52:17Z</time>
      </trkpt>
      <trkpt lat="37.32284" lon="-8.60089">
        <ele>766.78881835938</ele>
        <time>2019-04-28T09:52:30Z</time>
      </trkpt>
      <trkpt lat="37.32272" lon="-8.60116">
        <ele>767.26953125</ele>
        <time>2019-04-28T09:52:36Z</time>
      </trkpt>
      <trkpt lat="37.32267" lon="-8.60139">
        <ele>767.75</ele>
        <time>2019-04-28T09:52:40Z</time>
      </trkpt>
      <trkpt lat="37.32236" lon="-8.60217">
        <ele>767.26953125</ele>
        <time>2019-04-28T09:52:55Z</time>
      </trkpt>
      <trkpt lat="37.32235" lon="-8.60219">
        <ele>767.26953125</ele>
        <time>2019-04-28T09:52:56Z</time>
      </trkpt>
      <trkpt lat="37.32235" lon="-8.60219">
        <ele>766.78881835938</ele>
        <time>2019-04-28T09:53:08Z</time>
      </trkpt>
      <trkpt lat="37.32224" lon="-8.60239">
        <ele>764.38549804688</ele>
        <time>2019-04-28T09:53:16Z</time>
      </trkpt>
      <trkpt lat="37.32218" lon="-8.6025">
        <ele>763.42407226562</ele>
        <time>2019-04-28T09:53:18Z</time>
      </trkpt>
      <trkpt lat="37.32211" lon="-8.60268">
        <ele>762.46264648438</ele>
        <time>2019-04-28T09:53:21Z</time>
      </trkpt>
      <trkpt lat="37.32203" lon="-8.60295">
        <ele>761.50146484375</ele>
        <time>2019-04-28T09:53:25Z</time>
      </trkpt>
      <trkpt lat="37.32202" lon="-8.60308">
        <ele>760.05932617188</ele>
        <time>2019-04-28T09:53:27Z</time>
      </trkpt>
      <trkpt lat="37.32202" lon="-8.60314">
        <ele>759.57885742188</ele>
        <time>2019-04-28T09:53:28Z</time>
      </trkpt>
      <trkpt lat="37.32209" lon="-8.6036">
        <ele>755.2529296875</ele>
        <time>2019-04-28T09:53:38Z</time>
      </trkpt>
      <trkpt lat="37.32213" lon="-8.60382">
        <ele>754.29174804688</ele>
        <time>2019-04-28T09:53:43Z</time>
      </trkpt>
      <trkpt lat="37.32216" lon="-8.60418">
        <ele>751.40771484375</ele>
        <time>2019-04-28T09:53:49Z</time>
      </trkpt>
      <trkpt lat="37.32209" lon="-8.60456">
        <ele>748.52368164062</ele>
        <time>2019-04-28T09:53:56Z</time>
      </trkpt>
      <trkpt lat="37.32194" lon="-8.60488">
        <ele>745.6396484375</ele>
        <time>2019-04-28T09:54:04Z</time>
      </trkpt>
      <trkpt lat="37.32171" lon="-8.60514">
        <ele>742.27514648438</ele>
        <time>2019-04-28T09:54:11Z</time>
      </trkpt>
      <trkpt lat="37.32161" lon="-8.60526">
        <ele>739.87182617188</ele>
        <time>2019-04-28T09:54:14Z</time>
      </trkpt>
      <trkpt lat="37.32152" lon="-8.6054">
        <ele>738.42993164062</ele>
        <time>2019-04-28T09:54:17Z</time>
      </trkpt>
      <trkpt lat="37.32147" lon="-8.60548">
        <ele>737.46850585938</ele>
        <time>2019-04-28T09:54:19Z</time>
      </trkpt>
      <trkpt lat="37.32136" lon="-8.60564">
        <ele>736.02661132812</ele>
        <time>2019-04-28T09:54:23Z</time>
      </trkpt>
      <trkpt lat="37.32114" lon="-8.6058">
        <ele>732.662109375</ele>
        <time>2019-04-28T09:54:29Z</time>
      </trkpt>
      <trkpt lat="37.32107" lon="-8.60582">
        <ele>732.18139648438</ele>
        <time>2019-04-28T09:54:31Z</time>
      </trkpt>
      <trkpt lat="37.321" lon="-8.60585">
        <ele>730.25854492188</ele>
        <time>2019-04-28T09:54:34Z</time>
      </trkpt>
      <trkpt lat="37.32105" lon="-8.60567">
        <ele>729.77783203125</ele>
        <time>2019-04-28T09:54:41Z</time>
      </trkpt>
      <trkpt lat="37.32105" lon="-8.60567">
        <ele>730.25854492188</ele>
        <time>2019-04-28T09:54:59Z</time>
      </trkpt>
      <trkpt lat="37.32116" lon="-8.60554">
        <ele>730.25854492188</ele>
        <time>2019-04-28T09:55:37Z</time>
      </trkpt>
      <trkpt lat="37.32145" lon="-8.60507">
        <ele>731.70043945312</ele>
        <time>2019-04-28T09:55:53Z</time>
      </trkpt>
      <trkpt lat="37.32166" lon="-8.6047">
        <ele>734.10400390625</ele>
        <time>2019-04-28T09:56:06Z</time>
      </trkpt>
      <trkpt lat="37.32173" lon="-8.60447">
        <ele>736.02661132812</ele>
        <time>2019-04-28T09:56:13Z</time>
      </trkpt>
      <trkpt lat="37.32167" lon="-8.60409">
        <ele>735.5458984375</ele>
        <time>2019-04-28T09:56:24Z</time>
      </trkpt>
      <trkpt lat="37.3215" lon="-8.60348">
        <ele>736.98779296875</ele>
        <time>2019-04-28T09:56:39Z</time>
      </trkpt>
      <trkpt lat="37.32141" lon="-8.60282">
        <ele>736.50732421875</ele>
        <time>2019-04-28T09:56:55Z</time>
      </trkpt>
      <trkpt lat="37.32158" lon="-8.60219">
        <ele>736.98779296875</ele>
        <time>2019-04-28T09:57:10Z</time>
      </trkpt>
      <trkpt lat="37.32177" lon="-8.60162">
        <ele>737.46850585938</ele>
        <time>2019-04-28T09:57:25Z</time>
      </trkpt>
      <trkpt lat="37.32184" lon="-8.60143">
        <ele>736.50732421875</ele>
        <time>2019-04-28T09:57:30Z</time>
      </trkpt>
      <trkpt lat="37.32162" lon="-8.60135">
        <ele>737.46850585938</ele>
        <time>2019-04-28T09:57:37Z</time>
      </trkpt>
      <trkpt lat="37.32094" lon="-8.6015">
        <ele>737.46850585938</ele>
        <time>2019-04-28T09:57:56Z</time>
      </trkpt>
      <trkpt lat="37.32049" lon="-8.60145">
        <ele>738.42993164062</ele>
        <time>2019-04-28T09:58:11Z</time>
      </trkpt>
      <trkpt lat="37.32017" lon="-8.60138">
        <ele>737.94921875</ele>
        <time>2019-04-28T09:58:24Z</time>
      </trkpt>
      <trkpt lat="37.31965" lon="-8.60132">
        <ele>741.31372070312</ele>
        <time>2019-04-28T09:58:40Z</time>
      </trkpt>
      <trkpt lat="37.31908" lon="-8.60117">
        <ele>741.31372070312</ele>
        <time>2019-04-28T09:58:58Z</time>
      </trkpt>
      <trkpt lat="37.31883" lon="-8.60095">
        <ele>740.3525390625</ele>
        <time>2019-04-28T09:59:08Z</time>
      </trkpt>
      <trkpt lat="37.31855" lon="-8.6012">
        <ele>741.31372070312</ele>
        <time>2019-04-28T09:59:20Z</time>
      </trkpt>
      <trkpt lat="37.31847" lon="-8.60179">
        <ele>743.236328125</ele>
        <time>2019-04-28T09:59:37Z</time>
      </trkpt>
      <trkpt lat="37.31837" lon="-8.60237">
        <ele>745.15893554688</ele>
        <time>2019-04-28T09:59:55Z</time>
      </trkpt>
      <trkpt lat="37.31819" lon="-8.60302">
        <ele>745.6396484375</ele>
        <time>2019-04-28T10:00:13Z</time>
      </trkpt>
      <trkpt lat="37.31805" lon="-8.60366">
        <ele>746.12036132812</ele>
        <time>2019-04-28T10:00:30Z</time>
      </trkpt>
      <trkpt lat="37.318" lon="-8.60392">
        <ele>746.60107421875</ele>
        <time>2019-04-28T10:00:40Z</time>
      </trkpt>
      <trkpt lat="37.318" lon="-8.60393">
        <ele>746.12036132812</ele>
        <time>2019-04-28T10:00:56Z</time>
      </trkpt>
      <trkpt lat="37.318" lon="-8.60393">
        <ele>748.04321289062</ele>
        <time>2019-04-28T10:02:26Z</time>
      </trkpt>
      <trkpt lat="37.318" lon="-8.60393">
        <ele>748.04321289062</ele>
        <time>2019-04-28T10:02:50Z</time>
      </trkpt>
      <trkpt lat="37.318" lon="-8.60393">
        <ele>747.56225585938</ele>
        <time>2019-04-28T10:03:16Z</time>
      </trkpt>
      <trkpt lat="37.31795" lon="-8.60407">
        <ele>748.04321289062</ele>
        <time>2019-04-28T10:03:20Z</time>
      </trkpt>
      <trkpt lat="37.31753" lon="-8.60455">
        <ele>748.52368164062</ele>
        <time>2019-04-28T10:03:37Z</time>
      </trkpt>
      <trkpt lat="37.31701" lon="-8.6049">
        <ele>749.9658203125</ele>
        <time>2019-04-28T10:03:55Z</time>
      </trkpt>
      <trkpt lat="37.31645" lon="-8.60522">
        <ele>749.00439453125</ele>
        <time>2019-04-28T10:04:11Z</time>
      </trkpt>
      <trkpt lat="37.31583" lon="-8.60543">
        <ele>749.48510742188</ele>
        <time>2019-04-28T10:04:27Z</time>
      </trkpt>
      <trkpt lat="37.31522" lon="-8.6055">
        <ele>750.44653320312</ele>
        <time>2019-04-28T10:04:44Z</time>
      </trkpt>
      <trkpt lat="37.31473" lon="-8.60558">
        <ele>751.40771484375</ele>
        <time>2019-04-28T10:04:58Z</time>
      </trkpt>
      <trkpt lat="37.31417" lon="-8.60561">
        <ele>751.88842773438</ele>
        <time>2019-04-28T10:05:13Z</time>
      </trkpt>
      <trkpt lat="37.31391" lon="-8.60573">
        <ele>751.88842773438</ele>
        <time>2019-04-28T10:05:23Z</time>
      </trkpt>
      <trkpt lat="37.31362" lon="-8.60605">
        <ele>751.88842773438</ele>
        <time>2019-04-28T10:05:32Z</time>
      </trkpt>
      <trkpt lat="37.3135" lon="-8.60619">
        <ele>751.88842773438</ele>
        <time>2019-04-28T10:05:36Z</time>
      </trkpt>
      <trkpt lat="37.31296" lon="-8.60683">
        <ele>751.88842773438</ele>
        <time>2019-04-28T10:05:55Z</time>
      </trkpt>
      <trkpt lat="37.31258" lon="-8.60736">
        <ele>751.88842773438</ele>
        <time>2019-04-28T10:06:11Z</time>
      </trkpt>
      <trkpt lat="37.31216" lon="-8.60812">
        <ele>751.88842773438</ele>
        <time>2019-04-28T10:06:31Z</time>
      </trkpt>
      <trkpt lat="37.31166" lon="-8.60865">
        <ele>752.849609375</ele>
        <time>2019-04-28T10:06:50Z</time>
      </trkpt>
      <trkpt lat="37.31147" lon="-8.60914">
        <ele>752.849609375</ele>
        <time>2019-04-28T10:07:03Z</time>
      </trkpt>
      <trkpt lat="37.3114" lon="-8.60979">
        <ele>752.849609375</ele>
        <time>2019-04-28T10:07:19Z</time>
      </trkpt>
      <trkpt lat="37.31147" lon="-8.61036">
        <ele>753.33032226562</ele>
        <time>2019-04-28T10:07:33Z</time>
      </trkpt>
      <trkpt lat="37.31158" lon="-8.61077">
        <ele>753.81103515625</ele>
        <time>2019-04-28T10:07:44Z</time>
      </trkpt>
      <trkpt lat="37.3115" lon="-8.61074">
        <ele>755.73364257812</ele>
        <time>2019-04-28T10:07:54Z</time>
      </trkpt>
      <trkpt lat="37.31146" lon="-8.61066">
        <ele>756.21411132812</ele>
        <time>2019-04-28T10:07:58Z</time>
      </trkpt>
      <trkpt lat="37.31128" lon="-8.61041">
        <ele>761.02075195312</ele>
        <time>2019-04-28T10:08:11Z</time>
      </trkpt>
      <trkpt lat="37.31121" lon="-8.61035">
        <ele>762.46264648438</ele>
        <time>2019-04-28T10:08:15Z</time>
      </trkpt>
      <trkpt lat="37.31104" lon="-8.61013">
        <ele>763.90454101562</ele>
        <time>2019-04-28T10:08:27Z</time>
      </trkpt>
      <trkpt lat="37.31096" lon="-8.60992">
        <ele>767.26953125</ele>
        <time>2019-04-28T10:08:38Z</time>
      </trkpt>
      <trkpt lat="37.31094" lon="-8.60969">
        <ele>769.19213867188</ele>
        <time>2019-04-28T10:08:48Z</time>
      </trkpt>
      <trkpt lat="37.31089" lon="-8.6098">
        <ele>769.6728515625</ele>
        <time>2019-04-28T10:08:57Z</time>
      </trkpt>
      <trkpt lat="37.31088" lon="-8.60992">
        <ele>769.6728515625</ele>
        <time>2019-04-28T10:09:00Z</time>
      </trkpt>
      <trkpt lat="37.31084" lon="-8.61048">
        <ele>770.63403320312</ele>
        <time>2019-04-28T10:09:16Z</time>
      </trkpt>
      <trkpt lat="37.31083" lon="-8.61089">
        <ele>772.07592773438</ele>
        <time>2019-04-28T10:09:31Z</time>
      </trkpt>
      <trkpt lat="37.31075" lon="-8.61134">
        <ele>773.99853515625</ele>
        <time>2019-04-28T10:09:48Z</time>
      </trkpt>
      <trkpt lat="37.31063" lon="-8.61177">
        <ele>776.88256835938</ele>
        <time>2019-04-28T10:10:04Z</time>
      </trkpt>
      <trkpt lat="37.31047" lon="-8.61232">
        <ele>778.32446289062</ele>
        <time>2019-04-28T10:10:23Z</time>
      </trkpt>
      <trkpt lat="37.31018" lon="-8.61283">
        <ele>780.72802734375</ele>
        <time>2019-04-28T10:10:41Z</time>
      </trkpt>
      <trkpt lat="37.31011" lon="-8.61309">
        <ele>781.68920898438</ele>
        <time>2019-04-28T10:10:54Z</time>
      </trkpt>
      <trkpt lat="37.31011" lon="-8.6131">
        <ele>781.20874023438</ele>
        <time>2019-04-28T10:11:15Z</time>
      </trkpt>
      <trkpt lat="37.31004" lon="-8.61332">
        <ele>779.28564453125</ele>
        <time>2019-04-28T10:11:42Z</time>
      </trkpt>
      <trkpt lat="37.30999" lon="-8.61362">
        <ele>777.36328125</ele>
        <time>2019-04-28T10:11:46Z</time>
      </trkpt>
      <trkpt lat="37.30998" lon="-8.61389">
        <ele>773.51806640625</ele>
        <time>2019-04-28T10:11:49Z</time>
      </trkpt>
      <trkpt lat="37.30997" lon="-8.61405">
        <ele>773.03735351562</ele>
        <time>2019-04-28T10:11:51Z</time>
      </trkpt>
      <trkpt lat="37.30996" lon="-8.61429">
        <ele>769.6728515625</ele>
        <time>2019-04-28T10:11:54Z</time>
      </trkpt>
      <trkpt lat="37.30995" lon="-8.61445">
        <ele>768.23071289062</ele>
        <time>2019-04-28T10:11:56Z</time>
      </trkpt>
      <trkpt lat="37.3099" lon="-8.6146">
        <ele>767.75</ele>
        <time>2019-04-28T10:11:58Z</time>
      </trkpt>
      <trkpt lat="37.30986" lon="-8.61476">
        <ele>765.82763671875</ele>
        <time>2019-04-28T10:12:00Z</time>
      </trkpt>
      <trkpt lat="37.30965" lon="-8.61505">
        <ele>762.943359375</ele>
        <time>2019-04-28T10:12:04Z</time>
      </trkpt>
      <trkpt lat="37.30949" lon="-8.61528">
        <ele>761.98217773438</ele>
        <time>2019-04-28T10:12:07Z</time>
      </trkpt>
      <trkpt lat="37.30926" lon="-8.61555">
        <ele>760.05932617188</ele>
        <time>2019-04-28T10:12:11Z</time>
      </trkpt>
      <trkpt lat="37.3092" lon="-8.6156">
        <ele>756.21411132812</ele>
        <time>2019-04-28T10:12:12Z</time>
      </trkpt>
      <trkpt lat="37.30871" lon="-8.61596">
        <ele>751.88842773438</ele>
        <time>2019-04-28T10:12:19Z</time>
      </trkpt>
      <trkpt lat="37.30849" lon="-8.61608">
        <ele>749.00439453125</ele>
        <time>2019-04-28T10:12:22Z</time>
      </trkpt>
      <trkpt lat="37.30814" lon="-8.61626">
        <ele>746.12036132812</ele>
        <time>2019-04-28T10:12:27Z</time>
      </trkpt>
      <trkpt lat="37.30788" lon="-8.61639">
        <ele>742.27514648438</ele>
        <time>2019-04-28T10:12:31Z</time>
      </trkpt>
      <trkpt lat="37.30788" lon="-8.61639">
        <ele>740.8330078125</ele>
        <time>2019-04-28T10:12:33Z</time>
      </trkpt>
      <trkpt lat="37.30737" lon="-8.61645">
        <ele>736.50732421875</ele>
        <time>2019-04-28T10:12:38Z</time>
      </trkpt>
      <trkpt lat="37.30713" lon="-8.6167">
        <ele>731.70043945312</ele>
        <time>2019-04-28T10:12:44Z</time>
      </trkpt>
      <trkpt lat="37.30722" lon="-8.61721">
        <ele>728.81665039062</ele>
        <time>2019-04-28T10:12:50Z</time>
      </trkpt>
      <trkpt lat="37.30714" lon="-8.61754">
        <ele>724.97143554688</ele>
        <time>2019-04-28T10:12:54Z</time>
      </trkpt>
      <trkpt lat="37.30699" lon="-8.61783">
        <ele>720.16479492188</ele>
        <time>2019-04-28T10:12:58Z</time>
      </trkpt>
      <trkpt lat="37.30697" lon="-8.6179">
        <ele>719.20361328125</ele>
        <time>2019-04-28T10:12:59Z</time>
      </trkpt>
      <trkpt lat="37.30691" lon="-8.6183">
        <ele>712.95483398438</ele>
        <time>2019-04-28T10:13:03Z</time>
      </trkpt>
      <trkpt lat="37.30686" lon="-8.6187">
        <ele>710.55151367188</ele>
        <time>2019-04-28T10:13:06Z</time>
      </trkpt>
      <trkpt lat="37.30681" lon="-8.61909">
        <ele>707.18701171875</ele>
        <time>2019-04-28T10:13:09Z</time>
      </trkpt>
      <trkpt lat="37.30681" lon="-8.61923">
        <ele>707.18701171875</ele>
        <time>2019-04-28T10:13:10Z</time>
      </trkpt>
      <trkpt lat="37.30687" lon="-8.62039">
        <ele>704.78369140625</ele>
        <time>2019-04-28T10:13:20Z</time>
      </trkpt>
      <trkpt lat="37.30698" lon="-8.62091">
        <ele>703.82250976562</ele>
        <time>2019-04-28T10:13:25Z</time>
      </trkpt>
      <trkpt lat="37.30706" lon="-8.62122">
        <ele>703.82250976562</ele>
        <time>2019-04-28T10:13:28Z</time>
      </trkpt>
      <trkpt lat="37.30719" lon="-8.62179">
        <ele>700.4580078125</ele>
        <time>2019-04-28T10:13:34Z</time>
      </trkpt>
      <trkpt lat="37.30726" lon="-8.62214">
        <ele>697.57373046875</ele>
        <time>2019-04-28T10:13:38Z</time>
      </trkpt>
      <trkpt lat="37.30731" lon="-8.62233">
        <ele>695.65112304688</ele>
        <time>2019-04-28T10:13:41Z</time>
      </trkpt>
      <trkpt lat="37.30745" lon="-8.62287">
        <ele>694.20922851562</ele>
        <time>2019-04-28T10:13:45Z</time>
      </trkpt>
      <trkpt lat="37.30721" lon="-8.62304">
        <ele>692.28662109375</ele>
        <time>2019-04-28T10:13:55Z</time>
      </trkpt>
      <trkpt lat="37.30706" lon="-8.62309">
        <ele>692.28662109375</ele>
        <time>2019-04-28T10:14:17Z</time>
      </trkpt>
      <trkpt lat="37.30664" lon="-8.62313">
        <ele>690.84448242188</ele>
        <time>2019-04-28T10:14:27Z</time>
      </trkpt>
      <trkpt lat="37.30617" lon="-8.62299">
        <ele>686.99926757812</ele>
        <time>2019-04-28T10:14:36Z</time>
      </trkpt>
      <trkpt lat="37.30612" lon="-8.62298">
        <ele>686.99926757812</ele>
        <time>2019-04-28T10:14:37Z</time>
      </trkpt>
      <trkpt lat="37.306" lon="-8.62296">
        <ele>686.51879882812</ele>
        <time>2019-04-28T10:14:39Z</time>
      </trkpt>
      <trkpt lat="37.30573" lon="-8.6229">
        <ele>683.15380859375</ele>
        <time>2019-04-28T10:14:44Z</time>
      </trkpt>
      <trkpt lat="37.3055" lon="-8.62297">
        <ele>679.30859375</ele>
        <time>2019-04-28T10:14:53Z</time>
      </trkpt>
      <trkpt lat="37.30548" lon="-8.62302">
        <ele>678.34741210938</ele>
        <time>2019-04-28T10:14:59Z</time>
      </trkpt>
      <trkpt lat="37.30589" lon="-8.62293">
        <ele>678.828125</ele>
        <time>2019-04-28T10:15:12Z</time>
      </trkpt>
      <trkpt lat="37.30605" lon="-8.62297">
        <ele>678.828125</ele>
        <time>2019-04-28T10:15:17Z</time>
      </trkpt>
      <trkpt lat="37.30653" lon="-8.62311">
        <ele>678.34741210938</ele>
        <time>2019-04-28T10:15:31Z</time>
      </trkpt>
      <trkpt lat="37.30687" lon="-8.62393">
        <ele>677.38623046875</ele>
        <time>2019-04-28T10:15:41Z</time>
      </trkpt>
      <trkpt lat="37.30722" lon="-8.62418">
        <ele>674.50219726562</ele>
        <time>2019-04-28T10:15:51Z</time>
      </trkpt>
      <trkpt lat="37.30723" lon="-8.62432">
        <ele>672.57958984375</ele>
        <time>2019-04-28T10:16:02Z</time>
      </trkpt>
      <trkpt lat="37.30716" lon="-8.6244">
        <ele>671.1376953125</ele>
        <time>2019-04-28T10:16:18Z</time>
      </trkpt>
      <trkpt lat="37.30691" lon="-8.62453">
        <ele>668.25366210938</ele>
        <time>2019-04-28T10:16:25Z</time>
      </trkpt>
      <trkpt lat="37.30675" lon="-8.62458">
        <ele>665.36962890625</ele>
        <time>2019-04-28T10:16:29Z</time>
      </trkpt>
      <trkpt lat="37.30665" lon="-8.62462">
        <ele>662.00512695312</ele>
        <time>2019-04-28T10:16:32Z</time>
      </trkpt>
      <trkpt lat="37.30659" lon="-8.62483">
        <ele>658.15991210938</ele>
        <time>2019-04-28T10:16:38Z</time>
      </trkpt>
      <trkpt lat="37.30659" lon="-8.62483">
        <ele>653.833984375</ele>
        <time>2019-04-28T10:16:44Z</time>
      </trkpt>
      <trkpt lat="37.30659" lon="-8.62483">
        <ele>650.46923828125</ele>
        <time>2019-04-28T10:16:49Z</time>
      </trkpt>
      <trkpt lat="37.307" lon="-8.62535">
        <ele>648.54638671875</ele>
        <time>2019-04-28T10:16:52Z</time>
      </trkpt>
      <trkpt lat="37.30711" lon="-8.62546">
        <ele>644.701171875</ele>
        <time>2019-04-28T10:16:56Z</time>
      </trkpt>
      <trkpt lat="37.30713" lon="-8.62549">
        <ele>645.18188476562</ele>
        <time>2019-04-28T10:16:57Z</time>
      </trkpt>
      <trkpt lat="37.3071" lon="-8.6256">
        <ele>642.29809570312</ele>
        <time>2019-04-28T10:17:01Z</time>
      </trkpt>
      <trkpt lat="37.307" lon="-8.62564">
        <ele>640.85595703125</ele>
        <time>2019-04-28T10:17:09Z</time>
      </trkpt>
      <trkpt lat="37.30685" lon="-8.62565">
        <ele>640.37548828125</ele>
        <time>2019-04-28T10:17:18Z</time>
      </trkpt>
      <trkpt lat="37.30665" lon="-8.62575">
        <ele>637.0107421875</ele>
        <time>2019-04-28T10:17:23Z</time>
      </trkpt>
      <trkpt lat="37.30655" lon="-8.62581">
        <ele>634.12670898438</ele>
        <time>2019-04-28T10:17:26Z</time>
      </trkpt>
      <trkpt lat="37.30644" lon="-8.62586">
        <ele>631.24291992188</ele>
        <time>2019-04-28T10:17:29Z</time>
      </trkpt>
      <trkpt lat="37.30618" lon="-8.62637">
        <ele>630.28149414062</ele>
        <time>2019-04-28T10:17:31Z</time>
      </trkpt>
      <trkpt lat="37.30622" lon="-8.62602">
        <ele>627.39770507812</ele>
        <time>2019-04-28T10:17:36Z</time>
      </trkpt>
      <trkpt lat="37.30622" lon="-8.62605">
        <ele>625.47485351562</ele>
        <time>2019-04-28T10:17:37Z</time>
      </trkpt>
      <trkpt lat="37.30628" lon="-8.62624">
        <ele>622.1103515625</ele>
        <time>2019-04-28T10:17:42Z</time>
      </trkpt>
      <trkpt lat="37.30631" lon="-8.6263">
        <ele>621.14916992188</ele>
        <time>2019-04-28T10:17:44Z</time>
      </trkpt>
      <trkpt lat="37.30633" lon="-8.62633">
        <ele>620.66845703125</ele>
        <time>2019-04-28T10:17:45Z</time>
      </trkpt>
      <trkpt lat="37.30636" lon="-8.6265">
        <ele>617.7841796875</ele>
        <time>2019-04-28T10:17:50Z</time>
      </trkpt>
      <trkpt lat="37.30639" lon="-8.62652">
        <ele>617.3037109375</ele>
        <time>2019-04-28T10:17:51Z</time>
      </trkpt>
      <trkpt lat="37.30651" lon="-8.62659">
        <ele>615.38110351562</ele>
        <time>2019-04-28T10:18:01Z</time>
      </trkpt>
      <trkpt lat="37.30664" lon="-8.6267">
        <ele>613.93896484375</ele>
        <time>2019-04-28T10:18:04Z</time>
      </trkpt>
      <trkpt lat="37.30695" lon="-8.62712">
        <ele>612.0166015625</ele>
        <time>2019-04-28T10:18:15Z</time>
      </trkpt>
      <trkpt lat="37.3071" lon="-8.62734">
        <ele>611.53588867188</ele>
        <time>2019-04-28T10:18:24Z</time>
      </trkpt>
      <trkpt lat="37.3071" lon="-8.62734">
        <ele>611.05517578125</ele>
        <time>2019-04-28T10:18:27Z</time>
      </trkpt>
      <trkpt lat="37.30718" lon="-8.6277">
        <ele>608.65185546875</ele>
        <time>2019-04-28T10:18:36Z</time>
      </trkpt>
      <trkpt lat="37.3071" lon="-8.62734">
        <ele>607.69067382812</ele>
        <time>2019-04-28T10:18:37Z</time>
      </trkpt>
      <trkpt lat="37.3071" lon="-8.62734">
        <ele>605.76806640625</ele>
        <time>2019-04-28T10:18:39Z</time>
      </trkpt>
      <trkpt lat="37.30701" lon="-8.62761">
        <ele>603.84521484375</ele>
        <time>2019-04-28T10:18:42Z</time>
      </trkpt>
      <trkpt lat="37.3071" lon="-8.62734">
        <ele>600.48071289062</ele>
        <time>2019-04-28T10:18:47Z</time>
      </trkpt>
      <trkpt lat="37.30711" lon="-8.62806">
        <ele>596.15478515625</ele>
        <time>2019-04-28T10:18:51Z</time>
      </trkpt>
      <trkpt lat="37.30709" lon="-8.62819">
        <ele>594.71264648438</ele>
        <time>2019-04-28T10:18:54Z</time>
      </trkpt>
      <trkpt lat="37.30704" lon="-8.62821">
        <ele>594.23217773438</ele>
        <time>2019-04-28T10:19:03Z</time>
      </trkpt>
      <trkpt lat="37.30682" lon="-8.6281">
        <ele>590.86743164062</ele>
        <time>2019-04-28T10:20:35Z</time>
      </trkpt>
      <trkpt lat="37.30677" lon="-8.62807">
        <ele>589.42553710938</ele>
        <time>2019-04-28T10:20:36Z</time>
      </trkpt>
      <trkpt lat="37.30657" lon="-8.62798">
        <ele>585.099609375</ele>
        <time>2019-04-28T10:20:41Z</time>
      </trkpt>
      <trkpt lat="37.30649" lon="-8.62802">
        <ele>584.13818359375</ele>
        <time>2019-04-28T10:20:43Z</time>
      </trkpt>
      <trkpt lat="37.30627" lon="-8.62814">
        <ele>578.85107421875</ele>
        <time>2019-04-28T10:20:48Z</time>
      </trkpt>
      <trkpt lat="37.30595" lon="-8.62839">
        <ele>576.92846679688</ele>
        <time>2019-04-28T10:20:55Z</time>
      </trkpt>
      <trkpt lat="37.30592" lon="-8.62867">
        <ele>575.005859375</ele>
        <time>2019-04-28T10:20:59Z</time>
      </trkpt>
      <trkpt lat="37.30591" lon="-8.62874">
        <ele>575.005859375</ele>
        <time>2019-04-28T10:21:00Z</time>
      </trkpt>
      <trkpt lat="37.3058" lon="-8.62896">
        <ele>570.6796875</ele>
        <time>2019-04-28T10:21:04Z</time>
      </trkpt>
      <trkpt lat="37.30574" lon="-8.62906">
        <ele>567.79565429688</ele>
        <time>2019-04-28T10:21:06Z</time>
      </trkpt>
      <trkpt lat="37.30556" lon="-8.62922">
        <ele>563.95043945312</ele>
        <time>2019-04-28T10:21:10Z</time>
      </trkpt>
      <trkpt lat="37.30552" lon="-8.62925">
        <ele>563.46997070312</ele>
        <time>2019-04-28T10:21:11Z</time>
      </trkpt>
      <trkpt lat="37.30536" lon="-8.62929">
        <ele>561.54736328125</ele>
        <time>2019-04-28T10:21:15Z</time>
      </trkpt>
      <trkpt lat="37.30531" lon="-8.62931">
        <ele>560.5859375</ele>
        <time>2019-04-28T10:21:17Z</time>
      </trkpt>
      <trkpt lat="37.3049" lon="-8.62918">
        <ele>558.66333007812</ele>
        <time>2019-04-28T10:21:30Z</time>
      </trkpt>
      <trkpt lat="37.30486" lon="-8.62915">
        <ele>558.66333007812</ele>
        <time>2019-04-28T10:21:43Z</time>
      </trkpt>
      <trkpt lat="37.30487" lon="-8.62914">
        <ele>557.7021484375</ele>
        <time>2019-04-28T10:22:10Z</time>
      </trkpt>
      <trkpt lat="37.30477" lon="-8.62917">
        <ele>558.18286132812</ele>
        <time>2019-04-28T10:22:15Z</time>
      </trkpt>
      <trkpt lat="37.30435" lon="-8.62952">
        <ele>558.66333007812</ele>
        <time>2019-04-28T10:22:29Z</time>
      </trkpt>
      <trkpt lat="37.30391" lon="-8.62973">
        <ele>557.7021484375</ele>
        <time>2019-04-28T10:22:36Z</time>
      </trkpt>
      <trkpt lat="37.30392" lon="-8.62976">
        <ele>556.74072265625</ele>
        <time>2019-04-28T10:22:43Z</time>
      </trkpt>
      <trkpt lat="37.30383" lon="-8.62963">
        <ele>556.74072265625</ele>
        <time>2019-04-28T10:22:47Z</time>
      </trkpt>
      <trkpt lat="37.3036" lon="-8.62952">
        <ele>554.33740234375</ele>
        <time>2019-04-28T10:22:52Z</time>
      </trkpt>
      <trkpt lat="37.3033" lon="-8.62938">
        <ele>553.3759765625</ele>
        <time>2019-04-28T10:23:02Z</time>
      </trkpt>
      <trkpt lat="37.30306" lon="-8.62911">
        <ele>553.85668945312</ele>
        <time>2019-04-28T10:23:13Z</time>
      </trkpt>
      <trkpt lat="37.30278" lon="-8.62879">
        <ele>552.89526367188</ele>
        <time>2019-04-28T10:23:25Z</time>
      </trkpt>
      <trkpt lat="37.30257" lon="-8.62844">
        <ele>553.3759765625</ele>
        <time>2019-04-28T10:23:36Z</time>
      </trkpt>
      <trkpt lat="37.3024" lon="-8.6281">
        <ele>553.85668945312</ele>
        <time>2019-04-28T10:23:45Z</time>
      </trkpt>
      <trkpt lat="37.3024" lon="-8.62773">
        <ele>555.779296875</ele>
        <time>2019-04-28T10:23:57Z</time>
      </trkpt>
      <trkpt lat="37.30242" lon="-8.62746">
        <ele>558.66333007812</ele>
        <time>2019-04-28T10:24:07Z</time>
      </trkpt>
      <trkpt lat="37.30242" lon="-8.62743">
        <ele>559.14404296875</ele>
        <time>2019-04-28T10:24:08Z</time>
      </trkpt>
      <trkpt lat="37.30234" lon="-8.62715">
        <ele>555.779296875</ele>
        <time>2019-04-28T10:24:17Z</time>
      </trkpt>
      <trkpt lat="37.30232" lon="-8.62694">
        <ele>554.33740234375</ele>
        <time>2019-04-28T10:24:28Z</time>
      </trkpt>
      <trkpt lat="37.30227" lon="-8.62668">
        <ele>551.45336914062</ele>
        <time>2019-04-28T10:24:41Z</time>
      </trkpt>
      <trkpt lat="37.30227" lon="-8.6266">
        <ele>551.45336914062</ele>
        <time>2019-04-28T10:24:42Z</time>
      </trkpt>
      <trkpt lat="37.30226" lon="-8.62652">
        <ele>551.45336914062</ele>
        <time>2019-04-28T10:24:43Z</time>
      </trkpt>
      <trkpt lat="37.30201" lon="-8.62638">
        <ele>550.97265625</ele>
        <time>2019-04-28T10:24:48Z</time>
      </trkpt>
      <trkpt lat="37.30186" lon="-8.62645">
        <ele>551.45336914062</ele>
        <time>2019-04-28T10:24:51Z</time>
      </trkpt>
      <trkpt lat="37.30164" lon="-8.62654">
        <ele>551.45336914062</ele>
        <time>2019-04-28T10:24:56Z</time>
      </trkpt>
      <trkpt lat="37.3014" lon="-8.62678">
        <ele>547.12744140625</ele>
        <time>2019-04-28T10:25:03Z</time>
      </trkpt>
      <trkpt lat="37.30137" lon="-8.62682">
        <ele>545.685546875</ele>
        <time>2019-04-28T10:25:04Z</time>
      </trkpt>
      <trkpt lat="37.30126" lon="-8.62693">
        <ele>544.24365234375</ele>
        <time>2019-04-28T10:25:07Z</time>
      </trkpt>
      <trkpt lat="37.30123" lon="-8.62696">
        <ele>544.72424316406</ele>
        <time>2019-04-28T10:25:08Z</time>
      </trkpt>
      <trkpt lat="37.30102" lon="-8.62693">
        <ele>545.685546875</ele>
        <time>2019-04-28T10:25:13Z</time>
      </trkpt>
      <trkpt lat="37.30057" lon="-8.62677">
        <ele>549.05004882812</ele>
        <time>2019-04-28T10:25:25Z</time>
      </trkpt>
      <trkpt lat="37.30013" lon="-8.62655">
        <ele>551.45336914062</ele>
        <time>2019-04-28T10:25:39Z</time>
      </trkpt>
      <trkpt lat="37.30007" lon="-8.62653">
        <ele>552.41455078125</ele>
        <time>2019-04-28T10:25:41Z</time>
      </trkpt>
      <trkpt lat="37.29972" lon="-8.62635">
        <ele>555.779296875</ele>
        <time>2019-04-28T10:25:55Z</time>
      </trkpt>
      <trkpt lat="37.29929" lon="-8.62601">
        <ele>558.18286132812</ele>
        <time>2019-04-28T10:26:15Z</time>
      </trkpt>
      <trkpt lat="37.29908" lon="-8.62572">
        <ele>559.14404296875</ele>
        <time>2019-04-28T10:26:27Z</time>
      </trkpt>
      <trkpt lat="37.2987" lon="-8.62537">
        <ele>559.14404296875</ele>
        <time>2019-04-28T10:26:41Z</time>
      </trkpt>
      <trkpt lat="37.29829" lon="-8.62562">
        <ele>558.18286132812</ele>
        <time>2019-04-28T10:26:53Z</time>
      </trkpt>
      <trkpt lat="37.29822" lon="-8.62567">
        <ele>557.22143554688</ele>
        <time>2019-04-28T10:26:55Z</time>
      </trkpt>
      <trkpt lat="37.29805" lon="-8.62577">
        <ele>557.22143554688</ele>
        <time>2019-04-28T10:26:59Z</time>
      </trkpt>
      <trkpt lat="37.29728" lon="-8.62612">
        <ele>554.33740234375</ele>
        <time>2019-04-28T10:27:16Z</time>
      </trkpt>
      <trkpt lat="37.29673" lon="-8.62625">
        <ele>551.93408203125</ele>
        <time>2019-04-28T10:27:26Z</time>
      </trkpt>
      <trkpt lat="37.29671" lon="-8.6263">
        <ele>552.89526367188</ele>
        <time>2019-04-28T10:27:28Z</time>
      </trkpt>
      <trkpt lat="37.29666" lon="-8.62609">
        <ele>553.3759765625</ele>
        <time>2019-04-28T10:27:34Z</time>
      </trkpt>
      <trkpt lat="37.29625" lon="-8.62568">
        <ele>556.74072265625</ele>
        <time>2019-04-28T10:27:50Z</time>
      </trkpt>
      <trkpt lat="37.29606" lon="-8.62549">
        <ele>560.10522460938</ele>
        <time>2019-04-28T10:27:59Z</time>
      </trkpt>
      <trkpt lat="37.29602" lon="-8.62546">
        <ele>561.06665039062</ele>
        <time>2019-04-28T10:28:01Z</time>
      </trkpt>
      <trkpt lat="37.29595" lon="-8.62541">
        <ele>562.50854492188</ele>
        <time>2019-04-28T10:28:04Z</time>
      </trkpt>
      <trkpt lat="37.29565" lon="-8.62514">
        <ele>563.95043945312</ele>
        <time>2019-04-28T10:28:18Z</time>
      </trkpt>
      <trkpt lat="37.29545" lon="-8.62487">
        <ele>565.392578125</ele>
        <time>2019-04-28T10:28:30Z</time>
      </trkpt>
      <trkpt lat="37.29545" lon="-8.62447">
        <ele>566.83447265625</ele>
        <time>2019-04-28T10:28:42Z</time>
      </trkpt>
      <trkpt lat="37.29551" lon="-8.6242">
        <ele>569.71850585938</ele>
        <time>2019-04-28T10:28:51Z</time>
      </trkpt>
      <trkpt lat="37.29554" lon="-8.62382">
        <ele>571.16040039062</ele>
        <time>2019-04-28T10:29:03Z</time>
      </trkpt>
      <trkpt lat="37.29548" lon="-8.62322">
        <ele>571.16040039062</ele>
        <time>2019-04-28T10:29:19Z</time>
      </trkpt>
      <trkpt lat="37.29544" lon="-8.6226">
        <ele>572.12182617188</ele>
        <time>2019-04-28T10:29:34Z</time>
      </trkpt>
      <trkpt lat="37.29535" lon="-8.62214">
        <ele>571.64086914062</ele>
        <time>2019-04-28T10:29:48Z</time>
      </trkpt>
      <trkpt lat="37.29534" lon="-8.62212">
        <ele>571.64086914062</ele>
        <time>2019-04-28T10:29:49Z</time>
      </trkpt>
      <trkpt lat="37.29524" lon="-8.62213">
        <ele>567.79565429688</ele>
        <time>2019-04-28T10:29:55Z</time>
      </trkpt>
      <trkpt lat="37.29521" lon="-8.62214">
        <ele>567.79565429688</ele>
        <time>2019-04-28T10:29:56Z</time>
      </trkpt>
      <trkpt lat="37.2951" lon="-8.62215">
        <ele>566.35375976562</ele>
        <time>2019-04-28T10:29:59Z</time>
      </trkpt>
      <trkpt lat="37.29478" lon="-8.62221">
        <ele>564.91186523438</ele>
        <time>2019-04-28T10:30:05Z</time>
      </trkpt>
      <trkpt lat="37.29447" lon="-8.62191">
        <ele>564.91186523438</ele>
        <time>2019-04-28T10:30:12Z</time>
      </trkpt>
      <trkpt lat="37.29438" lon="-8.62172">
        <ele>563.46997070312</ele>
        <time>2019-04-28T10:30:16Z</time>
      </trkpt>
      <trkpt lat="37.29437" lon="-8.62163">
        <ele>562.50854492188</ele>
        <time>2019-04-28T10:30:29Z</time>
      </trkpt>
      <trkpt lat="37.29439" lon="-8.62163">
        <ele>562.9892578125</ele>
        <time>2019-04-28T10:31:07Z</time>
      </trkpt>
      <trkpt lat="37.29432" lon="-8.62138">
        <ele>562.02807617188</ele>
        <time>2019-04-28T10:31:13Z</time>
      </trkpt>
      <trkpt lat="37.29428" lon="-8.62112">
        <ele>561.06665039062</ele>
        <time>2019-04-28T10:31:17Z</time>
      </trkpt>
      <trkpt lat="37.29423" lon="-8.62099">
        <ele>559.62475585938</ele>
        <time>2019-04-28T10:31:19Z</time>
      </trkpt>
      <trkpt lat="37.29408" lon="-8.62071">
        <ele>557.7021484375</ele>
        <time>2019-04-28T10:31:23Z</time>
      </trkpt>
      <trkpt lat="37.29396" lon="-8.62037">
        <ele>556.74072265625</ele>
        <time>2019-04-28T10:31:28Z</time>
      </trkpt>
      <trkpt lat="37.2938" lon="-8.62001">
        <ele>553.3759765625</ele>
        <time>2019-04-28T10:31:34Z</time>
      </trkpt>
      <trkpt lat="37.29369" lon="-8.61979">
        <ele>550.97265625</ele>
        <time>2019-04-28T10:31:37Z</time>
      </trkpt>
      <trkpt lat="37.29347" lon="-8.61939">
        <ele>548.0888671875</ele>
        <time>2019-04-28T10:31:43Z</time>
      </trkpt>
      <trkpt lat="37.29334" lon="-8.61911">
        <ele>547.12744140625</ele>
        <time>2019-04-28T10:31:47Z</time>
      </trkpt>
      <trkpt lat="37.2933" lon="-8.619">
        <ele>546.16625976562</ele>
        <time>2019-04-28T10:31:49Z</time>
      </trkpt>
      <trkpt lat="37.2932" lon="-8.61881">
        <ele>544.72424316406</ele>
        <time>2019-04-28T10:31:57Z</time>
      </trkpt>
      <trkpt lat="37.29314" lon="-8.61867">
        <ele>542.80151367188</ele>
        <time>2019-04-28T10:32:08Z</time>
      </trkpt>
      <trkpt lat="37.29302" lon="-8.6186">
        <ele>539.43688964844</ele>
        <time>2019-04-28T10:32:15Z</time>
      </trkpt>
      <trkpt lat="37.2929" lon="-8.61847">
        <ele>535.59155273438</ele>
        <time>2019-04-28T10:32:23Z</time>
      </trkpt>
      <trkpt lat="37.29288" lon="-8.61845">
        <ele>535.59155273438</ele>
        <time>2019-04-28T10:32:24Z</time>
      </trkpt>
      <trkpt lat="37.29276" lon="-8.61831">
        <ele>532.22705078125</ele>
        <time>2019-04-28T10:32:32Z</time>
      </trkpt>
      <trkpt lat="37.29274" lon="-8.61828">
        <ele>531.26574707031</ele>
        <time>2019-04-28T10:32:34Z</time>
      </trkpt>
      <trkpt lat="37.29255" lon="-8.61798">
        <ele>529.82373046875</ele>
        <time>2019-04-28T10:32:39Z</time>
      </trkpt>
      <trkpt lat="37.29255" lon="-8.61798">
        <ele>528.86254882812</ele>
        <time>2019-04-28T10:32:41Z</time>
      </trkpt>
      <trkpt lat="37.29224" lon="-8.61778">
        <ele>530.30444335938</ele>
        <time>2019-04-28T10:32:50Z</time>
      </trkpt>
      <trkpt lat="37.29199" lon="-8.61761">
        <ele>530.78515625</ele>
        <time>2019-04-28T10:33:04Z</time>
      </trkpt>
      <trkpt lat="37.29174" lon="-8.61755">
        <ele>531.26574707031</ele>
        <time>2019-04-28T10:33:13Z</time>
      </trkpt>
      <trkpt lat="37.29157" lon="-8.61758">
        <ele>527.90100097656</ele>
        <time>2019-04-28T10:33:17Z</time>
      </trkpt>
      <trkpt lat="37.29146" lon="-8.61769">
        <ele>525.49780273438</ele>
        <time>2019-04-28T10:33:22Z</time>
      </trkpt>
      <trkpt lat="37.29135" lon="-8.61816">
        <ele>521.65258789062</ele>
        <time>2019-04-28T10:33:29Z</time>
      </trkpt>
      <trkpt lat="37.29137" lon="-8.61841">
        <ele>518.28784179688</ele>
        <time>2019-04-28T10:33:33Z</time>
      </trkpt>
      <trkpt lat="37.29139" lon="-8.61855">
        <ele>514.92333984375</ele>
        <time>2019-04-28T10:33:35Z</time>
      </trkpt>
      <trkpt lat="37.2914" lon="-8.61868">
        <ele>513.00073242188</ele>
        <time>2019-04-28T10:33:37Z</time>
      </trkpt>
      <trkpt lat="37.29141" lon="-8.61881">
        <ele>511.55871582031</ele>
        <time>2019-04-28T10:33:39Z</time>
      </trkpt>
      <trkpt lat="37.29143" lon="-8.61906">
        <ele>507.71350097656</ele>
        <time>2019-04-28T10:33:43Z</time>
      </trkpt>
      <trkpt lat="37.29144" lon="-8.61918">
        <ele>507.23278808594</ele>
        <time>2019-04-28T10:33:45Z</time>
      </trkpt>
      <trkpt lat="37.29148" lon="-8.61948">
        <ele>504.34887695312</ele>
        <time>2019-04-28T10:33:49Z</time>
      </trkpt>
      <trkpt lat="37.2915" lon="-8.61967">
        <ele>503.38745117188</ele>
        <time>2019-04-28T10:33:51Z</time>
      </trkpt>
      <trkpt lat="37.29158" lon="-8.62023">
        <ele>501.46484375</ele>
        <time>2019-04-28T10:33:57Z</time>
      </trkpt>
      <trkpt lat="37.29163" lon="-8.62062">
        <ele>497.61962890625</ele>
        <time>2019-04-28T10:34:02Z</time>
      </trkpt>
      <trkpt lat="37.29158" lon="-8.62103">
        <ele>494.25500488281</ele>
        <time>2019-04-28T10:34:07Z</time>
      </trkpt>
      <trkpt lat="37.29155" lon="-8.62128">
        <ele>492.81298828125</ele>
        <time>2019-04-28T10:34:10Z</time>
      </trkpt>
      <trkpt lat="37.2915" lon="-8.62161">
        <ele>489.92907714844</ele>
        <time>2019-04-28T10:34:14Z</time>
      </trkpt>
      <trkpt lat="37.29147" lon="-8.62187">
        <ele>488.00646972656</ele>
        <time>2019-04-28T10:34:17Z</time>
      </trkpt>
      <trkpt lat="37.29144" lon="-8.62209">
        <ele>485.12243652344</ele>
        <time>2019-04-28T10:34:20Z</time>
      </trkpt>
      <trkpt lat="37.2914" lon="-8.62242">
        <ele>482.23852539062</ele>
        <time>2019-04-28T10:34:25Z</time>
      </trkpt>
      <trkpt lat="37.29133" lon="-8.62266">
        <ele>478.39318847656</ele>
        <time>2019-04-28T10:34:29Z</time>
      </trkpt>
      <trkpt lat="37.29121" lon="-8.62283">
        <ele>475.50927734375</ele>
        <time>2019-04-28T10:34:32Z</time>
      </trkpt>
      <trkpt lat="37.29117" lon="-8.62289">
        <ele>475.02868652344</ele>
        <time>2019-04-28T10:34:33Z</time>
      </trkpt>
      <trkpt lat="37.29092" lon="-8.62326">
        <ele>470.70263671875</ele>
        <time>2019-04-28T10:34:41Z</time>
      </trkpt>
      <trkpt lat="37.2909" lon="-8.62328">
        <ele>470.70263671875</ele>
        <time>2019-04-28T10:34:42Z</time>
      </trkpt>
      <trkpt lat="37.2909" lon="-8.62328">
        <ele>469.74133300781</ele>
        <time>2019-04-28T10:34:59Z</time>
      </trkpt>
      <trkpt lat="37.2909" lon="-8.62328">
        <ele>470.22192382812</ele>
        <time>2019-04-28T10:35:03Z</time>
      </trkpt>
      <trkpt lat="37.29082" lon="-8.62341">
        <ele>469.2607421875</ele>
        <time>2019-04-28T10:35:08Z</time>
      </trkpt>
      <trkpt lat="37.29082" lon="-8.62341">
        <ele>467.81872558594</ele>
        <time>2019-04-28T10:35:16Z</time>
      </trkpt>
      <trkpt lat="37.29064" lon="-8.62382">
        <ele>468.78002929688</ele>
        <time>2019-04-28T10:35:21Z</time>
      </trkpt>
      <trkpt lat="37.28997" lon="-8.62385">
        <ele>466.857421875</ele>
        <time>2019-04-28T10:35:33Z</time>
      </trkpt>
      <trkpt lat="37.28994" lon="-8.62385">
        <ele>465.89611816406</ele>
        <time>2019-04-28T10:35:34Z</time>
      </trkpt>
      <trkpt lat="37.28988" lon="-8.62399">
        <ele>463.97338867188</ele>
        <time>2019-04-28T10:35:37Z</time>
      </trkpt>
      <trkpt lat="37.28987" lon="-8.62416">
        <ele>463.97338867188</ele>
        <time>2019-04-28T10:35:40Z</time>
      </trkpt>
      <trkpt lat="37.28988" lon="-8.62421">
        <ele>465.41552734375</ele>
        <time>2019-04-28T10:35:42Z</time>
      </trkpt>
      <trkpt lat="37.28991" lon="-8.6243">
        <ele>466.857421875</ele>
        <time>2019-04-28T10:35:46Z</time>
      </trkpt>
      <trkpt lat="37.28989" lon="-8.62437">
        <ele>468.78002929688</ele>
        <time>2019-04-28T10:35:49Z</time>
      </trkpt>
      <trkpt lat="37.28987" lon="-8.62443">
        <ele>469.74133300781</ele>
        <time>2019-04-28T10:35:51Z</time>
      </trkpt>
      <trkpt lat="37.28976" lon="-8.6248">
        <ele>472.14465332031</ele>
        <time>2019-04-28T10:36:04Z</time>
      </trkpt>
      <trkpt lat="37.28961" lon="-8.62522">
        <ele>470.70263671875</ele>
        <time>2019-04-28T10:36:17Z</time>
      </trkpt>
      <trkpt lat="37.28968" lon="-8.62558">
        <ele>467.33813476562</ele>
        <time>2019-04-28T10:36:26Z</time>
      </trkpt>
      <trkpt lat="37.2897" lon="-8.62571">
        <ele>466.37670898438</ele>
        <time>2019-04-28T10:36:28Z</time>
      </trkpt>
      <trkpt lat="37.2897" lon="-8.6259">
        <ele>464.93481445312</ele>
        <time>2019-04-28T10:36:31Z</time>
      </trkpt>
      <trkpt lat="37.28962" lon="-8.62604">
        <ele>463.49279785156</ele>
        <time>2019-04-28T10:36:34Z</time>
      </trkpt>
      <trkpt lat="37.2896" lon="-8.6263">
        <ele>460.12817382812</ele>
        <time>2019-04-28T10:36:40Z</time>
      </trkpt>
      <trkpt lat="37.28971" lon="-8.62643">
        <ele>457.72497558594</ele>
        <time>2019-04-28T10:36:44Z</time>
      </trkpt>
      <trkpt lat="37.28975" lon="-8.62653">
        <ele>455.80224609375</ele>
        <time>2019-04-28T10:36:46Z</time>
      </trkpt>
      <trkpt lat="37.28985" lon="-8.62667">
        <ele>453.87963867188</ele>
        <time>2019-04-28T10:36:49Z</time>
      </trkpt>
      <trkpt lat="37.28992" lon="-8.62673">
        <ele>453.39892578125</ele>
        <time>2019-04-28T10:36:51Z</time>
      </trkpt>
      <trkpt lat="37.28994" lon="-8.62684">
        <ele>452.43762207031</ele>
        <time>2019-04-28T10:37:06Z</time>
      </trkpt>
      <trkpt lat="37.28981" lon="-8.62719">
        <ele>449.07299804688</ele>
        <time>2019-04-28T10:37:15Z</time>
      </trkpt>
      <trkpt lat="37.29002" lon="-8.62744">
        <ele>447.63098144531</ele>
        <time>2019-04-28T10:37:18Z</time>
      </trkpt>
      <trkpt lat="37.29" lon="-8.62747">
        <ele>447.63098144531</ele>
        <time>2019-04-28T10:37:19Z</time>
      </trkpt>
      <trkpt lat="37.28924" lon="-8.6276">
        <ele>446.66967773438</ele>
        <time>2019-04-28T10:37:27Z</time>
      </trkpt>
      <trkpt lat="37.289" lon="-8.62775">
        <ele>445.70837402344</ele>
        <time>2019-04-28T10:37:32Z</time>
      </trkpt>
      <trkpt lat="37.2889" lon="-8.62778">
        <ele>444.7470703125</ele>
        <time>2019-04-28T10:37:34Z</time>
      </trkpt>
      <trkpt lat="37.28862" lon="-8.62791">
        <ele>440.90185546875</ele>
        <time>2019-04-28T10:37:39Z</time>
      </trkpt>
      <trkpt lat="37.28858" lon="-8.62796">
        <ele>440.42126464844</ele>
        <time>2019-04-28T10:37:40Z</time>
      </trkpt>
      <trkpt lat="37.2883" lon="-8.62829">
        <ele>437.537109375</ele>
        <time>2019-04-28T10:37:49Z</time>
      </trkpt>
      <trkpt lat="37.28824" lon="-8.62833">
        <ele>436.09521484375</ele>
        <time>2019-04-28T10:37:51Z</time>
      </trkpt>
      <trkpt lat="37.28817" lon="-8.62835">
        <ele>434.17260742188</ele>
        <time>2019-04-28T10:37:57Z</time>
      </trkpt>
      <trkpt lat="37.28811" lon="-8.62833">
        <ele>434.6533203125</ele>
        <time>2019-04-28T10:38:02Z</time>
      </trkpt>
      <trkpt lat="37.28806" lon="-8.62857">
        <ele>433.21130371094</ele>
        <time>2019-04-28T10:38:10Z</time>
      </trkpt>
      <trkpt lat="37.28807" lon="-8.62862">
        <ele>433.21130371094</ele>
        <time>2019-04-28T10:38:11Z</time>
      </trkpt>
      <trkpt lat="37.28832" lon="-8.629">
        <ele>432.73071289062</ele>
        <time>2019-04-28T10:38:21Z</time>
      </trkpt>
      <trkpt lat="37.28799" lon="-8.62923">
        <ele>433.21130371094</ele>
        <time>2019-04-28T10:38:29Z</time>
      </trkpt>
      <trkpt lat="37.28788" lon="-8.62919">
        <ele>432.73071289062</ele>
        <time>2019-04-28T10:38:41Z</time>
      </trkpt>
      <trkpt lat="37.28783" lon="-8.6291">
        <ele>431.28857421875</ele>
        <time>2019-04-28T10:39:07Z</time>
      </trkpt>
      <trkpt lat="37.2877" lon="-8.62899">
        <ele>426.48205566406</ele>
        <time>2019-04-28T10:39:14Z</time>
      </trkpt>
      <trkpt lat="37.28767" lon="-8.62891">
        <ele>424.55944824219</ele>
        <time>2019-04-28T10:39:18Z</time>
      </trkpt>
      <trkpt lat="37.28764" lon="-8.62887">
        <ele>423.11743164062</ele>
        <time>2019-04-28T10:39:20Z</time>
      </trkpt>
      <trkpt lat="37.28759" lon="-8.62879">
        <ele>422.15600585938</ele>
        <time>2019-04-28T10:39:23Z</time>
      </trkpt>
      <trkpt lat="37.28756" lon="-8.62872">
        <ele>419.75280761719</ele>
        <time>2019-04-28T10:39:25Z</time>
      </trkpt>
      <trkpt lat="37.28747" lon="-8.62865">
        <ele>417.349609375</ele>
        <time>2019-04-28T10:39:30Z</time>
      </trkpt>
      <trkpt lat="37.28739" lon="-8.6286">
        <ele>413.98486328125</ele>
        <time>2019-04-28T10:39:34Z</time>
      </trkpt>
      <trkpt lat="37.2873" lon="-8.62845">
        <ele>411.58166503906</ele>
        <time>2019-04-28T10:39:40Z</time>
      </trkpt>
      <trkpt lat="37.28722" lon="-8.62846">
        <ele>409.17834472656</ele>
        <time>2019-04-28T10:39:44Z</time>
      </trkpt>
      <trkpt lat="37.28718" lon="-8.62847">
        <ele>408.21704101562</ele>
        <time>2019-04-28T10:39:46Z</time>
      </trkpt>
      <trkpt lat="37.28713" lon="-8.62848">
        <ele>405.81372070312</ele>
        <time>2019-04-28T10:39:50Z</time>
      </trkpt>
      <trkpt lat="37.28712" lon="-8.62849">
        <ele>405.81372070312</ele>
        <time>2019-04-28T10:40:04Z</time>
      </trkpt>
      <trkpt lat="37.28711" lon="-8.62849">
        <ele>405.3330078125</ele>
        <time>2019-04-28T10:40:06Z</time>
      </trkpt>
      <trkpt lat="37.28702" lon="-8.6284">
        <ele>401.48779296875</ele>
        <time>2019-04-28T10:40:13Z</time>
      </trkpt>
      <trkpt lat="37.28701" lon="-8.62837">
        <ele>401.48779296875</ele>
        <time>2019-04-28T10:40:14Z</time>
      </trkpt>
      <trkpt lat="37.28698" lon="-8.62835">
        <ele>401.00708007812</ele>
        <time>2019-04-28T10:40:15Z</time>
      </trkpt>
      <trkpt lat="37.28691" lon="-8.62831">
        <ele>399.08435058594</ele>
        <time>2019-04-28T10:40:17Z</time>
      </trkpt>
      <trkpt lat="37.28689" lon="-8.62819">
        <ele>398.12316894531</ele>
        <time>2019-04-28T10:40:26Z</time>
      </trkpt>
      <trkpt lat="37.28689" lon="-8.62819">
        <ele>398.60375976562</ele>
        <time>2019-04-28T10:41:29Z</time>
      </trkpt>
      <trkpt lat="37.28687" lon="-8.62786">
        <ele>396.68115234375</ele>
        <time>2019-04-28T10:42:34Z</time>
      </trkpt>
      <trkpt lat="37.28682" lon="-8.62748">
        <ele>395.23913574219</ele>
        <time>2019-04-28T10:42:42Z</time>
      </trkpt>
      <trkpt lat="37.28671" lon="-8.62729">
        <ele>393.31652832031</ele>
        <time>2019-04-28T10:42:46Z</time>
      </trkpt>
      <trkpt lat="37.28642" lon="-8.62706">
        <ele>392.35534667969</ele>
        <time>2019-04-28T10:42:52Z</time>
      </trkpt>
      <trkpt lat="37.28628" lon="-8.62681">
        <ele>392.35534667969</ele>
        <time>2019-04-28T10:42:57Z</time>
      </trkpt>
      <trkpt lat="37.28628" lon="-8.62657">
        <ele>391.39379882812</ele>
        <time>2019-04-28T10:43:01Z</time>
      </trkpt>
      <trkpt lat="37.28633" lon="-8.62635">
        <ele>389.47119140625</ele>
        <time>2019-04-28T10:43:05Z</time>
      </trkpt>
      <trkpt lat="37.28635" lon="-8.62617">
        <ele>388.029296875</ele>
        <time>2019-04-28T10:43:08Z</time>
      </trkpt>
      <trkpt lat="37.28637" lon="-8.62604">
        <ele>387.06799316406</ele>
        <time>2019-04-28T10:43:10Z</time>
      </trkpt>
      <trkpt lat="37.28644" lon="-8.62572">
        <ele>385.6259765625</ele>
        <time>2019-04-28T10:43:15Z</time>
      </trkpt>
      <trkpt lat="37.28645" lon="-8.62546">
        <ele>384.66479492188</ele>
        <time>2019-04-28T10:43:19Z</time>
      </trkpt>
      <trkpt lat="37.28642" lon="-8.625">
        <ele>383.22265625</ele>
        <time>2019-04-28T10:43:27Z</time>
      </trkpt>
      <trkpt lat="37.28661" lon="-8.62449">
        <ele>380.33874511719</ele>
        <time>2019-04-28T10:43:38Z</time>
      </trkpt>
      <trkpt lat="37.28665" lon="-8.62405">
        <ele>378.89685058594</ele>
        <time>2019-04-28T10:43:47Z</time>
      </trkpt>
      <trkpt lat="37.28668" lon="-8.62384">
        <ele>377.93542480469</ele>
        <time>2019-04-28T10:43:51Z</time>
      </trkpt>
      <trkpt lat="37.28682" lon="-8.62341">
        <ele>376.01281738281</ele>
        <time>2019-04-28T10:44:00Z</time>
      </trkpt>
      <trkpt lat="37.2869" lon="-8.62319">
        <ele>374.57080078125</ele>
        <time>2019-04-28T10:44:04Z</time>
      </trkpt>
      <trkpt lat="37.28691" lon="-8.62308">
        <ele>373.60949707031</ele>
        <time>2019-04-28T10:44:06Z</time>
      </trkpt>
      <trkpt lat="37.28687" lon="-8.62285">
        <ele>373.12890625</ele>
        <time>2019-04-28T10:44:10Z</time>
      </trkpt>
      <trkpt lat="37.28683" lon="-8.62274">
        <ele>371.68688964844</ele>
        <time>2019-04-28T10:44:12Z</time>
      </trkpt>
      <trkpt lat="37.28678" lon="-8.62242">
        <ele>370.24487304688</ele>
        <time>2019-04-28T10:44:17Z</time>
      </trkpt>
      <trkpt lat="37.2868" lon="-8.62216">
        <ele>369.28369140625</ele>
        <time>2019-04-28T10:44:22Z</time>
      </trkpt>
      <trkpt lat="37.28698" lon="-8.62171">
        <ele>367.36096191406</ele>
        <time>2019-04-28T10:44:30Z</time>
      </trkpt>
      <trkpt lat="37.28696" lon="-8.62146">
        <ele>365.9189453125</ele>
        <time>2019-04-28T10:44:34Z</time>
      </trkpt>
      <trkpt lat="37.2868" lon="-8.62121">
        <ele>364.47692871094</ele>
        <time>2019-04-28T10:44:39Z</time>
      </trkpt>
      <trkpt lat="37.28624" lon="-8.62097">
        <ele>363.51574707031</ele>
        <time>2019-04-28T10:44:43Z</time>
      </trkpt>
      <trkpt lat="37.28625" lon="-8.62066">
        <ele>361.11242675781</ele>
        <time>2019-04-28T10:44:49Z</time>
      </trkpt>
      <trkpt lat="37.28626" lon="-8.62027">
        <ele>359.67041015625</ele>
        <time>2019-04-28T10:44:56Z</time>
      </trkpt>
      <trkpt lat="37.28625" lon="-8.62001">
        <ele>357.26708984375</ele>
        <time>2019-04-28T10:45:01Z</time>
      </trkpt>
      <trkpt lat="37.28621" lon="-8.61967">
        <ele>357.26708984375</ele>
        <time>2019-04-28T10:45:08Z</time>
      </trkpt>
      <trkpt lat="37.28617" lon="-8.6195">
        <ele>356.78637695312</ele>
        <time>2019-04-28T10:45:13Z</time>
      </trkpt>
      <trkpt lat="37.28612" lon="-8.61937">
        <ele>355.8251953125</ele>
        <time>2019-04-28T10:45:16Z</time>
      </trkpt>
      <trkpt lat="37.28606" lon="-8.61918">
        <ele>355.34448242188</ele>
        <time>2019-04-28T10:45:20Z</time>
      </trkpt>
      <trkpt lat="37.28595" lon="-8.61875">
        <ele>354.38317871094</ele>
        <time>2019-04-28T10:45:29Z</time>
      </trkpt>
      <trkpt lat="37.28614" lon="-8.61811">
        <ele>351.49914550781</ele>
        <time>2019-04-28T10:45:41Z</time>
      </trkpt>
      <trkpt lat="37.28621" lon="-8.61799">
        <ele>350.53784179688</ele>
        <time>2019-04-28T10:45:50Z</time>
      </trkpt>
      <trkpt lat="37.28621" lon="-8.61799">
        <ele>351.01843261719</ele>
        <time>2019-04-28T10:46:02Z</time>
      </trkpt>
      <trkpt lat="37.28618" lon="-8.61807">
        <ele>350.53784179688</ele>
        <time>2019-04-28T10:46:06Z</time>
      </trkpt>
      <trkpt lat="37.28606" lon="-8.6183">
        <ele>349.57653808594</ele>
        <time>2019-04-28T10:46:11Z</time>
      </trkpt>
      <trkpt lat="37.28599" lon="-8.6185">
        <ele>348.615234375</ele>
        <time>2019-04-28T10:46:15Z</time>
      </trkpt>
      <trkpt lat="37.28595" lon="-8.61862">
        <ele>348.13464355469</ele>
        <time>2019-04-28T10:46:17Z</time>
      </trkpt>
      <trkpt lat="37.28602" lon="-8.61908">
        <ele>344.77001953125</ele>
        <time>2019-04-28T10:46:25Z</time>
      </trkpt>
      <trkpt lat="37.28613" lon="-8.61939">
        <ele>344.28942871094</ele>
        <time>2019-04-28T10:46:30Z</time>
      </trkpt>
      <trkpt lat="37.28619" lon="-8.61956">
        <ele>344.28942871094</ele>
        <time>2019-04-28T10:46:33Z</time>
      </trkpt>
      <trkpt lat="37.28625" lon="-8.62055">
        <ele>345.73132324219</ele>
        <time>2019-04-28T10:46:52Z</time>
      </trkpt>
      <trkpt lat="37.28625" lon="-8.62067">
        <ele>346.21203613281</ele>
        <time>2019-04-28T10:47:06Z</time>
      </trkpt>
      <trkpt lat="37.28624" lon="-8.62095">
        <ele>347.17321777344</ele>
        <time>2019-04-28T10:47:25Z</time>
      </trkpt>
      <trkpt lat="37.28623" lon="-8.62132">
        <ele>347.17321777344</ele>
        <time>2019-04-28T10:47:34Z</time>
      </trkpt>
      <trkpt lat="37.28623" lon="-8.62142">
        <ele>347.65393066406</ele>
        <time>2019-04-28T10:47:36Z</time>
      </trkpt>
      <trkpt lat="37.28616" lon="-8.62188">
        <ele>347.17321777344</ele>
        <time>2019-04-28T10:47:44Z</time>
      </trkpt>
      <trkpt lat="37.28609" lon="-8.62224">
        <ele>346.69262695312</ele>
        <time>2019-04-28T10:47:50Z</time>
      </trkpt>
      <trkpt lat="37.28607" lon="-8.62236">
        <ele>346.69262695312</ele>
        <time>2019-04-28T10:47:52Z</time>
      </trkpt>
      <trkpt lat="37.28605" lon="-8.62251">
        <ele>345.25061035156</ele>
        <time>2019-04-28T10:47:56Z</time>
      </trkpt>
      <trkpt lat="37.28586" lon="-8.62252">
        <ele>342.36669921875</ele>
        <time>2019-04-28T10:47:59Z</time>
      </trkpt>
      <trkpt lat="37.28549" lon="-8.62231">
        <ele>339.00207519531</ele>
        <time>2019-04-28T10:48:06Z</time>
      </trkpt>
      <trkpt lat="37.28544" lon="-8.62219">
        <ele>337.56005859375</ele>
        <time>2019-04-28T10:48:08Z</time>
      </trkpt>
      <trkpt lat="37.28511" lon="-8.62211">
        <ele>333.23413085938</ele>
        <time>2019-04-28T10:48:16Z</time>
      </trkpt>
      <trkpt lat="37.28502" lon="-8.62222">
        <ele>331.3115234375</ele>
        <time>2019-04-28T10:48:18Z</time>
      </trkpt>
      <trkpt lat="37.28491" lon="-8.62236">
        <ele>329.38891601562</ele>
        <time>2019-04-28T10:48:21Z</time>
      </trkpt>
      <trkpt lat="37.28457" lon="-8.6222">
        <ele>325.54357910156</ele>
        <time>2019-04-28T10:48:28Z</time>
      </trkpt>
      <trkpt lat="37.28442" lon="-8.62194">
        <ele>323.14038085938</ele>
        <time>2019-04-28T10:48:32Z</time>
      </trkpt>
      <trkpt lat="37.28404" lon="-8.62196">
        <ele>322.65966796875</ele>
        <time>2019-04-28T10:48:40Z</time>
      </trkpt>
      <trkpt lat="37.28401" lon="-8.62202">
        <ele>322.17895507812</ele>
        <time>2019-04-28T10:48:41Z</time>
      </trkpt>
      <trkpt lat="37.28396" lon="-8.62215">
        <ele>322.17895507812</ele>
        <time>2019-04-28T10:48:43Z</time>
      </trkpt>
      <trkpt lat="37.28361" lon="-8.62228">
        <ele>321.2177734375</ele>
        <time>2019-04-28T10:48:50Z</time>
      </trkpt>
      <trkpt lat="37.28325" lon="-8.6222">
        <ele>319.29504394531</ele>
        <time>2019-04-28T10:48:57Z</time>
      </trkpt>
      <trkpt lat="37.28305" lon="-8.62238">
        <ele>318.33361816406</ele>
        <time>2019-04-28T10:49:01Z</time>
      </trkpt>
      <trkpt lat="37.28292" lon="-8.62243">
        <ele>318.33361816406</ele>
        <time>2019-04-28T10:49:03Z</time>
      </trkpt>
      <trkpt lat="37.28255" lon="-8.62249">
        <ele>317.85302734375</ele>
        <time>2019-04-28T10:49:09Z</time>
      </trkpt>
      <trkpt lat="37.28215" lon="-8.6227">
        <ele>316.41101074219</ele>
        <time>2019-04-28T10:49:17Z</time>
      </trkpt>
      <trkpt lat="37.2819" lon="-8.62272">
        <ele>314.96911621094</ele>
        <time>2019-04-28T10:49:21Z</time>
      </trkpt>
      <trkpt lat="37.28168" lon="-8.62265">
        <ele>313.52722167969</ele>
        <time>2019-04-28T10:49:25Z</time>
      </trkpt>
      <trkpt lat="37.28163" lon="-8.62264">
        <ele>313.52722167969</ele>
        <time>2019-04-28T10:49:26Z</time>
      </trkpt>
      <trkpt lat="37.28147" lon="-8.62267">
        <ele>312.08520507812</ele>
        <time>2019-04-28T10:49:29Z</time>
      </trkpt>
      <trkpt lat="37.28136" lon="-8.62273">
        <ele>311.12377929688</ele>
        <time>2019-04-28T10:49:31Z</time>
      </trkpt>
      <trkpt lat="37.28109" lon="-8.62294">
        <ele>310.16247558594</ele>
        <time>2019-04-28T10:49:36Z</time>
      </trkpt>
      <trkpt lat="37.28077" lon="-8.62294">
        <ele>311.6044921875</ele>
        <time>2019-04-28T10:49:43Z</time>
      </trkpt>
      <trkpt lat="37.28038" lon="-8.62276">
        <ele>314.96911621094</ele>
        <time>2019-04-28T10:49:58Z</time>
      </trkpt>
      <trkpt lat="37.27991" lon="-8.62268">
        <ele>316.41101074219</ele>
        <time>2019-04-28T10:50:16Z</time>
      </trkpt>
      <trkpt lat="37.27958" lon="-8.62281">
        <ele>318.33361816406</ele>
        <time>2019-04-28T10:50:29Z</time>
      </trkpt>
      <trkpt lat="37.27928" lon="-8.62287">
        <ele>321.2177734375</ele>
        <time>2019-04-28T10:50:42Z</time>
      </trkpt>
      <trkpt lat="37.27917" lon="-8.62334">
        <ele>323.14038085938</ele>
        <time>2019-04-28T10:50:58Z</time>
      </trkpt>
      <trkpt lat="37.27887" lon="-8.62345">
        <ele>324.58227539062</ele>
        <time>2019-04-28T10:51:11Z</time>
      </trkpt>
      <trkpt lat="37.27854" lon="-8.62368">
        <ele>326.98559570312</ele>
        <time>2019-04-28T10:51:26Z</time>
      </trkpt>
      <trkpt lat="37.27827" lon="-8.62389">
        <ele>328.90832519531</ele>
        <time>2019-04-28T10:51:41Z</time>
      </trkpt>
      <trkpt lat="37.27804" lon="-8.6236">
        <ele>332.27282714844</ele>
        <time>2019-04-28T10:51:54Z</time>
      </trkpt>
      <trkpt lat="37.27781" lon="-8.6236">
        <ele>331.79211425781</ele>
        <time>2019-04-28T10:52:03Z</time>
      </trkpt>
      <trkpt lat="37.2776" lon="-8.62376">
        <ele>330.35021972656</ele>
        <time>2019-04-28T10:52:09Z</time>
      </trkpt>
      <trkpt lat="37.27747" lon="-8.62382">
        <ele>329.38891601562</ele>
        <time>2019-04-28T10:52:12Z</time>
      </trkpt>
      <trkpt lat="37.27694" lon="-8.624">
        <ele>327.94677734375</ele>
        <time>2019-04-28T10:52:22Z</time>
      </trkpt>
      <trkpt lat="37.2767" lon="-8.62435">
        <ele>326.98559570312</ele>
        <time>2019-04-28T10:52:30Z</time>
      </trkpt>
      <trkpt lat="37.2766" lon="-8.62435">
        <ele>326.02416992188</ele>
        <time>2019-04-28T10:52:32Z</time>
      </trkpt>
      <trkpt lat="37.27651" lon="-8.62433">
        <ele>325.54357910156</ele>
        <time>2019-04-28T10:52:34Z</time>
      </trkpt>
      <trkpt lat="37.27608" lon="-8.62409">
        <ele>323.14038085938</ele>
        <time>2019-04-28T10:52:44Z</time>
      </trkpt>
      <trkpt lat="37.27603" lon="-8.62405">
        <ele>322.17895507812</ele>
        <time>2019-04-28T10:52:56Z</time>
      </trkpt>
      <trkpt lat="37.27586" lon="-8.62387">
        <ele>322.17895507812</ele>
        <time>2019-04-28T10:54:41Z</time>
      </trkpt>
      <trkpt lat="37.27579" lon="-8.62353">
        <ele>321.2177734375</ele>
        <time>2019-04-28T10:54:49Z</time>
      </trkpt>
      <trkpt lat="37.27551" lon="-8.62329">
        <ele>318.33361816406</ele>
        <time>2019-04-28T10:54:56Z</time>
      </trkpt>
      <trkpt lat="37.27532" lon="-8.62336">
        <ele>316.41101074219</ele>
        <time>2019-04-28T10:54:59Z</time>
      </trkpt>
      <trkpt lat="37.27527" lon="-8.62341">
        <ele>315.93041992188</ele>
        <time>2019-04-28T10:55:00Z</time>
      </trkpt>
      <trkpt lat="37.27498" lon="-8.62358">
        <ele>314.48840332031</ele>
        <time>2019-04-28T10:55:05Z</time>
      </trkpt>
      <trkpt lat="37.27484" lon="-8.62354">
        <ele>313.52722167969</ele>
        <time>2019-04-28T10:55:07Z</time>
      </trkpt>
      <trkpt lat="37.27467" lon="-8.62336">
        <ele>312.08520507812</ele>
        <time>2019-04-28T10:55:10Z</time>
      </trkpt>
      <trkpt lat="37.27444" lon="-8.62298">
        <ele>308.72045898438</ele>
        <time>2019-04-28T10:55:15Z</time>
      </trkpt>
      <trkpt lat="37.2743" lon="-8.62265">
        <ele>306.7978515625</ele>
        <time>2019-04-28T10:55:19Z</time>
      </trkpt>
      <trkpt lat="37.27409" lon="-8.62242">
        <ele>303.43322753906</ele>
        <time>2019-04-28T10:55:25Z</time>
      </trkpt>
      <trkpt lat="37.27398" lon="-8.62247">
        <ele>301.51062011719</ele>
        <time>2019-04-28T10:55:27Z</time>
      </trkpt>
      <trkpt lat="37.27337" lon="-8.62281">
        <ele>299.58801269531</ele>
        <time>2019-04-28T10:55:31Z</time>
      </trkpt>
      <trkpt lat="37.27337" lon="-8.62281">
        <ele>298.14611816406</ele>
        <time>2019-04-28T10:55:33Z</time>
      </trkpt>
      <trkpt lat="37.27337" lon="-8.62281">
        <ele>296.7041015625</ele>
        <time>2019-04-28T10:55:36Z</time>
      </trkpt>
      <trkpt lat="37.27332" lon="-8.62284">
        <ele>296.7041015625</ele>
        <time>2019-04-28T10:55:37Z</time>
      </trkpt>
      <trkpt lat="37.27306" lon="-8.62309">
        <ele>294.30078125</ele>
        <time>2019-04-28T10:55:42Z</time>
      </trkpt>
      <trkpt lat="37.27265" lon="-8.62336">
        <ele>289.494140625</ele>
        <time>2019-04-28T10:55:50Z</time>
      </trkpt>
      <trkpt lat="37.27258" lon="-8.62339">
        <ele>289.97485351562</ele>
        <time>2019-04-28T10:55:51Z</time>
      </trkpt>
      <trkpt lat="37.27232" lon="-8.62349">
        <ele>288.05224609375</ele>
        <time>2019-04-28T10:55:55Z</time>
      </trkpt>
      <trkpt lat="37.27221" lon="-8.62346">
        <ele>287.0908203125</ele>
        <time>2019-04-28T10:55:57Z</time>
      </trkpt>
      <trkpt lat="37.27205" lon="-8.6234">
        <ele>286.61022949219</ele>
        <time>2019-04-28T10:56:00Z</time>
      </trkpt>
      <trkpt lat="37.27168" lon="-8.62336">
        <ele>284.68762207031</ele>
        <time>2019-04-28T10:56:06Z</time>
      </trkpt>
      <trkpt lat="37.27127" lon="-8.62333">
        <ele>284.20690917969</ele>
        <time>2019-04-28T10:56:12Z</time>
      </trkpt>
      <trkpt lat="37.27097" lon="-8.62286">
        <ele>280.84240722656</ele>
        <time>2019-04-28T10:56:20Z</time>
      </trkpt>
      <trkpt lat="37.27073" lon="-8.62266">
        <ele>278.91967773438</ele>
        <time>2019-04-28T10:56:25Z</time>
      </trkpt>
      <trkpt lat="37.27052" lon="-8.62245">
        <ele>276.03564453125</ele>
        <time>2019-04-28T10:56:30Z</time>
      </trkpt>
      <trkpt lat="37.27044" lon="-8.62232">
        <ele>276.51635742188</ele>
        <time>2019-04-28T10:56:32Z</time>
      </trkpt>
      <trkpt lat="37.27014" lon="-8.62207">
        <ele>276.03564453125</ele>
        <time>2019-04-28T10:56:38Z</time>
      </trkpt>
      <trkpt lat="37.26962" lon="-8.62204">
        <ele>272.67114257812</ele>
        <time>2019-04-28T10:56:46Z</time>
      </trkpt>
      <trkpt lat="37.26943" lon="-8.62204">
        <ele>272.1904296875</ele>
        <time>2019-04-28T10:56:49Z</time>
      </trkpt>
      <trkpt lat="37.26899" lon="-8.62209">
        <ele>270.26770019531</ele>
        <time>2019-04-28T10:56:57Z</time>
      </trkpt>
      <trkpt lat="37.26872" lon="-8.62213">
        <ele>269.787109375</ele>
        <time>2019-04-28T10:57:02Z</time>
      </trkpt>
      <trkpt lat="37.26846" lon="-8.62218">
        <ele>268.82580566406</ele>
        <time>2019-04-28T10:57:07Z</time>
      </trkpt>
      <trkpt lat="37.26812" lon="-8.6223">
        <ele>266.42248535156</ele>
        <time>2019-04-28T10:57:13Z</time>
      </trkpt>
      <trkpt lat="37.26782" lon="-8.62238">
        <ele>263.05786132812</ele>
        <time>2019-04-28T10:57:18Z</time>
      </trkpt>
      <trkpt lat="37.26764" lon="-8.62238">
        <ele>261.13525390625</ele>
        <time>2019-04-28T10:57:21Z</time>
      </trkpt>
      <trkpt lat="37.26751" lon="-8.62232">
        <ele>259.693359375</ele>
        <time>2019-04-28T10:57:24Z</time>
      </trkpt>
      <trkpt lat="37.26734" lon="-8.62213">
        <ele>256.32873535156</ele>
        <time>2019-04-28T10:57:28Z</time>
      </trkpt>
      <trkpt lat="37.26717" lon="-8.62198">
        <ele>254.88659667969</ele>
        <time>2019-04-28T10:57:31Z</time>
      </trkpt>
      <trkpt lat="37.267" lon="-8.62187">
        <ele>252.4833984375</ele>
        <time>2019-04-28T10:57:34Z</time>
      </trkpt>
      <trkpt lat="37.26683" lon="-8.62184">
        <ele>250.56079101562</ele>
        <time>2019-04-28T10:57:37Z</time>
      </trkpt>
      <trkpt lat="37.2667" lon="-8.62197">
        <ele>249.11877441406</ele>
        <time>2019-04-28T10:57:40Z</time>
      </trkpt>
      <trkpt lat="37.26663" lon="-8.62212">
        <ele>248.15759277344</ele>
        <time>2019-04-28T10:57:42Z</time>
      </trkpt>
      <trkpt lat="37.26642" lon="-8.62243">
        <ele>246.23486328125</ele>
        <time>2019-04-28T10:57:47Z</time>
      </trkpt>
      <trkpt lat="37.26605" lon="-8.62256">
        <ele>244.31225585938</ele>
        <time>2019-04-28T10:57:53Z</time>
      </trkpt>
      <trkpt lat="37.26578" lon="-8.6225">
        <ele>241.90893554688</ele>
        <time>2019-04-28T10:58:01Z</time>
      </trkpt>
      <trkpt lat="37.26595" lon="-8.62254">
        <ele>240.46704101562</ele>
        <time>2019-04-28T10:58:08Z</time>
      </trkpt>
      <trkpt lat="37.26628" lon="-8.62342">
        <ele>239.02490234375</ele>
        <time>2019-04-28T10:58:17Z</time>
      </trkpt>
      <trkpt lat="37.2662" lon="-8.62367">
        <ele>236.62170410156</ele>
        <time>2019-04-28T10:58:21Z</time>
      </trkpt>
      <trkpt lat="37.26603" lon="-8.62402">
        <ele>235.1796875</ele>
        <time>2019-04-28T10:58:26Z</time>
      </trkpt>
      <trkpt lat="37.26584" lon="-8.62423">
        <ele>232.29577636719</ele>
        <time>2019-04-28T10:58:30Z</time>
      </trkpt>
      <trkpt lat="37.26575" lon="-8.62435">
        <ele>231.33435058594</ele>
        <time>2019-04-28T10:58:32Z</time>
      </trkpt>
      <trkpt lat="37.26576" lon="-8.62451">
        <ele>230.373046875</ele>
        <time>2019-04-28T10:58:34Z</time>
      </trkpt>
      <trkpt lat="37.26562" lon="-8.62508">
        <ele>228.45043945312</ele>
        <time>2019-04-28T10:58:42Z</time>
      </trkpt>
      <trkpt lat="37.26558" lon="-8.62567">
        <ele>226.04711914062</ele>
        <time>2019-04-28T10:58:49Z</time>
      </trkpt>
      <trkpt lat="37.26559" lon="-8.62587">
        <ele>225.0859375</ele>
        <time>2019-04-28T10:58:51Z</time>
      </trkpt>
      <trkpt lat="37.26563" lon="-8.62635">
        <ele>220.75988769531</ele>
        <time>2019-04-28T10:58:56Z</time>
      </trkpt>
      <trkpt lat="37.26564" lon="-8.62676">
        <ele>217.8759765625</ele>
        <time>2019-04-28T10:59:00Z</time>
      </trkpt>
      <trkpt lat="37.26564" lon="-8.62686">
        <ele>217.39538574219</ele>
        <time>2019-04-28T10:59:01Z</time>
      </trkpt>
      <trkpt lat="37.2658" lon="-8.62733">
        <ele>215.47265625</ele>
        <time>2019-04-28T10:59:06Z</time>
      </trkpt>
      <trkpt lat="37.26588" lon="-8.62747">
        <ele>214.99194335938</ele>
        <time>2019-04-28T10:59:08Z</time>
      </trkpt>
      <trkpt lat="37.26594" lon="-8.62762">
        <ele>213.55004882812</ele>
        <time>2019-04-28T10:59:10Z</time>
      </trkpt>
      <trkpt lat="37.26579" lon="-8.62789">
        <ele>211.62744140625</ele>
        <time>2019-04-28T10:59:16Z</time>
      </trkpt>
      <trkpt lat="37.26554" lon="-8.62771">
        <ele>209.22412109375</ele>
        <time>2019-04-28T10:59:21Z</time>
      </trkpt>
      <trkpt lat="37.26542" lon="-8.62751">
        <ele>208.26281738281</ele>
        <time>2019-04-28T10:59:24Z</time>
      </trkpt>
      <trkpt lat="37.26519" lon="-8.62721">
        <ele>206.82067871094</ele>
        <time>2019-04-28T10:59:29Z</time>
      </trkpt>
      <trkpt lat="37.26499" lon="-8.62699">
        <ele>206.34008789062</ele>
        <time>2019-04-28T10:59:33Z</time>
      </trkpt>
      <trkpt lat="37.26485" lon="-8.62711">
        <ele>204.41748046875</ele>
        <time>2019-04-28T10:59:39Z</time>
      </trkpt>
      <trkpt lat="37.26495" lon="-8.6274">
        <ele>202.49487304688</ele>
        <time>2019-04-28T10:59:43Z</time>
      </trkpt>
      <trkpt lat="37.26504" lon="-8.6278">
        <ele>199.13012695312</ele>
        <time>2019-04-28T10:59:48Z</time>
      </trkpt>
      <trkpt lat="37.26507" lon="-8.62788">
        <ele>198.64953613281</ele>
        <time>2019-04-28T10:59:49Z</time>
      </trkpt>
      <trkpt lat="37.2651" lon="-8.62796">
        <ele>198.1689453125</ele>
        <time>2019-04-28T10:59:50Z</time>
      </trkpt>
      <trkpt lat="37.26514" lon="-8.62812">
        <ele>196.24633789062</ele>
        <time>2019-04-28T10:59:52Z</time>
      </trkpt>
      <trkpt lat="37.26508" lon="-8.62847">
        <ele>194.80432128906</ele>
        <time>2019-04-28T10:59:57Z</time>
      </trkpt>
      <trkpt lat="37.26502" lon="-8.62862">
        <ele>194.32373046875</ele>
        <time>2019-04-28T10:59:59Z</time>
      </trkpt>
      <trkpt lat="37.26493" lon="-8.6288">
        <ele>193.84301757812</ele>
        <time>2019-04-28T11:00:01Z</time>
      </trkpt>
      <trkpt lat="37.26479" lon="-8.62904">
        <ele>191.43957519531</ele>
        <time>2019-04-28T11:00:04Z</time>
      </trkpt>
      <trkpt lat="37.26474" lon="-8.6291">
        <ele>190.958984375</ele>
        <time>2019-04-28T11:00:05Z</time>
      </trkpt>
      <trkpt lat="37.26447" lon="-8.62927">
        <ele>187.11376953125</ele>
        <time>2019-04-28T11:00:10Z</time>
      </trkpt>
      <trkpt lat="37.26418" lon="-8.62976">
        <ele>184.71057128906</ele>
        <time>2019-04-28T11:00:16Z</time>
      </trkpt>
      <trkpt lat="37.26384" lon="-8.63007">
        <ele>180.865234375</ele>
        <time>2019-04-28T11:00:21Z</time>
      </trkpt>
      <trkpt lat="37.26365" lon="-8.63028">
        <ele>177.98120117188</ele>
        <time>2019-04-28T11:00:24Z</time>
      </trkpt>
      <trkpt lat="37.26343" lon="-8.63045">
        <ele>176.53930664062</ele>
        <time>2019-04-28T11:00:27Z</time>
      </trkpt>
      <trkpt lat="37.26335" lon="-8.63049">
        <ele>175.09729003906</ele>
        <time>2019-04-28T11:00:28Z</time>
      </trkpt>
      <trkpt lat="37.26304" lon="-8.63064">
        <ele>175.09729003906</ele>
        <time>2019-04-28T11:00:32Z</time>
      </trkpt>
      <trkpt lat="37.26282" lon="-8.6309">
        <ele>175.09729003906</ele>
        <time>2019-04-28T11:00:36Z</time>
      </trkpt>
      <trkpt lat="37.26238" lon="-8.63182">
        <ele>173.17468261719</ele>
        <time>2019-04-28T11:00:47Z</time>
      </trkpt>
      <trkpt lat="37.26208" lon="-8.63218">
        <ele>169.32946777344</ele>
        <time>2019-04-28T11:00:52Z</time>
      </trkpt>
      <trkpt lat="37.26201" lon="-8.63223">
        <ele>168.84875488281</ele>
        <time>2019-04-28T11:00:53Z</time>
      </trkpt>
      <trkpt lat="37.26179" lon="-8.63234">
        <ele>167.40673828125</ele>
        <time>2019-04-28T11:00:56Z</time>
      </trkpt>
      <trkpt lat="37.26071" lon="-8.63263">
        <ele>166.92602539062</ele>
        <time>2019-04-28T11:01:11Z</time>
      </trkpt>
      <trkpt lat="37.25991" lon="-8.6332">
        <ele>163.5615234375</ele>
        <time>2019-04-28T11:01:24Z</time>
      </trkpt>
      <trkpt lat="37.25979" lon="-8.63329">
        <ele>162.60009765625</ele>
        <time>2019-04-28T11:01:26Z</time>
      </trkpt>
      <trkpt lat="37.25941" lon="-8.63361">
        <ele>162.60009765625</ele>
        <time>2019-04-28T11:01:34Z</time>
      </trkpt>
      <trkpt lat="37.25911" lon="-8.63407">
        <ele>162.60009765625</ele>
        <time>2019-04-28T11:01:44Z</time>
      </trkpt>
      <trkpt lat="37.25855" lon="-8.63497">
        <ele>160.67749023438</ele>
        <time>2019-04-28T11:02:03Z</time>
      </trkpt>
      <trkpt lat="37.25838" lon="-8.63524">
        <ele>160.19689941406</ele>
        <time>2019-04-28T11:02:09Z</time>
      </trkpt>
      <trkpt lat="37.25777" lon="-8.63591">
        <ele>157.79357910156</ele>
        <time>2019-04-28T11:02:26Z</time>
      </trkpt>
      <trkpt lat="37.25726" lon="-8.63629">
        <ele>155.87097167969</ele>
        <time>2019-04-28T11:02:40Z</time>
      </trkpt>
      <trkpt lat="37.25724" lon="-8.63629">
        <ele>155.87097167969</ele>
        <time>2019-04-28T11:02:51Z</time>
      </trkpt>
      <trkpt lat="37.2572" lon="-8.63635">
        <ele>155.87097167969</ele>
        <time>2019-04-28T11:03:03Z</time>
      </trkpt>
      <trkpt lat="37.25715" lon="-8.63631">
        <ele>154.90954589844</ele>
        <time>2019-04-28T11:03:16Z</time>
      </trkpt>
      <trkpt lat="37.25712" lon="-8.63631">
        <ele>154.90954589844</ele>
        <time>2019-04-28T11:35:56Z</time>
      </trkpt>
      <trkpt lat="37.25716" lon="-8.63627">
        <ele>151.544921875</ele>
        <time>2019-04-28T11:38:09Z</time>
      </trkpt>
      <trkpt lat="37.25717" lon="-8.63631">
        <ele>150.58361816406</ele>
        <time>2019-04-28T11:38:41Z</time>
      </trkpt>
      <trkpt lat="37.25717" lon="-8.63632">
        <ele>149.1416015625</ele>
        <time>2019-04-28T11:39:00Z</time>
      </trkpt>
      <trkpt lat="37.25716" lon="-8.63633">
        <ele>149.1416015625</ele>
        <time>2019-04-28T11:39:31Z</time>
      </trkpt>
      <trkpt lat="37.25684" lon="-8.63635">
        <ele>149.1416015625</ele>
        <time>2019-04-28T11:39:45Z</time>
      </trkpt>
      <trkpt lat="37.25626" lon="-8.63625">
        <ele>147.69970703125</ele>
        <time>2019-04-28T11:39:59Z</time>
      </trkpt>
      <trkpt lat="37.25622" lon="-8.63624">
        <ele>148.66101074219</ele>
        <time>2019-04-28T11:40:00Z</time>
      </trkpt>
      <trkpt lat="37.2554" lon="-8.63601">
        <ele>147.21899414062</ele>
        <time>2019-04-28T11:40:19Z</time>
      </trkpt>
      <trkpt lat="37.2547" lon="-8.63578">
        <ele>145.77709960938</ele>
        <time>2019-04-28T11:40:35Z</time>
      </trkpt>
      <trkpt lat="37.25465" lon="-8.63576">
        <ele>145.29638671875</ele>
        <time>2019-04-28T11:40:36Z</time>
      </trkpt>
      <trkpt lat="37.25435" lon="-8.63553">
        <ele>144.33520507812</ele>
        <time>2019-04-28T11:40:47Z</time>
      </trkpt>
      <trkpt lat="37.25406" lon="-8.6355">
        <ele>144.81579589844</ele>
        <time>2019-04-28T11:40:55Z</time>
      </trkpt>
      <trkpt lat="37.25393" lon="-8.63552">
        <ele>145.29638671875</ele>
        <time>2019-04-28T11:40:58Z</time>
      </trkpt>
      <trkpt lat="37.25381" lon="-8.63554">
        <ele>145.77709960938</ele>
        <time>2019-04-28T11:41:01Z</time>
      </trkpt>
      <trkpt lat="37.25353" lon="-8.63557">
        <ele>144.33520507812</ele>
        <time>2019-04-28T11:41:07Z</time>
      </trkpt>
      <trkpt lat="37.25339" lon="-8.63562">
        <ele>144.81579589844</ele>
        <time>2019-04-28T11:41:10Z</time>
      </trkpt>
      <trkpt lat="37.25289" lon="-8.63564">
        <ele>140.97045898438</ele>
        <time>2019-04-28T11:41:20Z</time>
      </trkpt>
      <trkpt lat="37.25264" lon="-8.63562">
        <ele>140.97045898438</ele>
        <time>2019-04-28T11:41:25Z</time>
      </trkpt>
      <trkpt lat="37.25252" lon="-8.63558">
        <ele>141.93176269531</ele>
        <time>2019-04-28T11:41:28Z</time>
      </trkpt>
      <trkpt lat="37.25224" lon="-8.6354">
        <ele>145.29638671875</ele>
        <time>2019-04-28T11:41:38Z</time>
      </trkpt>
      <trkpt lat="37.25199" lon="-8.63503">
        <ele>144.33520507812</ele>
        <time>2019-04-28T11:41:49Z</time>
      </trkpt>
      <trkpt lat="37.25184" lon="-8.63439">
        <ele>146.73840332031</ele>
        <time>2019-04-28T11:42:04Z</time>
      </trkpt>
      <trkpt lat="37.25166" lon="-8.634">
        <ele>148.66101074219</ele>
        <time>2019-04-28T11:42:18Z</time>
      </trkpt>
      <trkpt lat="37.25155" lon="-8.63385">
        <ele>147.69970703125</ele>
        <time>2019-04-28T11:42:23Z</time>
      </trkpt>
      <trkpt lat="37.25147" lon="-8.63356">
        <ele>147.69970703125</ele>
        <time>2019-04-28T11:42:29Z</time>
      </trkpt>
      <trkpt lat="37.25141" lon="-8.63283">
        <ele>149.62231445312</ele>
        <time>2019-04-28T11:42:45Z</time>
      </trkpt>
      <trkpt lat="37.25148" lon="-8.63236">
        <ele>152.02575683594</ele>
        <time>2019-04-28T11:43:00Z</time>
      </trkpt>
      <trkpt lat="37.25151" lon="-8.63186">
        <ele>153.94836425781</ele>
        <time>2019-04-28T11:43:17Z</time>
      </trkpt>
      <trkpt lat="37.25152" lon="-8.63153">
        <ele>152.50634765625</ele>
        <time>2019-04-28T11:43:31Z</time>
      </trkpt>
      <trkpt lat="37.25146" lon="-8.63117">
        <ele>151.06420898438</ele>
        <time>2019-04-28T11:43:42Z</time>
      </trkpt>
      <trkpt lat="37.25145" lon="-8.63098">
        <ele>149.62231445312</ele>
        <time>2019-04-28T11:43:46Z</time>
      </trkpt>
      <trkpt lat="37.25142" lon="-8.63081">
        <ele>149.1416015625</ele>
        <time>2019-04-28T11:43:50Z</time>
      </trkpt>
      <trkpt lat="37.25151" lon="-8.63041">
        <ele>146.73840332031</ele>
        <time>2019-04-28T11:44:04Z</time>
      </trkpt>
      <trkpt lat="37.25152" lon="-8.63039">
        <ele>146.73840332031</ele>
        <time>2019-04-28T11:44:05Z</time>
      </trkpt>
      <trkpt lat="37.25152" lon="-8.63023">
        <ele>146.2578125</ele>
        <time>2019-04-28T11:44:09Z</time>
      </trkpt>
      <trkpt lat="37.25149" lon="-8.63012">
        <ele>146.2578125</ele>
        <time>2019-04-28T11:44:11Z</time>
      </trkpt>
      <trkpt lat="37.25145" lon="-8.63">
        <ele>145.29638671875</ele>
        <time>2019-04-28T11:44:13Z</time>
      </trkpt>
      <trkpt lat="37.25126" lon="-8.62971">
        <ele>144.81579589844</ele>
        <time>2019-04-28T11:44:18Z</time>
      </trkpt>
      <trkpt lat="37.25112" lon="-8.62955">
        <ele>143.37365722656</ele>
        <time>2019-04-28T11:44:21Z</time>
      </trkpt>
      <trkpt lat="37.25085" lon="-8.62929">
        <ele>142.89306640625</ele>
        <time>2019-04-28T11:44:26Z</time>
      </trkpt>
      <trkpt lat="37.25032" lon="-8.62895">
        <ele>140.00915527344</ele>
        <time>2019-04-28T11:44:35Z</time>
      </trkpt>
      <trkpt lat="37.25026" lon="-8.62891">
        <ele>140.00915527344</ele>
        <time>2019-04-28T11:44:36Z</time>
      </trkpt>
      <trkpt lat="37.24991" lon="-8.62862">
        <ele>138.56726074219</ele>
        <time>2019-04-28T11:44:42Z</time>
      </trkpt>
      <trkpt lat="37.24963" lon="-8.62852">
        <ele>137.12524414062</ele>
        <time>2019-04-28T11:44:46Z</time>
      </trkpt>
      <trkpt lat="37.24937" lon="-8.62842">
        <ele>136.64465332031</ele>
        <time>2019-04-28T11:44:50Z</time>
      </trkpt>
      <trkpt lat="37.2492" lon="-8.62828">
        <ele>134.72192382812</ele>
        <time>2019-04-28T11:44:53Z</time>
      </trkpt>
      <trkpt lat="37.249" lon="-8.62807">
        <ele>133.76049804688</ele>
        <time>2019-04-28T11:44:57Z</time>
      </trkpt>
      <trkpt lat="37.24884" lon="-8.62795">
        <ele>132.79931640625</ele>
        <time>2019-04-28T11:45:00Z</time>
      </trkpt>
      <trkpt lat="37.24874" lon="-8.62757">
        <ele>131.35729980469</ele>
        <time>2019-04-28T11:45:07Z</time>
      </trkpt>
      <trkpt lat="37.24872" lon="-8.62725">
        <ele>132.31860351562</ele>
        <time>2019-04-28T11:45:14Z</time>
      </trkpt>
      <trkpt lat="37.24868" lon="-8.62724">
        <ele>132.79931640625</ele>
        <time>2019-04-28T11:45:15Z</time>
      </trkpt>
      <trkpt lat="37.24822" lon="-8.6271">
        <ele>132.31860351562</ele>
        <time>2019-04-28T11:45:28Z</time>
      </trkpt>
      <trkpt lat="37.2477" lon="-8.62702">
        <ele>133.27990722656</ele>
        <time>2019-04-28T11:45:41Z</time>
      </trkpt>
      <trkpt lat="37.24745" lon="-8.62707">
        <ele>133.76049804688</ele>
        <time>2019-04-28T11:45:48Z</time>
      </trkpt>
      <trkpt lat="37.24731" lon="-8.62712">
        <ele>133.76049804688</ele>
        <time>2019-04-28T11:45:51Z</time>
      </trkpt>
      <trkpt lat="37.2472" lon="-8.62712">
        <ele>133.76049804688</ele>
        <time>2019-04-28T11:45:53Z</time>
      </trkpt>
      <trkpt lat="37.24711" lon="-8.62711">
        <ele>133.76049804688</ele>
        <time>2019-04-28T11:45:55Z</time>
      </trkpt>
      <trkpt lat="37.24679" lon="-8.62684">
        <ele>133.27990722656</ele>
        <time>2019-04-28T11:46:07Z</time>
      </trkpt>
      <trkpt lat="37.24663" lon="-8.62667">
        <ele>131.837890625</ele>
        <time>2019-04-28T11:46:20Z</time>
      </trkpt>
      <trkpt lat="37.24634" lon="-8.62648">
        <ele>134.2412109375</ele>
        <time>2019-04-28T11:46:36Z</time>
      </trkpt>
      <trkpt lat="37.24608" lon="-8.62642">
        <ele>133.76049804688</ele>
        <time>2019-04-28T11:46:51Z</time>
      </trkpt>
      <trkpt lat="37.24591" lon="-8.62619">
        <ele>133.27990722656</ele>
        <time>2019-04-28T11:47:03Z</time>
      </trkpt>
      <trkpt lat="37.24578" lon="-8.62565">
        <ele>136.16394042969</ele>
        <time>2019-04-28T11:47:24Z</time>
      </trkpt>
      <trkpt lat="37.24556" lon="-8.6251">
        <ele>134.72192382812</ele>
        <time>2019-04-28T11:47:42Z</time>
      </trkpt>
      <trkpt lat="37.24519" lon="-8.62462">
        <ele>133.76049804688</ele>
        <time>2019-04-28T11:47:45Z</time>
      </trkpt>
      <trkpt lat="37.24513" lon="-8.62468">
        <ele>134.2412109375</ele>
        <time>2019-04-28T11:47:48Z</time>
      </trkpt>
      <trkpt lat="37.24506" lon="-8.62475">
        <ele>132.31860351562</ele>
        <time>2019-04-28T11:47:52Z</time>
      </trkpt>
      <trkpt lat="37.24488" lon="-8.6248">
        <ele>136.16394042969</ele>
        <time>2019-04-28T11:47:57Z</time>
      </trkpt>
      <trkpt lat="37.24484" lon="-8.62481">
        <ele>137.12524414062</ele>
        <time>2019-04-28T11:47:59Z</time>
      </trkpt>
      <trkpt lat="37.24481" lon="-8.62482">
        <ele>138.56726074219</ele>
        <time>2019-04-28T11:48:01Z</time>
      </trkpt>
      <trkpt lat="37.24478" lon="-8.62482">
        <ele>138.56726074219</ele>
        <time>2019-04-28T11:48:14Z</time>
      </trkpt>
      <trkpt lat="37.24478" lon="-8.62482">
        <ele>137.12524414062</ele>
        <time>2019-04-28T11:48:40Z</time>
      </trkpt>
      <trkpt lat="37.24466" lon="-8.625">
        <ele>137.60583496094</ele>
        <time>2019-04-28T11:48:49Z</time>
      </trkpt>
      <trkpt lat="37.24447" lon="-8.62515">
        <ele>136.64465332031</ele>
        <time>2019-04-28T11:49:01Z</time>
      </trkpt>
      <trkpt lat="37.24446" lon="-8.62519">
        <ele>136.16394042969</ele>
        <time>2019-04-28T11:49:05Z</time>
      </trkpt>
      <trkpt lat="37.24442" lon="-8.62542">
        <ele>135.68310546875</ele>
        <time>2019-04-28T11:49:18Z</time>
      </trkpt>
      <trkpt lat="37.24441" lon="-8.62551">
        <ele>135.20251464844</ele>
        <time>2019-04-28T11:49:20Z</time>
      </trkpt>
      <trkpt lat="37.24421" lon="-8.62565">
        <ele>134.72192382812</ele>
        <time>2019-04-28T11:49:23Z</time>
      </trkpt>
      <trkpt lat="37.24417" lon="-8.62656">
        <ele>131.837890625</ele>
        <time>2019-04-28T11:49:37Z</time>
      </trkpt>
      <trkpt lat="37.24392" lon="-8.62736">
        <ele>128.47338867188</ele>
        <time>2019-04-28T11:49:49Z</time>
      </trkpt>
      <trkpt lat="37.24352" lon="-8.62812">
        <ele>127.03137207031</ele>
        <time>2019-04-28T11:50:03Z</time>
      </trkpt>
      <trkpt lat="37.24283" lon="-8.62898">
        <ele>125.10876464844</ele>
        <time>2019-04-28T11:50:20Z</time>
      </trkpt>
      <trkpt lat="37.24269" lon="-8.62922">
        <ele>124.62805175781</ele>
        <time>2019-04-28T11:50:24Z</time>
      </trkpt>
      <trkpt lat="37.2426" lon="-8.62953">
        <ele>125.10876464844</ele>
        <time>2019-04-28T11:50:30Z</time>
      </trkpt>
      <trkpt lat="37.2425" lon="-8.62982">
        <ele>123.66674804688</ele>
        <time>2019-04-28T11:50:34Z</time>
      </trkpt>
      <trkpt lat="37.24244" lon="-8.62993">
        <ele>120.78283691406</ele>
        <time>2019-04-28T11:50:39Z</time>
      </trkpt>
      <trkpt lat="37.24211" lon="-8.63029">
        <ele>119.3408203125</ele>
        <time>2019-04-28T11:50:43Z</time>
      </trkpt>
      <trkpt lat="37.24118" lon="-8.63085">
        <ele>119.3408203125</ele>
        <time>2019-04-28T11:51:01Z</time>
      </trkpt>
      <trkpt lat="37.241" lon="-8.63095">
        <ele>119.3408203125</ele>
        <time>2019-04-28T11:51:04Z</time>
      </trkpt>
      <trkpt lat="37.24046" lon="-8.63072">
        <ele>119.82141113281</ele>
        <time>2019-04-28T11:51:11Z</time>
      </trkpt>
      <trkpt lat="37.24029" lon="-8.63086">
        <ele>118.37939453125</ele>
        <time>2019-04-28T11:51:15Z</time>
      </trkpt>
      <trkpt lat="37.23948" lon="-8.63129">
        <ele>115.01489257812</ele>
        <time>2019-04-28T11:51:28Z</time>
      </trkpt>
      <trkpt lat="37.23868" lon="-8.63154">
        <ele>113.57299804688</ele>
        <time>2019-04-28T11:51:43Z</time>
      </trkpt>
      <trkpt lat="37.23785" lon="-8.63178">
        <ele>115.01489257812</ele>
        <time>2019-04-28T11:52:02Z</time>
      </trkpt>
      <trkpt lat="37.23765" lon="-8.63174">
        <ele>117.41821289062</ele>
        <time>2019-04-28T11:52:09Z</time>
      </trkpt>
      <trkpt lat="37.23764" lon="-8.63173">
        <ele>117.89880371094</ele>
        <time>2019-04-28T11:52:10Z</time>
      </trkpt>
      <trkpt lat="37.23757" lon="-8.63188">
        <ele>117.89880371094</ele>
        <time>2019-04-28T11:52:15Z</time>
      </trkpt>
      <trkpt lat="37.23744" lon="-8.63213">
        <ele>117.89880371094</ele>
        <time>2019-04-28T11:52:22Z</time>
      </trkpt>
      <trkpt lat="37.23695" lon="-8.63274">
        <ele>116.45678710938</ele>
        <time>2019-04-28T11:52:36Z</time>
      </trkpt>
      <trkpt lat="37.23615" lon="-8.63308">
        <ele>115.97619628906</ele>
        <time>2019-04-28T11:52:54Z</time>
      </trkpt>
      <trkpt lat="37.23543" lon="-8.63312">
        <ele>113.09228515625</ele>
        <time>2019-04-28T11:53:08Z</time>
      </trkpt>
      <trkpt lat="37.23515" lon="-8.63314">
        <ele>112.13098144531</ele>
        <time>2019-04-28T11:53:13Z</time>
      </trkpt>
      <trkpt lat="37.23385" lon="-8.63308">
        <ele>110.20825195312</ele>
        <time>2019-04-28T11:53:37Z</time>
      </trkpt>
      <trkpt lat="37.23275" lon="-8.63285">
        <ele>107.32434082031</ele>
        <time>2019-04-28T11:53:59Z</time>
      </trkpt>
      <trkpt lat="37.2316" lon="-8.63251">
        <ele>107.32434082031</ele>
        <time>2019-04-28T11:54:22Z</time>
      </trkpt>
      <trkpt lat="37.23075" lon="-8.63222">
        <ele>105.88244628906</ele>
        <time>2019-04-28T11:54:39Z</time>
      </trkpt>
      <trkpt lat="37.22976" lon="-8.63188">
        <ele>106.36303710938</ele>
        <time>2019-04-28T11:55:01Z</time>
      </trkpt>
      <trkpt lat="37.22949" lon="-8.6318">
        <ele>105.40173339844</ele>
        <time>2019-04-28T11:55:07Z</time>
      </trkpt>
      <trkpt lat="37.22938" lon="-8.63203">
        <ele>105.40173339844</ele>
        <time>2019-04-28T11:55:13Z</time>
      </trkpt>
      <trkpt lat="37.22929" lon="-8.63233">
        <ele>105.40173339844</ele>
        <time>2019-04-28T11:55:18Z</time>
      </trkpt>
      <trkpt lat="37.22923" lon="-8.63251">
        <ele>105.88244628906</ele>
        <time>2019-04-28T11:55:21Z</time>
      </trkpt>
      <trkpt lat="37.22922" lon="-8.63273">
        <ele>105.40173339844</ele>
        <time>2019-04-28T11:55:26Z</time>
      </trkpt>
      <trkpt lat="37.22926" lon="-8.63284">
        <ele>105.40173339844</ele>
        <time>2019-04-28T11:55:28Z</time>
      </trkpt>
      <trkpt lat="37.22897" lon="-8.63339">
        <ele>105.88244628906</ele>
        <time>2019-04-28T11:55:38Z</time>
      </trkpt>
      <trkpt lat="37.2285" lon="-8.63327">
        <ele>104.4404296875</ele>
        <time>2019-04-28T11:55:48Z</time>
      </trkpt>
      <trkpt lat="37.22815" lon="-8.63285">
        <ele>103.47900390625</ele>
        <time>2019-04-28T11:55:57Z</time>
      </trkpt>
      <trkpt lat="37.22809" lon="-8.63282">
        <ele>103.47900390625</ele>
        <time>2019-04-28T11:55:58Z</time>
      </trkpt>
      <trkpt lat="37.22702" lon="-8.63193">
        <ele>100.59509277344</ele>
        <time>2019-04-28T11:56:18Z</time>
      </trkpt>
      <trkpt lat="37.22636" lon="-8.63099">
        <ele>99.153076171875</ele>
        <time>2019-04-28T11:56:35Z</time>
      </trkpt>
      <trkpt lat="37.22541" lon="-8.63036">
        <ele>97.711181640625</ele>
        <time>2019-04-28T11:56:54Z</time>
      </trkpt>
      <trkpt lat="37.22421" lon="-8.63004">
        <ele>96.749877929688</ele>
        <time>2019-04-28T11:57:15Z</time>
      </trkpt>
      <trkpt lat="37.22294" lon="-8.63004">
        <ele>96.269287109375</ele>
        <time>2019-04-28T11:57:37Z</time>
      </trkpt>
      <trkpt lat="37.22182" lon="-8.62983">
        <ele>93.385131835938</ele>
        <time>2019-04-28T11:57:57Z</time>
      </trkpt>
      <trkpt lat="37.22094" lon="-8.62951">
        <ele>93.385131835938</ele>
        <time>2019-04-28T11:58:13Z</time>
      </trkpt>
      <trkpt lat="37.22026" lon="-8.6294">
        <ele>91.462524414062</ele>
        <time>2019-04-28T11:58:25Z</time>
      </trkpt>
      <trkpt lat="37.22001" lon="-8.62942">
        <ele>89.539916992188</ele>
        <time>2019-04-28T11:58:30Z</time>
      </trkpt>
      <trkpt lat="37.21976" lon="-8.62964">
        <ele>90.98193359375</ele>
        <time>2019-04-28T11:58:38Z</time>
      </trkpt>
      <trkpt lat="37.21967" lon="-8.62983">
        <ele>91.462524414062</ele>
        <time>2019-04-28T11:58:42Z</time>
      </trkpt>
      <trkpt lat="37.21913" lon="-8.6298">
        <ele>90.501342773438</ele>
        <time>2019-04-28T11:58:51Z</time>
      </trkpt>
      <trkpt lat="37.21902" lon="-8.62959">
        <ele>90.020629882812</ele>
        <time>2019-04-28T11:58:55Z</time>
      </trkpt>
      <trkpt lat="37.21902" lon="-8.62944">
        <ele>90.020629882812</ele>
        <time>2019-04-28T11:58:58Z</time>
      </trkpt>
      <trkpt lat="37.21851" lon="-8.62871">
        <ele>89.059326171875</ele>
        <time>2019-04-28T11:59:11Z</time>
      </trkpt>
      <trkpt lat="37.21776" lon="-8.62751">
        <ele>89.539916992188</ele>
        <time>2019-04-28T11:59:32Z</time>
      </trkpt>
      <trkpt lat="37.21767" lon="-8.62738">
        <ele>89.059326171875</ele>
        <time>2019-04-28T11:59:40Z</time>
      </trkpt>
      <trkpt lat="37.21767" lon="-8.62738">
        <ele>88.578735351562</ele>
        <time>2019-04-28T12:00:52Z</time>
      </trkpt>
      <trkpt lat="37.21758" lon="-8.62751">
        <ele>89.059326171875</ele>
        <time>2019-04-28T12:00:56Z</time>
      </trkpt>
      <trkpt lat="37.21716" lon="-8.62786">
        <ele>88.098022460938</ele>
        <time>2019-04-28T12:01:11Z</time>
      </trkpt>
      <trkpt lat="37.21701" lon="-8.62796">
        <ele>86.656005859375</ele>
        <time>2019-04-28T12:01:14Z</time>
      </trkpt>
      <trkpt lat="37.21618" lon="-8.62828">
        <ele>84.252685546875</ele>
        <time>2019-04-28T12:01:29Z</time>
      </trkpt>
      <trkpt lat="37.21597" lon="-8.62838">
        <ele>83.77197265625</ele>
        <time>2019-04-28T12:01:35Z</time>
      </trkpt>
      <trkpt lat="37.21572" lon="-8.6282">
        <ele>82.810791015625</ele>
        <time>2019-04-28T12:01:45Z</time>
      </trkpt>
      <trkpt lat="37.2155" lon="-8.62798">
        <ele>82.810791015625</ele>
        <time>2019-04-28T12:01:54Z</time>
      </trkpt>
      <trkpt lat="37.21531" lon="-8.62774">
        <ele>82.330078125</ele>
        <time>2019-04-28T12:02:03Z</time>
      </trkpt>
      <trkpt lat="37.21522" lon="-8.62764">
        <ele>81.368774414062</ele>
        <time>2019-04-28T12:02:06Z</time>
      </trkpt>
      <trkpt lat="37.21475" lon="-8.62725">
        <ele>81.368774414062</ele>
        <time>2019-04-28T12:02:23Z</time>
      </trkpt>
      <trkpt lat="37.21433" lon="-8.62698">
        <ele>80.407470703125</ele>
        <time>2019-04-28T12:02:38Z</time>
      </trkpt>
      <trkpt lat="37.21389" lon="-8.62669">
        <ele>79.926635742188</ele>
        <time>2019-04-28T12:02:53Z</time>
      </trkpt>
      <trkpt lat="37.21365" lon="-8.62631">
        <ele>79.926635742188</ele>
        <time>2019-04-28T12:03:04Z</time>
      </trkpt>
      <trkpt lat="37.2134" lon="-8.62572">
        <ele>79.446044921875</ele>
        <time>2019-04-28T12:03:18Z</time>
      </trkpt>
      <trkpt lat="37.21312" lon="-8.62524">
        <ele>78.965454101562</ele>
        <time>2019-04-28T12:03:31Z</time>
      </trkpt>
      <trkpt lat="37.21273" lon="-8.62483">
        <ele>78.004028320312</ele>
        <time>2019-04-28T12:03:46Z</time>
      </trkpt>
      <trkpt lat="37.21219" lon="-8.62446">
        <ele>78.484741210938</ele>
        <time>2019-04-28T12:04:03Z</time>
      </trkpt>
      <trkpt lat="37.21158" lon="-8.62427">
        <ele>78.484741210938</ele>
        <time>2019-04-28T12:04:19Z</time>
      </trkpt>
      <trkpt lat="37.21133" lon="-8.62396">
        <ele>78.484741210938</ele>
        <time>2019-04-28T12:04:29Z</time>
      </trkpt>
      <trkpt lat="37.21129" lon="-8.62357">
        <ele>78.965454101562</ele>
        <time>2019-04-28T12:04:37Z</time>
      </trkpt>
      <trkpt lat="37.21148" lon="-8.6228">
        <ele>79.926635742188</ele>
        <time>2019-04-28T12:04:55Z</time>
      </trkpt>
      <trkpt lat="37.2118" lon="-8.62244">
        <ele>81.368774414062</ele>
        <time>2019-04-28T12:05:08Z</time>
      </trkpt>
      <trkpt lat="37.21183" lon="-8.62243">
        <ele>81.368774414062</ele>
        <time>2019-04-28T12:05:09Z</time>
      </trkpt>
      <trkpt lat="37.212" lon="-8.62229">
        <ele>82.810791015625</ele>
        <time>2019-04-28T12:05:14Z</time>
      </trkpt>
      <trkpt lat="37.21204" lon="-8.6222">
        <ele>82.810791015625</ele>
        <time>2019-04-28T12:05:17Z</time>
      </trkpt>
      <trkpt lat="37.21191" lon="-8.62179">
        <ele>81.849365234375</ele>
        <time>2019-04-28T12:05:27Z</time>
      </trkpt>
      <trkpt lat="37.21191" lon="-8.62172">
        <ele>81.849365234375</ele>
        <time>2019-04-28T12:05:29Z</time>
      </trkpt>
      <trkpt lat="37.21187" lon="-8.62166">
        <ele>81.368774414062</ele>
        <time>2019-04-28T12:05:34Z</time>
      </trkpt>
      <trkpt lat="37.21168" lon="-8.62179">
        <ele>81.368774414062</ele>
        <time>2019-04-28T12:05:42Z</time>
      </trkpt>
      <trkpt lat="37.21133" lon="-8.62209">
        <ele>78.004028320312</ele>
        <time>2019-04-28T12:05:52Z</time>
      </trkpt>
      <trkpt lat="37.21127" lon="-8.62216">
        <ele>76.562133789062</ele>
        <time>2019-04-28T12:05:55Z</time>
      </trkpt>
      <trkpt lat="37.21127" lon="-8.62216">
        <ele>76.081420898438</ele>
        <time>2019-04-28T12:05:58Z</time>
      </trkpt>
      <trkpt lat="37.21044" lon="-8.62192">
        <ele>76.562133789062</ele>
        <time>2019-04-28T12:06:12Z</time>
      </trkpt>
      <trkpt lat="37.21022" lon="-8.62208">
        <ele>75.120239257812</ele>
        <time>2019-04-28T12:06:19Z</time>
      </trkpt>
      <trkpt lat="37.20978" lon="-8.62225">
        <ele>74.158813476562</ele>
        <time>2019-04-28T12:06:32Z</time>
      </trkpt>
      <trkpt lat="37.20965" lon="-8.62225">
        <ele>73.67822265625</ele>
        <time>2019-04-28T12:06:41Z</time>
      </trkpt>
      <trkpt lat="37.20961" lon="-8.62228">
        <ele>73.197631835938</ele>
        <time>2019-04-28T12:06:54Z</time>
      </trkpt>
      <trkpt lat="37.20957" lon="-8.62234">
        <ele>73.67822265625</ele>
        <time>2019-04-28T12:07:01Z</time>
      </trkpt>
      <trkpt lat="37.20952" lon="-8.62235">
        <ele>73.67822265625</ele>
        <time>2019-04-28T12:07:13Z</time>
      </trkpt>
      <trkpt lat="37.20932" lon="-8.6223">
        <ele>73.67822265625</ele>
        <time>2019-04-28T12:07:29Z</time>
      </trkpt>
      <trkpt lat="37.20898" lon="-8.62214">
        <ele>73.197631835938</ele>
        <time>2019-04-28T12:07:40Z</time>
      </trkpt>
      <trkpt lat="37.20892" lon="-8.62211">
        <ele>72.716918945312</ele>
        <time>2019-04-28T12:07:42Z</time>
      </trkpt>
      <trkpt lat="37.20883" lon="-8.62201">
        <ele>72.236206054688</ele>
        <time>2019-04-28T12:07:46Z</time>
      </trkpt>
      <trkpt lat="37.20863" lon="-8.62175">
        <ele>71.755493164062</ele>
        <time>2019-04-28T12:07:56Z</time>
      </trkpt>
      <trkpt lat="37.20861" lon="-8.62171">
        <ele>71.755493164062</ele>
        <time>2019-04-28T12:07:59Z</time>
      </trkpt>
      <trkpt lat="37.20866" lon="-8.62161">
        <ele>72.236206054688</ele>
        <time>2019-04-28T12:08:09Z</time>
      </trkpt>
      <trkpt lat="37.20861" lon="-8.62152">
        <ele>71.755493164062</ele>
        <time>2019-04-28T12:08:22Z</time>
      </trkpt>
      <trkpt lat="37.20848" lon="-8.6214">
        <ele>72.236206054688</ele>
        <time>2019-04-28T12:08:39Z</time>
      </trkpt>
      <trkpt lat="37.20845" lon="-8.62138">
        <ele>71.755493164062</ele>
        <time>2019-04-28T12:08:40Z</time>
      </trkpt>
      <trkpt lat="37.20837" lon="-8.62103">
        <ele>72.716918945312</ele>
        <time>2019-04-28T12:08:50Z</time>
      </trkpt>
      <trkpt lat="37.2083" lon="-8.62104">
        <ele>71.755493164062</ele>
        <time>2019-04-28T12:08:56Z</time>
      </trkpt>
      <trkpt lat="37.2082" lon="-8.62119">
        <ele>72.236206054688</ele>
        <time>2019-04-28T12:09:02Z</time>
      </trkpt>
      <trkpt lat="37.20767" lon="-8.6212">
        <ele>70.794189453125</ele>
        <time>2019-04-28T12:09:20Z</time>
      </trkpt>
      <trkpt lat="37.20738" lon="-8.62131">
        <ele>70.794189453125</ele>
        <time>2019-04-28T12:09:34Z</time>
      </trkpt>
      <trkpt lat="37.20714" lon="-8.62159">
        <ele>71.27490234375</ele>
        <time>2019-04-28T12:09:50Z</time>
      </trkpt>
      <trkpt lat="37.20706" lon="-8.62199">
        <ele>73.197631835938</ele>
        <time>2019-04-28T12:10:03Z</time>
      </trkpt>
      <trkpt lat="37.20699" lon="-8.62242">
        <ele>73.67822265625</ele>
        <time>2019-04-28T12:10:16Z</time>
      </trkpt>
      <trkpt lat="37.20689" lon="-8.62293">
        <ele>75.600830078125</ele>
        <time>2019-04-28T12:10:32Z</time>
      </trkpt>
      <trkpt lat="37.20682" lon="-8.62309">
        <ele>77.5234375</ele>
        <time>2019-04-28T12:10:38Z</time>
      </trkpt>
      <trkpt lat="37.20654" lon="-8.62357">
        <ele>77.042846679688</ele>
        <time>2019-04-28T12:10:54Z</time>
      </trkpt>
      <trkpt lat="37.2061" lon="-8.62383">
        <ele>74.158813476562</ele>
        <time>2019-04-28T12:11:03Z</time>
      </trkpt>
      <trkpt lat="37.20589" lon="-8.62391">
        <ele>73.67822265625</ele>
        <time>2019-04-28T12:11:07Z</time>
      </trkpt>
      <trkpt lat="37.20562" lon="-8.62392">
        <ele>73.197631835938</ele>
        <time>2019-04-28T12:11:12Z</time>
      </trkpt>
      <trkpt lat="37.20546" lon="-8.62393">
        <ele>72.236206054688</ele>
        <time>2019-04-28T12:11:15Z</time>
      </trkpt>
      <trkpt lat="37.20527" lon="-8.62393">
        <ele>72.236206054688</ele>
        <time>2019-04-28T12:11:19Z</time>
      </trkpt>
      <trkpt lat="37.20518" lon="-8.62391">
        <ele>71.755493164062</ele>
        <time>2019-04-28T12:11:21Z</time>
      </trkpt>
      <trkpt lat="37.2048" lon="-8.62407">
        <ele>71.755493164062</ele>
        <time>2019-04-28T12:11:31Z</time>
      </trkpt>
      <trkpt lat="37.20462" lon="-8.62418">
        <ele>73.197631835938</ele>
        <time>2019-04-28T12:11:36Z</time>
      </trkpt>
      <trkpt lat="37.20418" lon="-8.62417">
        <ele>70.794189453125</ele>
        <time>2019-04-28T12:11:47Z</time>
      </trkpt>
      <trkpt lat="37.20408" lon="-8.62425">
        <ele>70.794189453125</ele>
        <time>2019-04-28T12:11:50Z</time>
      </trkpt>
      <trkpt lat="37.20355" lon="-8.62435">
        <ele>70.794189453125</ele>
        <time>2019-04-28T12:12:03Z</time>
      </trkpt>
      <trkpt lat="37.20294" lon="-8.62446">
        <ele>74.158813476562</ele>
        <time>2019-04-28T12:12:20Z</time>
      </trkpt>
      <trkpt lat="37.20288" lon="-8.62436">
        <ele>75.120239257812</ele>
        <time>2019-04-28T12:12:23Z</time>
      </trkpt>
      <trkpt lat="37.20256" lon="-8.62363">
        <ele>75.600830078125</ele>
        <time>2019-04-28T12:12:41Z</time>
      </trkpt>
      <trkpt lat="37.20227" lon="-8.62299">
        <ele>75.600830078125</ele>
        <time>2019-04-28T12:12:58Z</time>
      </trkpt>
      <trkpt lat="37.20227" lon="-8.62294">
        <ele>74.639526367188</ele>
        <time>2019-04-28T12:13:12Z</time>
      </trkpt>
      <trkpt lat="37.20227" lon="-8.62295">
        <ele>74.639526367188</ele>
        <time>2019-04-28T12:13:27Z</time>
      </trkpt>
      <trkpt lat="37.20212" lon="-8.62284">
        <ele>73.67822265625</ele>
        <time>2019-04-28T12:13:33Z</time>
      </trkpt>
      <trkpt lat="37.20202" lon="-8.6228">
        <ele>71.755493164062</ele>
        <time>2019-04-28T12:13:35Z</time>
      </trkpt>
      <trkpt lat="37.20182" lon="-8.62278">
        <ele>67.910278320312</ele>
        <time>2019-04-28T12:13:38Z</time>
      </trkpt>
      <trkpt lat="37.20155" lon="-8.6227">
        <ele>67.4296875</ele>
        <time>2019-04-28T12:13:42Z</time>
      </trkpt>
      <trkpt lat="37.20135" lon="-8.62212">
        <ele>66.948974609375</ele>
        <time>2019-04-28T12:13:44Z</time>
      </trkpt>
      <trkpt lat="37.20112" lon="-8.62216">
        <ele>63.103637695312</ele>
        <time>2019-04-28T12:13:49Z</time>
      </trkpt>
      <trkpt lat="37.20092" lon="-8.62213">
        <ele>57.816528320312</ele>
        <time>2019-04-28T12:13:54Z</time>
      </trkpt>
      <trkpt lat="37.20072" lon="-8.62198">
        <ele>59.739135742188</ele>
        <time>2019-04-28T12:14:00Z</time>
      </trkpt>
      <trkpt lat="37.20045" lon="-8.62176">
        <ele>59.739135742188</ele>
        <time>2019-04-28T12:14:14Z</time>
      </trkpt>
      <trkpt lat="37.20029" lon="-8.62166">
        <ele>58.777709960938</ele>
        <time>2019-04-28T12:14:18Z</time>
      </trkpt>
      <trkpt lat="37.2002" lon="-8.62165">
        <ele>57.816528320312</ele>
        <time>2019-04-28T12:14:20Z</time>
      </trkpt>
      <trkpt lat="37.20007" lon="-8.62166">
        <ele>56.855102539062</ele>
        <time>2019-04-28T12:14:22Z</time>
      </trkpt>
      <trkpt lat="37.19995" lon="-8.62167">
        <ele>55.893798828125</ele>
        <time>2019-04-28T12:14:24Z</time>
      </trkpt>
      <trkpt lat="37.1998" lon="-8.62173">
        <ele>53.009765625</ele>
        <time>2019-04-28T12:14:28Z</time>
      </trkpt>
      <trkpt lat="37.19977" lon="-8.62176">
        <ele>52.048583984375</ele>
        <time>2019-04-28T12:14:30Z</time>
      </trkpt>
      <trkpt lat="37.19945" lon="-8.62194">
        <ele>53.97119140625</ele>
        <time>2019-04-28T12:14:41Z</time>
      </trkpt>
      <trkpt lat="37.19924" lon="-8.62188">
        <ele>52.048583984375</ele>
        <time>2019-04-28T12:14:52Z</time>
      </trkpt>
      <trkpt lat="37.19889" lon="-8.62194">
        <ele>53.009765625</ele>
        <time>2019-04-28T12:15:04Z</time>
      </trkpt>
      <trkpt lat="37.19865" lon="-8.62185">
        <ele>53.490478515625</ele>
        <time>2019-04-28T12:15:16Z</time>
      </trkpt>
      <trkpt lat="37.19841" lon="-8.62167">
        <ele>53.490478515625</ele>
        <time>2019-04-28T12:15:24Z</time>
      </trkpt>
      <trkpt lat="37.19829" lon="-8.62147">
        <ele>53.009765625</ele>
        <time>2019-04-28T12:15:29Z</time>
      </trkpt>
      <trkpt lat="37.19819" lon="-8.62128">
        <ele>52.529174804688</ele>
        <time>2019-04-28T12:15:33Z</time>
      </trkpt>
      <trkpt lat="37.19808" lon="-8.62106">
        <ele>52.529174804688</ele>
        <time>2019-04-28T12:15:38Z</time>
      </trkpt>
      <trkpt lat="37.19802" lon="-8.6208">
        <ele>52.529174804688</ele>
        <time>2019-04-28T12:15:43Z</time>
      </trkpt>
      <trkpt lat="37.19802" lon="-8.62064">
        <ele>52.529174804688</ele>
        <time>2019-04-28T12:15:46Z</time>
      </trkpt>
      <trkpt lat="37.19824" lon="-8.62001">
        <ele>50.606567382812</ele>
        <time>2019-04-28T12:15:57Z</time>
      </trkpt>
      <trkpt lat="37.19809" lon="-8.6195">
        <ele>50.606567382812</ele>
        <time>2019-04-28T12:16:06Z</time>
      </trkpt>
      <trkpt lat="37.19792" lon="-8.61938">
        <ele>49.645263671875</ele>
        <time>2019-04-28T12:16:10Z</time>
      </trkpt>
      <trkpt lat="37.19778" lon="-8.61931">
        <ele>50.606567382812</ele>
        <time>2019-04-28T12:16:13Z</time>
      </trkpt>
      <trkpt lat="37.19755" lon="-8.61884">
        <ele>50.1259765625</ele>
        <time>2019-04-28T12:16:23Z</time>
      </trkpt>
      <trkpt lat="37.19763" lon="-8.61855">
        <ele>48.683959960938</ele>
        <time>2019-04-28T12:16:29Z</time>
      </trkpt>
      <trkpt lat="37.1977" lon="-8.61845">
        <ele>47.722534179688</ele>
        <time>2019-04-28T12:16:31Z</time>
      </trkpt>
      <trkpt lat="37.19804" lon="-8.61817">
        <ele>49.16455078125</ele>
        <time>2019-04-28T12:16:40Z</time>
      </trkpt>
      <trkpt lat="37.19838" lon="-8.61825">
        <ele>46.280639648438</ele>
        <time>2019-04-28T12:16:47Z</time>
      </trkpt>
      <trkpt lat="37.19878" lon="-8.61839">
        <ele>45.319213867188</ele>
        <time>2019-04-28T12:16:55Z</time>
      </trkpt>
      <trkpt lat="37.19898" lon="-8.61854">
        <ele>44.838623046875</ele>
        <time>2019-04-28T12:17:00Z</time>
      </trkpt>
      <trkpt lat="37.19912" lon="-8.6186">
        <ele>44.358032226562</ele>
        <time>2019-04-28T12:17:03Z</time>
      </trkpt>
      <trkpt lat="37.1996" lon="-8.61865">
        <ele>45.319213867188</ele>
        <time>2019-04-28T12:17:14Z</time>
      </trkpt>
      <trkpt lat="37.19965" lon="-8.61858">
        <ele>46.280639648438</ele>
        <time>2019-04-28T12:17:16Z</time>
      </trkpt>
      <trkpt lat="37.19979" lon="-8.61798">
        <ele>49.645263671875</ele>
        <time>2019-04-28T12:17:31Z</time>
      </trkpt>
      <trkpt lat="37.19978" lon="-8.61794">
        <ele>49.645263671875</ele>
        <time>2019-04-28T12:17:32Z</time>
      </trkpt>
      <trkpt lat="37.19965" lon="-8.61767">
        <ele>50.1259765625</ele>
        <time>2019-04-28T12:17:39Z</time>
      </trkpt>
      <trkpt lat="37.19955" lon="-8.61755">
        <ele>49.16455078125</ele>
        <time>2019-04-28T12:17:42Z</time>
      </trkpt>
      <trkpt lat="37.19933" lon="-8.61742">
        <ele>45.319213867188</ele>
        <time>2019-04-28T12:17:46Z</time>
      </trkpt>
      <trkpt lat="37.19926" lon="-8.6174">
        <ele>44.358032226562</ele>
        <time>2019-04-28T12:17:47Z</time>
      </trkpt>
      <trkpt lat="37.1991" lon="-8.61738">
        <ele>42.435424804688</ele>
        <time>2019-04-28T12:17:49Z</time>
      </trkpt>
      <trkpt lat="37.19894" lon="-8.61738">
        <ele>41.473999023438</ele>
        <time>2019-04-28T12:17:51Z</time>
      </trkpt>
      <trkpt lat="37.1987" lon="-8.61742">
        <ele>40.993408203125</ele>
        <time>2019-04-28T12:17:54Z</time>
      </trkpt>
      <trkpt lat="37.19848" lon="-8.61742">
        <ele>40.032104492188</ele>
        <time>2019-04-28T12:17:57Z</time>
      </trkpt>
      <trkpt lat="37.19819" lon="-8.61735">
        <ele>40.032104492188</ele>
        <time>2019-04-28T12:18:02Z</time>
      </trkpt>
      <trkpt lat="37.19808" lon="-8.6173">
        <ele>39.55126953125</ele>
        <time>2019-04-28T12:18:05Z</time>
      </trkpt>
      <trkpt lat="37.19768" lon="-8.61721">
        <ele>40.993408203125</ele>
        <time>2019-04-28T12:18:17Z</time>
      </trkpt>
      <trkpt lat="37.19762" lon="-8.61717">
        <ele>40.512817382812</ele>
        <time>2019-04-28T12:18:19Z</time>
      </trkpt>
      <trkpt lat="37.19738" lon="-8.6171">
        <ele>40.993408203125</ele>
        <time>2019-04-28T12:18:29Z</time>
      </trkpt>
      <trkpt lat="37.19726" lon="-8.61709">
        <ele>40.032104492188</ele>
        <time>2019-04-28T12:18:40Z</time>
      </trkpt>
      <trkpt lat="37.19726" lon="-8.61708">
        <ele>40.032104492188</ele>
        <time>2019-04-28T12:18:53Z</time>
      </trkpt>
      <trkpt lat="37.19713" lon="-8.61702">
        <ele>39.55126953125</ele>
        <time>2019-04-28T12:18:59Z</time>
      </trkpt>
      <trkpt lat="37.19707" lon="-8.61694">
        <ele>39.070678710938</ele>
        <time>2019-04-28T12:19:01Z</time>
      </trkpt>
      <trkpt lat="37.19689" lon="-8.61686">
        <ele>38.590087890625</ele>
        <time>2019-04-28T12:19:05Z</time>
      </trkpt>
      <trkpt lat="37.19647" lon="-8.61671">
        <ele>38.109375</ele>
        <time>2019-04-28T12:19:15Z</time>
      </trkpt>
      <trkpt lat="37.19637" lon="-8.61656">
        <ele>38.590087890625</ele>
        <time>2019-04-28T12:19:19Z</time>
      </trkpt>
      <trkpt lat="37.19622" lon="-8.61629">
        <ele>38.109375</ele>
        <time>2019-04-28T12:19:25Z</time>
      </trkpt>
      <trkpt lat="37.19615" lon="-8.61624">
        <ele>38.590087890625</ele>
        <time>2019-04-28T12:19:27Z</time>
      </trkpt>
      <trkpt lat="37.19598" lon="-8.61608">
        <ele>39.070678710938</ele>
        <time>2019-04-28T12:19:32Z</time>
      </trkpt>
      <trkpt lat="37.19555" lon="-8.6158">
        <ele>40.032104492188</ele>
        <time>2019-04-28T12:19:45Z</time>
      </trkpt>
      <trkpt lat="37.19547" lon="-8.61578">
        <ele>39.55126953125</ele>
        <time>2019-04-28T12:19:47Z</time>
      </trkpt>
      <trkpt lat="37.19479" lon="-8.61542">
        <ele>37.628662109375</ele>
        <time>2019-04-28T12:20:01Z</time>
      </trkpt>
      <trkpt lat="37.19474" lon="-8.61538">
        <ele>37.148071289062</ele>
        <time>2019-04-28T12:20:02Z</time>
      </trkpt>
      <trkpt lat="37.19438" lon="-8.61501">
        <ele>36.186767578125</ele>
        <time>2019-04-28T12:20:10Z</time>
      </trkpt>
      <trkpt lat="37.19407" lon="-8.61481">
        <ele>34.744873046875</ele>
        <time>2019-04-28T12:20:18Z</time>
      </trkpt>
      <trkpt lat="37.19395" lon="-8.61464">
        <ele>34.26416015625</ele>
        <time>2019-04-28T12:20:22Z</time>
      </trkpt>
      <trkpt lat="37.19381" lon="-8.61446">
        <ele>35.7060546875</ele>
        <time>2019-04-28T12:20:27Z</time>
      </trkpt>
      <trkpt lat="37.19353" lon="-8.614">
        <ele>36.66748046875</ele>
        <time>2019-04-28T12:20:40Z</time>
      </trkpt>
      <trkpt lat="37.1933" lon="-8.61345">
        <ele>39.55126953125</ele>
        <time>2019-04-28T12:20:54Z</time>
      </trkpt>
      <trkpt lat="37.19328" lon="-8.61338">
        <ele>40.512817382812</ele>
        <time>2019-04-28T12:20:56Z</time>
      </trkpt>
      <trkpt lat="37.1929" lon="-8.61315">
        <ele>40.032104492188</ele>
        <time>2019-04-28T12:21:07Z</time>
      </trkpt>
      <trkpt lat="37.19279" lon="-8.61314">
        <ele>40.993408203125</ele>
        <time>2019-04-28T12:21:10Z</time>
      </trkpt>
      <trkpt lat="37.19252" lon="-8.61313">
        <ele>41.473999023438</ele>
        <time>2019-04-28T12:21:16Z</time>
      </trkpt>
      <trkpt lat="37.19246" lon="-8.61313">
        <ele>42.916015625</ele>
        <time>2019-04-28T12:21:18Z</time>
      </trkpt>
      <trkpt lat="37.19241" lon="-8.61309">
        <ele>40.993408203125</ele>
        <time>2019-04-28T12:21:20Z</time>
      </trkpt>
      <trkpt lat="37.19206" lon="-8.61309">
        <ele>37.628662109375</ele>
        <time>2019-04-28T12:21:27Z</time>
      </trkpt>
      <trkpt lat="37.19142" lon="-8.61279">
        <ele>36.186767578125</ele>
        <time>2019-04-28T12:21:32Z</time>
      </trkpt>
      <trkpt lat="37.19127" lon="-8.613">
        <ele>33.783447265625</ele>
        <time>2019-04-28T12:21:37Z</time>
      </trkpt>
      <trkpt lat="37.19122" lon="-8.61306">
        <ele>33.302856445312</ele>
        <time>2019-04-28T12:21:39Z</time>
      </trkpt>
      <trkpt lat="37.19107" lon="-8.61323">
        <ele>29.938110351562</ele>
        <time>2019-04-28T12:21:43Z</time>
      </trkpt>
      <trkpt lat="37.19104" lon="-8.61324">
        <ele>30.418823242188</ele>
        <time>2019-04-28T12:21:44Z</time>
      </trkpt>
      <trkpt lat="37.19102" lon="-8.61326">
        <ele>30.899536132812</ele>
        <time>2019-04-28T12:21:45Z</time>
      </trkpt>
      <trkpt lat="37.19096" lon="-8.61328">
        <ele>29.45751953125</ele>
        <time>2019-04-28T12:21:54Z</time>
      </trkpt>
      <trkpt lat="37.19096" lon="-8.61328">
        <ele>28.976928710938</ele>
        <time>2019-04-28T12:22:29Z</time>
      </trkpt>
      <trkpt lat="37.19096" lon="-8.61328">
        <ele>28.976928710938</ele>
        <time>2019-04-28T12:23:01Z</time>
      </trkpt>
      <trkpt lat="37.19088" lon="-8.61332">
        <ele>29.938110351562</ele>
        <time>2019-04-28T12:23:05Z</time>
      </trkpt>
      <trkpt lat="37.19047" lon="-8.61367">
        <ele>31.380126953125</ele>
        <time>2019-04-28T12:23:20Z</time>
      </trkpt>
      <trkpt lat="37.19003" lon="-8.61423">
        <ele>32.341552734375</ele>
        <time>2019-04-28T12:23:35Z</time>
      </trkpt>
      <trkpt lat="37.18949" lon="-8.61494">
        <ele>34.744873046875</ele>
        <time>2019-04-28T12:23:54Z</time>
      </trkpt>
      <trkpt lat="37.18915" lon="-8.61557">
        <ele>37.148071289062</ele>
        <time>2019-04-28T12:24:11Z</time>
      </trkpt>
      <trkpt lat="37.18883" lon="-8.6164">
        <ele>38.109375</ele>
        <time>2019-04-28T12:24:30Z</time>
      </trkpt>
      <trkpt lat="37.18866" lon="-8.61693">
        <ele>37.628662109375</ele>
        <time>2019-04-28T12:24:41Z</time>
      </trkpt>
      <trkpt lat="37.18868" lon="-8.6172">
        <ele>38.109375</ele>
        <time>2019-04-28T12:24:46Z</time>
      </trkpt>
      <trkpt lat="37.18872" lon="-8.61735">
        <ele>37.628662109375</ele>
        <time>2019-04-28T12:24:49Z</time>
      </trkpt>
      <trkpt lat="37.18853" lon="-8.61751">
        <ele>37.148071289062</ele>
        <time>2019-04-28T12:24:55Z</time>
      </trkpt>
      <trkpt lat="37.18819" lon="-8.6175">
        <ele>37.148071289062</ele>
        <time>2019-04-28T12:25:02Z</time>
      </trkpt>
      <trkpt lat="37.18777" lon="-8.61784">
        <ele>40.512817382812</ele>
        <time>2019-04-28T12:25:15Z</time>
      </trkpt>
      <trkpt lat="37.18754" lon="-8.61808">
        <ele>44.358032226562</ele>
        <time>2019-04-28T12:25:25Z</time>
      </trkpt>
      <trkpt lat="37.18734" lon="-8.61827">
        <ele>46.76123046875</ele>
        <time>2019-04-28T12:25:34Z</time>
      </trkpt>
      <trkpt lat="37.1871" lon="-8.61841">
        <ele>50.606567382812</ele>
        <time>2019-04-28T12:25:44Z</time>
      </trkpt>
      <trkpt lat="37.18707" lon="-8.61843">
        <ele>50.606567382812</ele>
        <time>2019-04-28T12:25:45Z</time>
      </trkpt>
      <trkpt lat="37.18699" lon="-8.61847">
        <ele>52.048583984375</ele>
        <time>2019-04-28T12:25:48Z</time>
      </trkpt>
      <trkpt lat="37.18671" lon="-8.61862">
        <ele>54.932373046875</ele>
        <time>2019-04-28T12:25:59Z</time>
      </trkpt>
      <trkpt lat="37.18631" lon="-8.61887">
        <ele>56.37451171875</ele>
        <time>2019-04-28T12:26:18Z</time>
      </trkpt>
      <trkpt lat="37.18592" lon="-8.61922">
        <ele>55.893798828125</ele>
        <time>2019-04-28T12:26:37Z</time>
      </trkpt>
      <trkpt lat="37.1857" lon="-8.61971">
        <ele>53.009765625</ele>
        <time>2019-04-28T12:26:52Z</time>
      </trkpt>
      <trkpt lat="37.18566" lon="-8.61977">
        <ele>51.56787109375</ele>
        <time>2019-04-28T12:26:54Z</time>
      </trkpt>
      <trkpt lat="37.18557" lon="-8.61991">
        <ele>50.606567382812</ele>
        <time>2019-04-28T12:26:58Z</time>
      </trkpt>
      <trkpt lat="37.18546" lon="-8.62004">
        <ele>49.645263671875</ele>
        <time>2019-04-28T12:27:01Z</time>
      </trkpt>
      <trkpt lat="37.18513" lon="-8.62046">
        <ele>45.319213867188</ele>
        <time>2019-04-28T12:27:07Z</time>
      </trkpt>
      <trkpt lat="37.18506" lon="-8.62056">
        <ele>44.838623046875</ele>
        <time>2019-04-28T12:27:08Z</time>
      </trkpt>
      <trkpt lat="37.18484" lon="-8.62089">
        <ele>41.954711914062</ele>
        <time>2019-04-28T12:27:11Z</time>
      </trkpt>
      <trkpt lat="37.18469" lon="-8.62112">
        <ele>39.070678710938</ele>
        <time>2019-04-28T12:27:14Z</time>
      </trkpt>
      <trkpt lat="37.18461" lon="-8.62118">
        <ele>37.628662109375</ele>
        <time>2019-04-28T12:27:17Z</time>
      </trkpt>
      <trkpt lat="37.18457" lon="-8.62112">
        <ele>36.66748046875</ele>
        <time>2019-04-28T12:27:21Z</time>
      </trkpt>
      <trkpt lat="37.1845" lon="-8.62092">
        <ele>33.783447265625</ele>
        <time>2019-04-28T12:27:37Z</time>
      </trkpt>
      <trkpt lat="37.18434" lon="-8.62072">
        <ele>33.302856445312</ele>
        <time>2019-04-28T12:28:41Z</time>
      </trkpt>
      <trkpt lat="37.18387" lon="-8.62006">
        <ele>30.899536132812</ele>
        <time>2019-04-28T12:28:55Z</time>
      </trkpt>
      <trkpt lat="37.18325" lon="-8.61909">
        <ele>28.496215820312</ele>
        <time>2019-04-28T12:29:12Z</time>
      </trkpt>
      <trkpt lat="37.18321" lon="-8.61904">
        <ele>28.015502929688</ele>
        <time>2019-04-28T12:29:13Z</time>
      </trkpt>
      <trkpt lat="37.1827" lon="-8.61847">
        <ele>27.534912109375</ele>
        <time>2019-04-28T12:29:27Z</time>
      </trkpt>
      <trkpt lat="37.18261" lon="-8.61839">
        <ele>27.054321289062</ele>
        <time>2019-04-28T12:29:29Z</time>
      </trkpt>
      <trkpt lat="37.18248" lon="-8.6182">
        <ele>26.573608398438</ele>
        <time>2019-04-28T12:29:33Z</time>
      </trkpt>
      <trkpt lat="37.18186" lon="-8.61746">
        <ele>25.131713867188</ele>
        <time>2019-04-28T12:29:50Z</time>
      </trkpt>
      <trkpt lat="37.18175" lon="-8.61732">
        <ele>24.651000976562</ele>
        <time>2019-04-28T12:29:53Z</time>
      </trkpt>
      <trkpt lat="37.18157" lon="-8.61714">
        <ele>24.651000976562</ele>
        <time>2019-04-28T12:29:58Z</time>
      </trkpt>
      <trkpt lat="37.18093" lon="-8.61648">
        <ele>23.689575195312</ele>
        <time>2019-04-28T12:30:15Z</time>
      </trkpt>
      <trkpt lat="37.18089" lon="-8.61645">
        <ele>23.208984375</ele>
        <time>2019-04-28T12:30:16Z</time>
      </trkpt>
      <trkpt lat="37.18006" lon="-8.61613">
        <ele>22.728271484375</ele>
        <time>2019-04-28T12:30:32Z</time>
      </trkpt>
      <trkpt lat="37.17999" lon="-8.61595">
        <ele>22.728271484375</ele>
        <time>2019-04-28T12:30:36Z</time>
      </trkpt>
      <trkpt lat="37.17981" lon="-8.61572">
        <ele>22.24755859375</ele>
        <time>2019-04-28T12:30:42Z</time>
      </trkpt>
      <trkpt lat="37.17975" lon="-8.61557">
        <ele>21.766967773438</ele>
        <time>2019-04-28T12:30:45Z</time>
      </trkpt>
      <trkpt lat="37.17971" lon="-8.61531">
        <ele>21.286376953125</ele>
        <time>2019-04-28T12:30:50Z</time>
      </trkpt>
      <trkpt lat="37.17958" lon="-8.61412">
        <ele>20.324951171875</ele>
        <time>2019-04-28T12:31:09Z</time>
      </trkpt>
      <trkpt lat="37.17946" lon="-8.61363">
        <ele>18.883056640625</ele>
        <time>2019-04-28T12:31:17Z</time>
      </trkpt>
      <trkpt lat="37.17919" lon="-8.61313">
        <ele>18.883056640625</ele>
        <time>2019-04-28T12:31:27Z</time>
      </trkpt>
      <trkpt lat="37.17878" lon="-8.61238">
        <ele>18.40234375</ele>
        <time>2019-04-28T12:31:42Z</time>
      </trkpt>
      <trkpt lat="37.17851" lon="-8.61189">
        <ele>17.921752929688</ele>
        <time>2019-04-28T12:31:52Z</time>
      </trkpt>
      <trkpt lat="37.17834" lon="-8.61184">
        <ele>18.40234375</ele>
        <time>2019-04-28T12:31:56Z</time>
      </trkpt>
      <trkpt lat="37.17726" lon="-8.61207">
        <ele>17.441162109375</ele>
        <time>2019-04-28T12:32:17Z</time>
      </trkpt>
      <trkpt lat="37.1764" lon="-8.61225">
        <ele>17.921752929688</ele>
        <time>2019-04-28T12:32:36Z</time>
      </trkpt>
      <trkpt lat="37.17549" lon="-8.61229">
        <ele>16.96044921875</ele>
        <time>2019-04-28T12:32:56Z</time>
      </trkpt>
      <trkpt lat="37.17477" lon="-8.61236">
        <ele>16.96044921875</ele>
        <time>2019-04-28T12:33:12Z</time>
      </trkpt>
      <trkpt lat="37.17402" lon="-8.61255">
        <ele>16.96044921875</ele>
        <time>2019-04-28T12:33:28Z</time>
      </trkpt>
      <trkpt lat="37.17304" lon="-8.61265">
        <ele>15.037719726562</ele>
        <time>2019-04-28T12:33:50Z</time>
      </trkpt>
      <trkpt lat="37.17232" lon="-8.61272">
        <ele>15.518432617188</ele>
        <time>2019-04-28T12:34:06Z</time>
      </trkpt>
      <trkpt lat="37.17215" lon="-8.61271">
        <ele>15.9990234375</ele>
        <time>2019-04-28T12:34:10Z</time>
      </trkpt>
      <trkpt lat="37.17111" lon="-8.61198">
        <ele>15.037719726562</ele>
        <time>2019-04-28T12:34:35Z</time>
      </trkpt>
      <trkpt lat="37.17087" lon="-8.61182">
        <ele>14.557006835938</ele>
        <time>2019-04-28T12:34:41Z</time>
      </trkpt>
      <trkpt lat="37.17079" lon="-8.61177">
        <ele>15.518432617188</ele>
        <time>2019-04-28T12:34:43Z</time>
      </trkpt>
      <trkpt lat="37.17002" lon="-8.61126">
        <ele>13.595825195312</ele>
        <time>2019-04-28T12:35:02Z</time>
      </trkpt>
      <trkpt lat="37.16917" lon="-8.61096">
        <ele>13.595825195312</ele>
        <time>2019-04-28T12:35:20Z</time>
      </trkpt>
      <trkpt lat="37.16811" lon="-8.61085">
        <ele>14.076416015625</ele>
        <time>2019-04-28T12:35:40Z</time>
      </trkpt>
      <trkpt lat="37.16711" lon="-8.61071">
        <ele>16.96044921875</ele>
        <time>2019-04-28T12:36:01Z</time>
      </trkpt>
      <trkpt lat="37.16659" lon="-8.61062">
        <ele>18.883056640625</ele>
        <time>2019-04-28T12:36:12Z</time>
      </trkpt>
      <trkpt lat="37.16583" lon="-8.61061">
        <ele>22.24755859375</ele>
        <time>2019-04-28T12:36:28Z</time>
      </trkpt>
      <trkpt lat="37.16564" lon="-8.61063">
        <ele>25.131713867188</ele>
        <time>2019-04-28T12:36:32Z</time>
      </trkpt>
      <trkpt lat="37.16505" lon="-8.61072">
        <ele>28.015502929688</ele>
        <time>2019-04-28T12:36:46Z</time>
      </trkpt>
      <trkpt lat="37.16472" lon="-8.61056">
        <ele>27.534912109375</ele>
        <time>2019-04-28T12:36:59Z</time>
      </trkpt>
      <trkpt lat="37.16455" lon="-8.61037">
        <ele>23.689575195312</ele>
        <time>2019-04-28T12:37:10Z</time>
      </trkpt>
      <trkpt lat="37.16426" lon="-8.61003">
        <ele>20.8056640625</ele>
        <time>2019-04-28T12:37:18Z</time>
      </trkpt>
      <trkpt lat="37.16424" lon="-8.61">
        <ele>20.324951171875</ele>
        <time>2019-04-28T12:37:20Z</time>
      </trkpt>
      <trkpt lat="37.16434" lon="-8.60977">
        <ele>18.883056640625</ele>
        <time>2019-04-28T12:37:23Z</time>
      </trkpt>
      <trkpt lat="37.16437" lon="-8.6097">
        <ele>17.921752929688</ele>
        <time>2019-04-28T12:37:24Z</time>
      </trkpt>
      <trkpt lat="37.16446" lon="-8.60948">
        <ele>16.479736328125</ele>
        <time>2019-04-28T12:37:27Z</time>
      </trkpt>
      <trkpt lat="37.16461" lon="-8.60914">
        <ele>14.076416015625</ele>
        <time>2019-04-28T12:37:31Z</time>
      </trkpt>
      <trkpt lat="37.16513" lon="-8.60785">
        <ele>13.115112304688</ele>
        <time>2019-04-28T12:37:46Z</time>
      </trkpt>
      <trkpt lat="37.16532" lon="-8.60736">
        <ele>12.634399414062</ele>
        <time>2019-04-28T12:37:53Z</time>
      </trkpt>
      <trkpt lat="37.16543" lon="-8.60715">
        <ele>12.15380859375</ele>
        <time>2019-04-28T12:37:57Z</time>
      </trkpt>
      <trkpt lat="37.16539" lon="-8.60683">
        <ele>13.115112304688</ele>
        <time>2019-04-28T12:38:04Z</time>
      </trkpt>
      <trkpt lat="37.16508" lon="-8.60604">
        <ele>14.076416015625</ele>
        <time>2019-04-28T12:38:21Z</time>
      </trkpt>
      <trkpt lat="37.1648" lon="-8.60522">
        <ele>13.595825195312</ele>
        <time>2019-04-28T12:38:36Z</time>
      </trkpt>
      <trkpt lat="37.16421" lon="-8.60453">
        <ele>14.076416015625</ele>
        <time>2019-04-28T12:38:53Z</time>
      </trkpt>
      <trkpt lat="37.16353" lon="-8.60383">
        <ele>16.96044921875</ele>
        <time>2019-04-28T12:39:13Z</time>
      </trkpt>
      <trkpt lat="37.16342" lon="-8.60369">
        <ele>18.40234375</ele>
        <time>2019-04-28T12:39:17Z</time>
      </trkpt>
      <trkpt lat="37.16338" lon="-8.6036">
        <ele>20.324951171875</ele>
        <time>2019-04-28T12:39:19Z</time>
      </trkpt>
      <trkpt lat="37.16313" lon="-8.6031">
        <ele>23.208984375</ele>
        <time>2019-04-28T12:39:31Z</time>
      </trkpt>
      <trkpt lat="37.16309" lon="-8.60301">
        <ele>24.170288085938</ele>
        <time>2019-04-28T12:39:33Z</time>
      </trkpt>
      <trkpt lat="37.163" lon="-8.60282">
        <ele>26.092895507812</ele>
        <time>2019-04-28T12:39:37Z</time>
      </trkpt>
      <trkpt lat="37.16276" lon="-8.6023">
        <ele>28.976928710938</ele>
        <time>2019-04-28T12:39:48Z</time>
      </trkpt>
      <trkpt lat="37.16272" lon="-8.60196">
        <ele>29.45751953125</ele>
        <time>2019-04-28T12:39:57Z</time>
      </trkpt>
      <trkpt lat="37.16271" lon="-8.60193">
        <ele>28.496215820312</ele>
        <time>2019-04-28T12:40:03Z</time>
      </trkpt>
      <trkpt lat="37.16221" lon="-8.60201">
        <ele>25.6123046875</ele>
        <time>2019-04-28T12:40:15Z</time>
      </trkpt>
      <trkpt lat="37.16177" lon="-8.60207">
        <ele>21.286376953125</ele>
        <time>2019-04-28T12:40:21Z</time>
      </trkpt>
      <trkpt lat="37.1616" lon="-8.60207">
        <ele>19.844360351562</ele>
        <time>2019-04-28T12:40:23Z</time>
      </trkpt>
      <trkpt lat="37.16135" lon="-8.60193">
        <ele>15.037719726562</ele>
        <time>2019-04-28T12:40:27Z</time>
      </trkpt>
      <trkpt lat="37.16133" lon="-8.60157">
        <ele>16.479736328125</ele>
        <time>2019-04-28T12:40:32Z</time>
      </trkpt>
      <trkpt lat="37.16125" lon="-8.60133">
        <ele>18.40234375</ele>
        <time>2019-04-28T12:40:36Z</time>
      </trkpt>
      <trkpt lat="37.16107" lon="-8.60093">
        <ele>21.766967773438</ele>
        <time>2019-04-28T12:40:46Z</time>
      </trkpt>
      <trkpt lat="37.16105" lon="-8.60084">
        <ele>22.24755859375</ele>
        <time>2019-04-28T12:40:48Z</time>
      </trkpt>
      <trkpt lat="37.16098" lon="-8.60059">
        <ele>23.208984375</ele>
        <time>2019-04-28T12:40:56Z</time>
      </trkpt>
      <trkpt lat="37.16039" lon="-8.60093">
        <ele>23.689575195312</ele>
        <time>2019-04-28T12:41:09Z</time>
      </trkpt>
      <trkpt lat="37.16027" lon="-8.60105">
        <ele>24.170288085938</ele>
        <time>2019-04-28T12:41:14Z</time>
      </trkpt>
      <trkpt lat="37.16011" lon="-8.60088">
        <ele>24.170288085938</ele>
        <time>2019-04-28T12:41:22Z</time>
      </trkpt>
      <trkpt lat="37.15993" lon="-8.60096">
        <ele>23.208984375</ele>
        <time>2019-04-28T12:41:31Z</time>
      </trkpt>
      <trkpt lat="37.15992" lon="-8.60097">
        <ele>23.208984375</ele>
        <time>2019-04-28T12:41:32Z</time>
      </trkpt>
      <trkpt lat="37.1599" lon="-8.601">
        <ele>23.208984375</ele>
        <time>2019-04-28T12:41:36Z</time>
      </trkpt>
      <trkpt lat="37.16018" lon="-8.60072">
        <ele>20.324951171875</ele>
        <time>2019-04-28T12:41:44Z</time>
      </trkpt>
      <trkpt lat="37.16027" lon="-8.60064">
        <ele>19.844360351562</ele>
        <time>2019-04-28T12:41:47Z</time>
      </trkpt>
      <trkpt lat="37.16041" lon="-8.60073">
        <ele>19.844360351562</ele>
        <time>2019-04-28T12:41:52Z</time>
      </trkpt>
      <trkpt lat="37.16079" lon="-8.60039">
        <ele>21.766967773438</ele>
        <time>2019-04-28T12:42:04Z</time>
      </trkpt>
      <trkpt lat="37.16072" lon="-8.60015">
        <ele>20.8056640625</ele>
        <time>2019-04-28T12:42:10Z</time>
      </trkpt>
      <trkpt lat="37.16044" lon="-8.59997">
        <ele>17.921752929688</ele>
        <time>2019-04-28T12:42:15Z</time>
      </trkpt>
      <trkpt lat="37.16042" lon="-8.59996">
        <ele>15.9990234375</ele>
        <time>2019-04-28T12:42:24Z</time>
      </trkpt>
      <trkpt lat="37.16042" lon="-8.59996">
        <ele>15.9990234375</ele>
        <time>2019-04-28T12:43:04Z</time>
      </trkpt>
      <trkpt lat="37.16042" lon="-8.59996">
        <ele>15.9990234375</ele>
        <time>2019-04-28T12:43:55Z</time>
      </trkpt>
      <trkpt lat="37.16042" lon="-8.59996">
        <ele>15.037719726562</ele>
        <time>2019-04-28T12:44:46Z</time>
      </trkpt>
      <trkpt lat="37.16044" lon="-8.59936">
        <ele>16.479736328125</ele>
        <time>2019-04-28T12:44:59Z</time>
      </trkpt>
      <trkpt lat="37.16068" lon="-8.59876">
        <ele>16.96044921875</ele>
        <time>2019-04-28T12:45:14Z</time>
      </trkpt>
      <trkpt lat="37.16094" lon="-8.59811">
        <ele>18.40234375</ele>
        <time>2019-04-28T12:45:31Z</time>
      </trkpt>
      <trkpt lat="37.16095" lon="-8.59807">
        <ele>19.36376953125</ele>
        <time>2019-04-28T12:45:43Z</time>
      </trkpt>
      <trkpt lat="37.16095" lon="-8.59807">
        <ele>19.36376953125</ele>
        <time>2019-04-28T12:45:56Z</time>
      </trkpt>
      <trkpt lat="37.16103" lon="-8.59777">
        <ele>19.36376953125</ele>
        <time>2019-04-28T12:46:05Z</time>
      </trkpt>
      <trkpt lat="37.1609" lon="-8.59788">
        <ele>19.844360351562</ele>
        <time>2019-04-28T12:46:10Z</time>
      </trkpt>
      <trkpt lat="37.16016" lon="-8.59837">
        <ele>19.36376953125</ele>
        <time>2019-04-28T12:46:28Z</time>
      </trkpt>
      <trkpt lat="37.15948" lon="-8.59904">
        <ele>17.441162109375</ele>
        <time>2019-04-28T12:46:45Z</time>
      </trkpt>
      <trkpt lat="37.15915" lon="-8.59944">
        <ele>15.9990234375</ele>
        <time>2019-04-28T12:46:55Z</time>
      </trkpt>
      <trkpt lat="37.15907" lon="-8.59942">
        <ele>15.518432617188</ele>
        <time>2019-04-28T12:47:00Z</time>
      </trkpt>
      <trkpt lat="37.15882" lon="-8.59886">
        <ele>17.921752929688</ele>
        <time>2019-04-28T12:47:11Z</time>
      </trkpt>
      <trkpt lat="37.15849" lon="-8.59866">
        <ele>19.844360351562</ele>
        <time>2019-04-28T12:47:22Z</time>
      </trkpt>
      <trkpt lat="37.15796" lon="-8.59853">
        <ele>19.36376953125</ele>
        <time>2019-04-28T12:47:35Z</time>
      </trkpt>
      <trkpt lat="37.15725" lon="-8.59841">
        <ele>16.479736328125</ele>
        <time>2019-04-28T12:47:50Z</time>
      </trkpt>
      <trkpt lat="37.15706" lon="-8.59841">
        <ele>15.9990234375</ele>
        <time>2019-04-28T12:47:54Z</time>
      </trkpt>
      <trkpt lat="37.15658" lon="-8.59828">
        <ele>13.115112304688</ele>
        <time>2019-04-28T12:48:04Z</time>
      </trkpt>
      <trkpt lat="37.15652" lon="-8.59826">
        <ele>12.634399414062</ele>
        <time>2019-04-28T12:48:05Z</time>
      </trkpt>
      <trkpt lat="37.15627" lon="-8.5983">
        <ele>11.673217773438</ele>
        <time>2019-04-28T12:48:09Z</time>
      </trkpt>
      <trkpt lat="37.15574" lon="-8.59843">
        <ele>12.634399414062</ele>
        <time>2019-04-28T12:48:19Z</time>
      </trkpt>
      <trkpt lat="37.15535" lon="-8.5984">
        <ele>16.96044921875</ele>
        <time>2019-04-28T12:48:28Z</time>
      </trkpt>
      <trkpt lat="37.15505" lon="-8.59819">
        <ele>17.441162109375</ele>
        <time>2019-04-28T12:48:38Z</time>
      </trkpt>
      <trkpt lat="37.15471" lon="-8.5979">
        <ele>16.96044921875</ele>
        <time>2019-04-28T12:48:49Z</time>
      </trkpt>
      <trkpt lat="37.15459" lon="-8.59779">
        <ele>15.9990234375</ele>
        <time>2019-04-28T12:48:53Z</time>
      </trkpt>
      <trkpt lat="37.15463" lon="-8.59759">
        <ele>16.96044921875</ele>
        <time>2019-04-28T12:48:57Z</time>
      </trkpt>
      <trkpt lat="37.15464" lon="-8.59723">
        <ele>19.844360351562</ele>
        <time>2019-04-28T12:49:06Z</time>
      </trkpt>
      <trkpt lat="37.15475" lon="-8.59674">
        <ele>19.36376953125</ele>
        <time>2019-04-28T12:49:18Z</time>
      </trkpt>
      <trkpt lat="37.15507" lon="-8.59618">
        <ele>19.36376953125</ele>
        <time>2019-04-28T12:49:32Z</time>
      </trkpt>
      <trkpt lat="37.1551" lon="-8.59591">
        <ele>18.883056640625</ele>
        <time>2019-04-28T12:49:37Z</time>
      </trkpt>
      <trkpt lat="37.15506" lon="-8.59581">
        <ele>18.40234375</ele>
        <time>2019-04-28T12:49:39Z</time>
      </trkpt>
      <trkpt lat="37.15492" lon="-8.59493">
        <ele>18.883056640625</ele>
        <time>2019-04-28T12:49:56Z</time>
      </trkpt>
      <trkpt lat="37.15486" lon="-8.59492">
        <ele>17.921752929688</ele>
        <time>2019-04-28T12:49:58Z</time>
      </trkpt>
      <trkpt lat="37.15473" lon="-8.5949">
        <ele>17.441162109375</ele>
        <time>2019-04-28T12:50:01Z</time>
      </trkpt>
      <trkpt lat="37.15458" lon="-8.59486">
        <ele>16.479736328125</ele>
        <time>2019-04-28T12:50:04Z</time>
      </trkpt>
      <trkpt lat="37.15447" lon="-8.59484">
        <ele>15.9990234375</ele>
        <time>2019-04-28T12:50:06Z</time>
      </trkpt>
      <trkpt lat="37.1543" lon="-8.59452">
        <ele>13.595825195312</ele>
        <time>2019-04-28T12:50:13Z</time>
      </trkpt>
      <trkpt lat="37.15455" lon="-8.59366">
        <ele>13.115112304688</ele>
        <time>2019-04-28T12:50:29Z</time>
      </trkpt>
      <trkpt lat="37.15456" lon="-8.59361">
        <ele>13.115112304688</ele>
        <time>2019-04-28T12:50:30Z</time>
      </trkpt>
      <trkpt lat="37.15448" lon="-8.59349">
        <ele>12.634399414062</ele>
        <time>2019-04-28T12:50:34Z</time>
      </trkpt>
      <trkpt lat="37.15441" lon="-8.59344">
        <ele>12.634399414062</ele>
        <time>2019-04-28T12:50:36Z</time>
      </trkpt>
      <trkpt lat="37.15424" lon="-8.59337">
        <ele>12.15380859375</ele>
        <time>2019-04-28T12:50:41Z</time>
      </trkpt>
      <trkpt lat="37.15408" lon="-8.59319">
        <ele>11.673217773438</ele>
        <time>2019-04-28T12:50:47Z</time>
      </trkpt>
      <trkpt lat="37.154" lon="-8.59319">
        <ele>11.673217773438</ele>
        <time>2019-04-28T12:51:00Z</time>
      </trkpt>
      <trkpt lat="37.15375" lon="-8.59319">
        <ele>11.673217773438</ele>
        <time>2019-04-28T12:51:25Z</time>
      </trkpt>
      <trkpt lat="37.15315" lon="-8.59313">
        <ele>12.15380859375</ele>
        <time>2019-04-28T12:51:41Z</time>
      </trkpt>
      <trkpt lat="37.15254" lon="-8.59285">
        <ele>12.15380859375</ele>
        <time>2019-04-28T12:51:57Z</time>
      </trkpt>
      <trkpt lat="37.15247" lon="-8.59281">
        <ele>12.15380859375</ele>
        <time>2019-04-28T12:51:59Z</time>
      </trkpt>
      <trkpt lat="37.15224" lon="-8.59267">
        <ele>11.673217773438</ele>
        <time>2019-04-28T12:52:05Z</time>
      </trkpt>
      <trkpt lat="37.15161" lon="-8.59201">
        <ele>11.673217773438</ele>
        <time>2019-04-28T12:52:24Z</time>
      </trkpt>
      <trkpt lat="37.15108" lon="-8.59133">
        <ele>11.673217773438</ele>
        <time>2019-04-28T12:52:42Z</time>
      </trkpt>
      <trkpt lat="37.15089" lon="-8.59127">
        <ele>10.711791992188</ele>
        <time>2019-04-28T12:52:47Z</time>
      </trkpt>
      <trkpt lat="37.15072" lon="-8.5913">
        <ele>12.15380859375</ele>
        <time>2019-04-28T12:52:51Z</time>
      </trkpt>
      <trkpt lat="37.15031" lon="-8.59153">
        <ele>12.15380859375</ele>
        <time>2019-04-28T12:53:02Z</time>
      </trkpt>
      <trkpt lat="37.14961" lon="-8.59195">
        <ele>11.673217773438</ele>
        <time>2019-04-28T12:53:21Z</time>
      </trkpt>
      <trkpt lat="37.149" lon="-8.59226">
        <ele>12.15380859375</ele>
        <time>2019-04-28T12:53:38Z</time>
      </trkpt>
      <trkpt lat="37.14851" lon="-8.59251">
        <ele>11.673217773438</ele>
        <time>2019-04-28T12:53:52Z</time>
      </trkpt>
      <trkpt lat="37.14823" lon="-8.59265">
        <ele>11.192504882812</ele>
        <time>2019-04-28T12:54:02Z</time>
      </trkpt>
      <trkpt lat="37.14807" lon="-8.59273">
        <ele>11.192504882812</ele>
        <time>2019-04-28T12:54:08Z</time>
      </trkpt>
      <trkpt lat="37.14792" lon="-8.5928">
        <ele>11.192504882812</ele>
        <time>2019-04-28T12:54:13Z</time>
      </trkpt>
      <trkpt lat="37.14733" lon="-8.59308">
        <ele>10.231201171875</ele>
        <time>2019-04-28T12:54:29Z</time>
      </trkpt>
      <trkpt lat="37.14697" lon="-8.59325">
        <ele>10.711791992188</ele>
        <time>2019-04-28T12:54:41Z</time>
      </trkpt>
      <trkpt lat="37.14672" lon="-8.59341">
        <ele>11.192504882812</ele>
        <time>2019-04-28T12:54:52Z</time>
      </trkpt>
      <trkpt lat="37.1463" lon="-8.59368">
        <ele>10.711791992188</ele>
        <time>2019-04-28T12:55:06Z</time>
      </trkpt>
      <trkpt lat="37.14601" lon="-8.59387">
        <ele>11.192504882812</ele>
        <time>2019-04-28T12:55:16Z</time>
      </trkpt>
      <trkpt lat="37.14571" lon="-8.59407">
        <ele>11.192504882812</ele>
        <time>2019-04-28T12:55:26Z</time>
      </trkpt>
      <trkpt lat="37.14563" lon="-8.59414">
        <ele>11.673217773438</ele>
        <time>2019-04-28T12:55:30Z</time>
      </trkpt>
      <trkpt lat="37.14516" lon="-8.59454">
        <ele>11.673217773438</ele>
        <time>2019-04-28T12:55:46Z</time>
      </trkpt>
      <trkpt lat="37.14507" lon="-8.59463">
        <ele>10.711791992188</ele>
        <time>2019-04-28T12:55:56Z</time>
      </trkpt>
      <trkpt lat="37.14489" lon="-8.59481">
        <ele>11.673217773438</ele>
        <time>2019-04-28T12:56:13Z</time>
      </trkpt>
      <trkpt lat="37.14468" lon="-8.59503">
        <ele>12.15380859375</ele>
        <time>2019-04-28T12:56:24Z</time>
      </trkpt>
      <trkpt lat="37.14455" lon="-8.59517">
        <ele>10.711791992188</ele>
        <time>2019-04-28T12:56:36Z</time>
      </trkpt>
      <trkpt lat="37.14445" lon="-8.59528">
        <ele>11.673217773438</ele>
        <time>2019-04-28T12:57:06Z</time>
      </trkpt>
      <trkpt lat="37.1441" lon="-8.59557">
        <ele>11.192504882812</ele>
        <time>2019-04-28T12:57:22Z</time>
      </trkpt>
      <trkpt lat="37.14382" lon="-8.59577">
        <ele>11.673217773438</ele>
        <time>2019-04-28T12:57:32Z</time>
      </trkpt>
      <trkpt lat="37.14325" lon="-8.59619">
        <ele>12.634399414062</ele>
        <time>2019-04-28T12:57:51Z</time>
      </trkpt>
      <trkpt lat="37.14295" lon="-8.59638">
        <ele>13.115112304688</ele>
        <time>2019-04-28T12:58:02Z</time>
      </trkpt>
      <trkpt lat="37.14289" lon="-8.59636">
        <ele>13.595825195312</ele>
        <time>2019-04-28T12:58:07Z</time>
      </trkpt>
      <trkpt lat="37.14263" lon="-8.59578">
        <ele>10.711791992188</ele>
        <time>2019-04-28T12:58:23Z</time>
      </trkpt>
      <trkpt lat="37.14246" lon="-8.59541">
        <ele>12.634399414062</ele>
        <time>2019-04-28T12:58:30Z</time>
      </trkpt>
      <trkpt lat="37.14246" lon="-8.59541">
        <ele>13.595825195312</ele>
        <time>2019-04-28T12:58:32Z</time>
      </trkpt>
      <trkpt lat="37.14211" lon="-8.59467">
        <ele>11.673217773438</ele>
        <time>2019-04-28T12:58:51Z</time>
      </trkpt>
      <trkpt lat="37.14209" lon="-8.59464">
        <ele>11.673217773438</ele>
        <time>2019-04-28T12:58:52Z</time>
      </trkpt>
      <trkpt lat="37.14205" lon="-8.59453">
        <ele>14.076416015625</ele>
        <time>2019-04-28T12:58:55Z</time>
      </trkpt>
      <trkpt lat="37.14198" lon="-8.59438">
        <ele>13.595825195312</ele>
        <time>2019-04-28T12:59:01Z</time>
      </trkpt>
      <trkpt lat="37.14191" lon="-8.59423">
        <ele>13.115112304688</ele>
        <time>2019-04-28T12:59:07Z</time>
      </trkpt>
      <trkpt lat="37.14185" lon="-8.59404">
        <ele>13.115112304688</ele>
        <time>2019-04-28T12:59:15Z</time>
      </trkpt>
      <trkpt lat="37.142" lon="-8.59383">
        <ele>10.711791992188</ele>
        <time>2019-04-28T12:59:27Z</time>
      </trkpt>
      <trkpt lat="37.142" lon="-8.59383">
        <ele>10.711791992188</ele>
        <time>2019-04-28T13:00:13Z</time>
      </trkpt>
      <trkpt lat="37.14213" lon="-8.59354">
        <ele>10.711791992188</ele>
        <time>2019-04-28T13:00:52Z</time>
      </trkpt>
      <trkpt lat="37.14238" lon="-8.59287">
        <ele>10.231201171875</ele>
        <time>2019-04-28T13:01:09Z</time>
      </trkpt>
      <trkpt lat="37.14257" lon="-8.59237">
        <ele>10.231201171875</ele>
        <time>2019-04-28T13:01:21Z</time>
      </trkpt>
      <trkpt lat="37.1426" lon="-8.59215">
        <ele>10.231201171875</ele>
        <time>2019-04-28T13:01:25Z</time>
      </trkpt>
      <trkpt lat="37.14252" lon="-8.59184">
        <ele>10.231201171875</ele>
        <time>2019-04-28T13:01:31Z</time>
      </trkpt>
      <trkpt lat="37.14185" lon="-8.59148">
        <ele>10.231201171875</ele>
        <time>2019-04-28T13:01:48Z</time>
      </trkpt>
      <trkpt lat="37.14095" lon="-8.59116">
        <ele>11.192504882812</ele>
        <time>2019-04-28T13:02:11Z</time>
      </trkpt>
      <trkpt lat="37.14043" lon="-8.59068">
        <ele>10.711791992188</ele>
        <time>2019-04-28T13:02:28Z</time>
      </trkpt>
      <trkpt lat="37.1404" lon="-8.59064">
        <ele>10.711791992188</ele>
        <time>2019-04-28T13:02:31Z</time>
      </trkpt>
      <trkpt lat="37.14025" lon="-8.59091">
        <ele>10.231201171875</ele>
        <time>2019-04-28T13:02:40Z</time>
      </trkpt>
      <trkpt lat="37.14022" lon="-8.59095">
        <ele>10.231201171875</ele>
        <time>2019-04-28T13:02:41Z</time>
      </trkpt>
      <trkpt lat="37.14039" lon="-8.59161">
        <ele>10.231201171875</ele>
        <time>2019-04-28T13:02:47Z</time>
      </trkpt>
      <trkpt lat="37.14033" lon="-8.59168">
        <ele>11.192504882812</ele>
        <time>2019-04-28T13:02:49Z</time>
      </trkpt>
      <trkpt lat="37.14024" lon="-8.59179">
        <ele>11.673217773438</ele>
        <time>2019-04-28T13:02:52Z</time>
      </trkpt>
      <trkpt lat="37.14008" lon="-8.59199">
        <ele>13.595825195312</ele>
        <time>2019-04-28T13:02:58Z</time>
      </trkpt>
      <trkpt lat="37.13977" lon="-8.59238">
        <ele>15.9990234375</ele>
        <time>2019-04-28T13:03:11Z</time>
      </trkpt>
      <trkpt lat="37.13898" lon="-8.59211">
        <ele>18.883056640625</ele>
        <time>2019-04-28T13:03:25Z</time>
      </trkpt>
      <trkpt lat="37.13865" lon="-8.59235">
        <ele>22.24755859375</ele>
        <time>2019-04-28T13:03:40Z</time>
      </trkpt>
      <trkpt lat="37.13833" lon="-8.5926">
        <ele>23.689575195312</ele>
        <time>2019-04-28T13:03:56Z</time>
      </trkpt>
      <trkpt lat="37.13831" lon="-8.59261">
        <ele>23.208984375</ele>
        <time>2019-04-28T13:03:57Z</time>
      </trkpt>
      <trkpt lat="37.13828" lon="-8.5927">
        <ele>23.689575195312</ele>
        <time>2019-04-28T13:04:02Z</time>
      </trkpt>
      <trkpt lat="37.13809" lon="-8.59312">
        <ele>21.286376953125</ele>
        <time>2019-04-28T13:04:15Z</time>
      </trkpt>
      <trkpt lat="37.13807" lon="-8.59331">
        <ele>21.286376953125</ele>
        <time>2019-04-28T13:04:21Z</time>
      </trkpt>
      <trkpt lat="37.13806" lon="-8.59334">
        <ele>21.766967773438</ele>
        <time>2019-04-28T13:04:42Z</time>
      </trkpt>
      <trkpt lat="37.13802" lon="-8.59339">
        <ele>20.8056640625</ele>
        <time>2019-04-28T13:05:03Z</time>
      </trkpt>
      <trkpt lat="37.13789" lon="-8.59346">
        <ele>18.40234375</ele>
        <time>2019-04-28T13:05:06Z</time>
      </trkpt>
      <trkpt lat="37.13777" lon="-8.59351">
        <ele>17.441162109375</ele>
        <time>2019-04-28T13:05:08Z</time>
      </trkpt>
      <trkpt lat="37.13746" lon="-8.59373">
        <ele>14.076416015625</ele>
        <time>2019-04-28T13:05:13Z</time>
      </trkpt>
      <trkpt lat="37.13743" lon="-8.59379">
        <ele>14.557006835938</ele>
        <time>2019-04-28T13:05:14Z</time>
      </trkpt>
      <trkpt lat="37.13735" lon="-8.59397">
        <ele>11.192504882812</ele>
        <time>2019-04-28T13:05:19Z</time>
      </trkpt>
      <trkpt lat="37.13705" lon="-8.594">
        <ele>14.557006835938</ele>
        <time>2019-04-28T13:05:27Z</time>
      </trkpt>
      <trkpt lat="37.13702" lon="-8.59401">
        <ele>14.557006835938</ele>
        <time>2019-04-28T13:05:28Z</time>
      </trkpt>
      <trkpt lat="37.13692" lon="-8.59404">
        <ele>15.9990234375</ele>
        <time>2019-04-28T13:05:32Z</time>
      </trkpt>
      <trkpt lat="37.13688" lon="-8.59405">
        <ele>16.96044921875</ele>
        <time>2019-04-28T13:05:34Z</time>
      </trkpt>
      <trkpt lat="37.13671" lon="-8.59411">
        <ele>16.479736328125</ele>
        <time>2019-04-28T13:05:41Z</time>
      </trkpt>
      <trkpt lat="37.13654" lon="-8.59425">
        <ele>17.921752929688</ele>
        <time>2019-04-28T13:05:46Z</time>
      </trkpt>
      <trkpt lat="37.13639" lon="-8.59441">
        <ele>20.8056640625</ele>
        <time>2019-04-28T13:05:52Z</time>
      </trkpt>
      <trkpt lat="37.13609" lon="-8.59462">
        <ele>24.170288085938</ele>
        <time>2019-04-28T13:06:05Z</time>
      </trkpt>
      <trkpt lat="37.13581" lon="-8.5948">
        <ele>26.573608398438</ele>
        <time>2019-04-28T13:06:19Z</time>
      </trkpt>
      <trkpt lat="37.13576" lon="-8.59484">
        <ele>26.092895507812</ele>
        <time>2019-04-28T13:06:30Z</time>
      </trkpt>
      <trkpt lat="37.13558" lon="-8.59499">
        <ele>25.6123046875</ele>
        <time>2019-04-28T13:06:48Z</time>
      </trkpt>
      <trkpt lat="37.13555" lon="-8.59501">
        <ele>25.131713867188</ele>
        <time>2019-04-28T13:06:49Z</time>
      </trkpt>
      <trkpt lat="37.13541" lon="-8.59484">
        <ele>24.651000976562</ele>
        <time>2019-04-28T13:06:56Z</time>
      </trkpt>
      <trkpt lat="37.13531" lon="-8.59485">
        <ele>21.766967773438</ele>
        <time>2019-04-28T13:07:00Z</time>
      </trkpt>
      <trkpt lat="37.13524" lon="-8.59489">
        <ele>20.8056640625</ele>
        <time>2019-04-28T13:07:02Z</time>
      </trkpt>
      <trkpt lat="37.13511" lon="-8.59488">
        <ele>18.883056640625</ele>
        <time>2019-04-28T13:07:05Z</time>
      </trkpt>
      <trkpt lat="37.13485" lon="-8.59499">
        <ele>16.96044921875</ele>
        <time>2019-04-28T13:07:10Z</time>
      </trkpt>
      <trkpt lat="37.13477" lon="-8.59503">
        <ele>17.921752929688</ele>
        <time>2019-04-28T13:07:12Z</time>
      </trkpt>
      <trkpt lat="37.13457" lon="-8.59508">
        <ele>21.286376953125</ele>
        <time>2019-04-28T13:07:19Z</time>
      </trkpt>
      <trkpt lat="37.1342" lon="-8.59516">
        <ele>21.286376953125</ele>
        <time>2019-04-28T13:07:32Z</time>
      </trkpt>
      <trkpt lat="37.13417" lon="-8.59521">
        <ele>21.286376953125</ele>
        <time>2019-04-28T13:07:33Z</time>
      </trkpt>
      <trkpt lat="37.13399" lon="-8.5953">
        <ele>21.766967773438</ele>
        <time>2019-04-28T13:07:38Z</time>
      </trkpt>
      <trkpt lat="37.13364" lon="-8.59528">
        <ele>23.689575195312</ele>
        <time>2019-04-28T13:07:51Z</time>
      </trkpt>
      <trkpt lat="37.13337" lon="-8.59507">
        <ele>23.689575195312</ele>
        <time>2019-04-28T13:08:01Z</time>
      </trkpt>
      <trkpt lat="37.13326" lon="-8.59492">
        <ele>22.728271484375</ele>
        <time>2019-04-28T13:08:06Z</time>
      </trkpt>
      <trkpt lat="37.1332" lon="-8.59488">
        <ele>22.24755859375</ele>
        <time>2019-04-28T13:08:08Z</time>
      </trkpt>
      <trkpt lat="37.13313" lon="-8.59488">
        <ele>21.286376953125</ele>
        <time>2019-04-28T13:08:11Z</time>
      </trkpt>
      <trkpt lat="37.13298" lon="-8.59473">
        <ele>18.40234375</ele>
        <time>2019-04-28T13:08:16Z</time>
      </trkpt>
      <trkpt lat="37.13277" lon="-8.59443">
        <ele>17.441162109375</ele>
        <time>2019-04-28T13:08:23Z</time>
      </trkpt>
      <trkpt lat="37.1326" lon="-8.59449">
        <ele>14.076416015625</ele>
        <time>2019-04-28T13:08:27Z</time>
      </trkpt>
      <trkpt lat="37.13261" lon="-8.59456">
        <ele>13.595825195312</ele>
        <time>2019-04-28T13:08:29Z</time>
      </trkpt>
      <trkpt lat="37.13267" lon="-8.59466">
        <ele>12.634399414062</ele>
        <time>2019-04-28T13:08:32Z</time>
      </trkpt>
      <trkpt lat="37.1329" lon="-8.5951">
        <ele>10.711791992188</ele>
        <time>2019-04-28T13:08:42Z</time>
      </trkpt>
      <trkpt lat="37.13295" lon="-8.59518">
        <ele>10.231201171875</ele>
        <time>2019-04-28T13:08:44Z</time>
      </trkpt>
      <trkpt lat="37.13284" lon="-8.59541">
        <ele>10.711791992188</ele>
        <time>2019-04-28T13:08:53Z</time>
      </trkpt>
      <trkpt lat="37.1325" lon="-8.59587">
        <ele>11.192504882812</ele>
        <time>2019-04-28T13:09:10Z</time>
      </trkpt>
      <trkpt lat="37.132" lon="-8.59626">
        <ele>11.192504882812</ele>
        <time>2019-04-28T13:09:28Z</time>
      </trkpt>
      <trkpt lat="37.13146" lon="-8.59656">
        <ele>11.192504882812</ele>
        <time>2019-04-28T13:09:47Z</time>
      </trkpt>
      <trkpt lat="37.13101" lon="-8.59658">
        <ele>10.711791992188</ele>
        <time>2019-04-28T13:10:03Z</time>
      </trkpt>
      <trkpt lat="37.13062" lon="-8.59646">
        <ele>10.711791992188</ele>
        <time>2019-04-28T13:10:19Z</time>
      </trkpt>
      <trkpt lat="37.13021" lon="-8.59648">
        <ele>11.192504882812</ele>
        <time>2019-04-28T13:10:34Z</time>
      </trkpt>
      <trkpt lat="37.12991" lon="-8.59667">
        <ele>11.192504882812</ele>
        <time>2019-04-28T13:10:47Z</time>
      </trkpt>
      <trkpt lat="37.12953" lon="-8.5967">
        <ele>11.192504882812</ele>
        <time>2019-04-28T13:11:00Z</time>
      </trkpt>
      <trkpt lat="37.12921" lon="-8.59652">
        <ele>11.192504882812</ele>
        <time>2019-04-28T13:11:15Z</time>
      </trkpt>
      <trkpt lat="37.12898" lon="-8.59644">
        <ele>10.711791992188</ele>
        <time>2019-04-28T13:11:27Z</time>
      </trkpt>
      <trkpt lat="37.12871" lon="-8.59628">
        <ele>10.711791992188</ele>
        <time>2019-04-28T13:11:43Z</time>
      </trkpt>
      <trkpt lat="37.1284" lon="-8.59612">
        <ele>10.711791992188</ele>
        <time>2019-04-28T13:11:56Z</time>
      </trkpt>
      <trkpt lat="37.12813" lon="-8.59593">
        <ele>10.711791992188</ele>
        <time>2019-04-28T13:12:08Z</time>
      </trkpt>
      <trkpt lat="37.12783" lon="-8.59563">
        <ele>11.192504882812</ele>
        <time>2019-04-28T13:12:20Z</time>
      </trkpt>
      <trkpt lat="37.12752" lon="-8.59549">
        <ele>11.192504882812</ele>
        <time>2019-04-28T13:12:31Z</time>
      </trkpt>
      <trkpt lat="37.12707" lon="-8.59568">
        <ele>10.711791992188</ele>
        <time>2019-04-28T13:12:45Z</time>
      </trkpt>
      <trkpt lat="37.12661" lon="-8.59608">
        <ele>11.192504882812</ele>
        <time>2019-04-28T13:13:03Z</time>
      </trkpt>
      <trkpt lat="37.12655" lon="-8.59615">
        <ele>11.192504882812</ele>
        <time>2019-04-28T13:13:06Z</time>
      </trkpt>
      <trkpt lat="37.12648" lon="-8.59611">
        <ele>11.192504882812</ele>
        <time>2019-04-28T13:13:10Z</time>
      </trkpt>
      <trkpt lat="37.12644" lon="-8.59602">
        <ele>10.711791992188</ele>
        <time>2019-04-28T13:13:13Z</time>
      </trkpt>
      <trkpt lat="37.12622" lon="-8.59619">
        <ele>10.231201171875</ele>
        <time>2019-04-28T13:13:22Z</time>
      </trkpt>
      <trkpt lat="37.12595" lon="-8.59701">
        <ele>12.15380859375</ele>
        <time>2019-04-28T13:13:40Z</time>
      </trkpt>
      <trkpt lat="37.12553" lon="-8.59752">
        <ele>11.192504882812</ele>
        <time>2019-04-28T13:13:55Z</time>
      </trkpt>
      <trkpt lat="37.12477" lon="-8.59806">
        <ele>11.192504882812</ele>
        <time>2019-04-28T13:14:17Z</time>
      </trkpt>
      <trkpt lat="37.12454" lon="-8.5983">
        <ele>11.192504882812</ele>
        <time>2019-04-28T13:14:24Z</time>
      </trkpt>
      <trkpt lat="37.12446" lon="-8.59848">
        <ele>10.711791992188</ele>
        <time>2019-04-28T13:14:28Z</time>
      </trkpt>
      <trkpt lat="37.12425" lon="-8.5995">
        <ele>10.711791992188</ele>
        <time>2019-04-28T13:14:47Z</time>
      </trkpt>
      <trkpt lat="37.12423" lon="-8.59961">
        <ele>10.231201171875</ele>
        <time>2019-04-28T13:14:50Z</time>
      </trkpt>
      <trkpt lat="37.12416" lon="-8.59958">
        <ele>10.711791992188</ele>
        <time>2019-04-28T13:14:55Z</time>
      </trkpt>
      <trkpt lat="37.12382" lon="-8.5987">
        <ele>11.673217773438</ele>
        <time>2019-04-28T13:15:16Z</time>
      </trkpt>
      <trkpt lat="37.1237" lon="-8.59808">
        <ele>12.15380859375</ele>
        <time>2019-04-28T13:15:32Z</time>
      </trkpt>
      <trkpt lat="37.12362" lon="-8.59715">
        <ele>12.634399414062</ele>
        <time>2019-04-28T13:15:50Z</time>
      </trkpt>
      <trkpt lat="37.12354" lon="-8.59646">
        <ele>11.673217773438</ele>
        <time>2019-04-28T13:16:05Z</time>
      </trkpt>
      <trkpt lat="37.12374" lon="-8.59623">
        <ele>10.711791992188</ele>
        <time>2019-04-28T13:16:15Z</time>
      </trkpt>
      <trkpt lat="37.12374" lon="-8.59623">
        <ele>10.711791992188</ele>
        <time>2019-04-28T13:16:34Z</time>
      </trkpt>
      <trkpt lat="37.12374" lon="-8.59623">
        <ele>10.231201171875</ele>
        <time>2019-04-28T13:16:40Z</time>
      </trkpt>
    </trkseg>
  </trk>
</gpx>